<?xml version="1.0" encoding="UTF-8" standalone="no" ?>
<gpx xmlns="http://www.topografix.com/GPX/1/1" xmlns:xsi="http://www.w3.org/2001/XMLSchema-instance" xsi:schemaLocation="http://www.topografix.com/GPX/1/1 http://www.topografix.com/GPX/1/1/gpx.xsd" version="1.1" creator="VisuGPX - https://www.visugpx.com">
  <metadata>
    <name>StCroix Mazet LaTerrasse CroixDuCollet Pavezin Chateauneuf 55</name>
    <desc><![CDATA[StCroix Mazet LaTerrasse CroixDuCollet Pavezin Chateauneuf 55]]></desc>
  </metadata>
  <trk>
    <name><![CDATA[st croix, mazet, la terrasse, croix du collet, pavezin, chateauneuf , 55 on GPSies.com]]></name>
    <trkseg>
      <trkpt lat="45.52272" lon="4.62407">
        <ele>253</ele>
        <time>2010-01-01T00:00:00Z</time>
      </trkpt>
      <trkpt lat="45.52271" lon="4.62407">
        <ele>253</ele>
        <time>2010-01-01T00:00:00Z</time>
      </trkpt>
      <trkpt lat="45.52275" lon="4.62451">
        <ele>254</ele>
        <time>2010-01-01T00:00:12Z</time>
      </trkpt>
      <trkpt lat="45.5225" lon="4.62467">
        <ele>256</ele>
        <time>2010-01-01T00:00:23Z</time>
      </trkpt>
      <trkpt lat="45.5223" lon="4.62484">
        <ele>257</ele>
        <time>2010-01-01T00:00:33Z</time>
      </trkpt>
      <trkpt lat="45.52213" lon="4.62505">
        <ele>258</ele>
        <time>2010-01-01T00:00:42Z</time>
      </trkpt>
      <trkpt lat="45.52166" lon="4.62545">
        <ele>259</ele>
        <time>2010-01-01T00:01:04Z</time>
      </trkpt>
      <trkpt lat="45.52158" lon="4.62569">
        <ele>262</ele>
        <time>2010-01-01T00:01:11Z</time>
      </trkpt>
      <trkpt lat="45.52152" lon="4.62595">
        <ele>267</ele>
        <time>2010-01-01T00:01:19Z</time>
      </trkpt>
      <trkpt lat="45.52132" lon="4.62612">
        <ele>268</ele>
        <time>2010-01-01T00:01:28Z</time>
      </trkpt>
      <trkpt lat="45.52064" lon="4.62631">
        <ele>265</ele>
        <time>2010-01-01T00:01:56Z</time>
      </trkpt>
      <trkpt lat="45.51955" lon="4.62621">
        <ele>263</ele>
        <time>2010-01-01T00:02:40Z</time>
      </trkpt>
      <trkpt lat="45.5194" lon="4.62631">
        <ele>264</ele>
        <time>2010-01-01T00:02:46Z</time>
      </trkpt>
      <trkpt lat="45.5193" lon="4.62659">
        <ele>269</ele>
        <time>2010-01-01T00:02:55Z</time>
      </trkpt>
      <trkpt lat="45.51919" lon="4.62675">
        <ele>271</ele>
        <time>2010-01-01T00:03:01Z</time>
      </trkpt>
      <trkpt lat="45.51884" lon="4.62697">
        <ele>267</ele>
        <time>2010-01-01T00:03:17Z</time>
      </trkpt>
      <trkpt lat="45.51874" lon="4.62709">
        <ele>267</ele>
        <time>2010-01-01T00:03:22Z</time>
      </trkpt>
      <trkpt lat="45.51865" lon="4.62729">
        <ele>269</ele>
        <time>2010-01-01T00:03:28Z</time>
      </trkpt>
      <trkpt lat="45.51856" lon="4.6274">
        <ele>271</ele>
        <time>2010-01-01T00:03:33Z</time>
      </trkpt>
      <trkpt lat="45.5184" lon="4.62748">
        <ele>271</ele>
        <time>2010-01-01T00:03:40Z</time>
      </trkpt>
      <trkpt lat="45.51743" lon="4.62782">
        <ele>271</ele>
        <time>2010-01-01T00:04:20Z</time>
      </trkpt>
      <trkpt lat="45.51706" lon="4.62785">
        <ele>273</ele>
        <time>2010-01-01T00:04:35Z</time>
      </trkpt>
      <trkpt lat="45.51695" lon="4.62793">
        <ele>275</ele>
        <time>2010-01-01T00:04:40Z</time>
      </trkpt>
      <trkpt lat="45.51685" lon="4.62805">
        <ele>276</ele>
        <time>2010-01-01T00:04:45Z</time>
      </trkpt>
      <trkpt lat="45.51674" lon="4.62819">
        <ele>278</ele>
        <time>2010-01-01T00:04:51Z</time>
      </trkpt>
      <trkpt lat="45.51652" lon="4.62859">
        <ele>280</ele>
        <time>2010-01-01T00:05:05Z</time>
      </trkpt>
      <trkpt lat="45.51633" lon="4.62873">
        <ele>280</ele>
        <time>2010-01-01T00:05:14Z</time>
      </trkpt>
      <trkpt lat="45.51606" lon="4.62883">
        <ele>279</ele>
        <time>2010-01-01T00:05:25Z</time>
      </trkpt>
      <trkpt lat="45.51567" lon="4.62893">
        <ele>278</ele>
        <time>2010-01-01T00:05:41Z</time>
      </trkpt>
      <trkpt lat="45.51537" lon="4.62891">
        <ele>278</ele>
        <time>2010-01-01T00:05:53Z</time>
      </trkpt>
      <trkpt lat="45.51475" lon="4.62863">
        <ele>281</ele>
        <time>2010-01-01T00:06:19Z</time>
      </trkpt>
      <trkpt lat="45.51458" lon="4.62862">
        <ele>279</ele>
        <time>2010-01-01T00:06:26Z</time>
      </trkpt>
      <trkpt lat="45.51447" lon="4.62874">
        <ele>279</ele>
        <time>2010-01-01T00:06:31Z</time>
      </trkpt>
      <trkpt lat="45.5144" lon="4.62894">
        <ele>281</ele>
        <time>2010-01-01T00:06:37Z</time>
      </trkpt>
      <trkpt lat="45.51437" lon="4.62918">
        <ele>284</ele>
        <time>2010-01-01T00:06:44Z</time>
      </trkpt>
      <trkpt lat="45.51431" lon="4.6294">
        <ele>285</ele>
        <time>2010-01-01T00:06:51Z</time>
      </trkpt>
      <trkpt lat="45.5142" lon="4.62964">
        <ele>285</ele>
        <time>2010-01-01T00:06:59Z</time>
      </trkpt>
      <trkpt lat="45.51408" lon="4.62995">
        <ele>289</ele>
        <time>2010-01-01T00:07:09Z</time>
      </trkpt>
      <trkpt lat="45.51398" lon="4.63012">
        <ele>290</ele>
        <time>2010-01-01T00:07:15Z</time>
      </trkpt>
      <trkpt lat="45.51381" lon="4.63017">
        <ele>289</ele>
        <time>2010-01-01T00:07:22Z</time>
      </trkpt>
      <trkpt lat="45.51364" lon="4.63006">
        <ele>286</ele>
        <time>2010-01-01T00:07:29Z</time>
      </trkpt>
      <trkpt lat="45.51317" lon="4.62932">
        <ele>285</ele>
        <time>2010-01-01T00:07:57Z</time>
      </trkpt>
      <trkpt lat="45.51297" lon="4.62913">
        <ele>286</ele>
        <time>2010-01-01T00:08:07Z</time>
      </trkpt>
      <trkpt lat="45.51281" lon="4.62904">
        <ele>289</ele>
        <time>2010-01-01T00:08:14Z</time>
      </trkpt>
      <trkpt lat="45.51259" lon="4.62903">
        <ele>289</ele>
        <time>2010-01-01T00:08:23Z</time>
      </trkpt>
      <trkpt lat="45.51243" lon="4.6291">
        <ele>290</ele>
        <time>2010-01-01T00:08:30Z</time>
      </trkpt>
      <trkpt lat="45.51212" lon="4.6293">
        <ele>293</ele>
        <time>2010-01-01T00:08:43Z</time>
      </trkpt>
      <trkpt lat="45.51196" lon="4.62934">
        <ele>294</ele>
        <time>2010-01-01T00:08:50Z</time>
      </trkpt>
      <trkpt lat="45.51179" lon="4.62929">
        <ele>294</ele>
        <time>2010-01-01T00:08:57Z</time>
      </trkpt>
      <trkpt lat="45.51156" lon="4.62926">
        <ele>295</ele>
        <time>2010-01-01T00:09:06Z</time>
      </trkpt>
      <trkpt lat="45.51113" lon="4.62939">
        <ele>300</ele>
        <time>2010-01-01T00:09:23Z</time>
      </trkpt>
      <trkpt lat="45.51089" lon="4.62941">
        <ele>301</ele>
        <time>2010-01-01T00:09:33Z</time>
      </trkpt>
      <trkpt lat="45.51046" lon="4.62937">
        <ele>303</ele>
        <time>2010-01-01T00:09:50Z</time>
      </trkpt>
      <trkpt lat="45.51029" lon="4.6294">
        <ele>304</ele>
        <time>2010-01-01T00:09:57Z</time>
      </trkpt>
      <trkpt lat="45.51015" lon="4.62935">
        <ele>306</ele>
        <time>2010-01-01T00:10:03Z</time>
      </trkpt>
      <trkpt lat="45.50997" lon="4.62918">
        <ele>305</ele>
        <time>2010-01-01T00:10:12Z</time>
      </trkpt>
      <trkpt lat="45.50985" lon="4.62901">
        <ele>307</ele>
        <time>2010-01-01T00:10:18Z</time>
      </trkpt>
      <trkpt lat="45.50965" lon="4.62861">
        <ele>303</ele>
        <time>2010-01-01T00:10:32Z</time>
      </trkpt>
      <trkpt lat="45.50949" lon="4.62844">
        <ele>302</ele>
        <time>2010-01-01T00:10:40Z</time>
      </trkpt>
      <trkpt lat="45.50931" lon="4.62832">
        <ele>302</ele>
        <time>2010-01-01T00:10:48Z</time>
      </trkpt>
      <trkpt lat="45.50917" lon="4.6283">
        <ele>304</ele>
        <time>2010-01-01T00:10:54Z</time>
      </trkpt>
      <trkpt lat="45.50893" lon="4.62836">
        <ele>309</ele>
        <time>2010-01-01T00:11:03Z</time>
      </trkpt>
      <trkpt lat="45.50873" lon="4.62829">
        <ele>311</ele>
        <time>2010-01-01T00:11:12Z</time>
      </trkpt>
      <trkpt lat="45.5086" lon="4.6282">
        <ele>311</ele>
        <time>2010-01-01T00:11:17Z</time>
      </trkpt>
      <trkpt lat="45.50849" lon="4.62806">
        <ele>309</ele>
        <time>2010-01-01T00:11:23Z</time>
      </trkpt>
      <trkpt lat="45.50841" lon="4.62785">
        <ele>306</ele>
        <time>2010-01-01T00:11:30Z</time>
      </trkpt>
      <trkpt lat="45.50832" lon="4.62741">
        <ele>302</ele>
        <time>2010-01-01T00:11:43Z</time>
      </trkpt>
      <trkpt lat="45.50821" lon="4.62731">
        <ele>303</ele>
        <time>2010-01-01T00:11:48Z</time>
      </trkpt>
      <trkpt lat="45.50808" lon="4.62732">
        <ele>304</ele>
        <time>2010-01-01T00:11:53Z</time>
      </trkpt>
      <trkpt lat="45.50794" lon="4.62746">
        <ele>305</ele>
        <time>2010-01-01T00:12:00Z</time>
      </trkpt>
      <trkpt lat="45.50784" lon="4.62766">
        <ele>305</ele>
        <time>2010-01-01T00:12:07Z</time>
      </trkpt>
      <trkpt lat="45.50772" lon="4.62824">
        <ele>309</ele>
        <time>2010-01-01T00:12:24Z</time>
      </trkpt>
      <trkpt lat="45.5076" lon="4.62931">
        <ele>319</ele>
        <time>2010-01-01T00:12:54Z</time>
      </trkpt>
      <trkpt lat="45.50749" lon="4.62955">
        <ele>321</ele>
        <time>2010-01-01T00:13:03Z</time>
      </trkpt>
      <trkpt lat="45.50723" lon="4.62973">
        <ele>320</ele>
        <time>2010-01-01T00:13:14Z</time>
      </trkpt>
      <trkpt lat="45.50701" lon="4.62968">
        <ele>316</ele>
        <time>2010-01-01T00:13:23Z</time>
      </trkpt>
      <trkpt lat="45.50683" lon="4.62957">
        <ele>314</ele>
        <time>2010-01-01T00:13:31Z</time>
      </trkpt>
      <trkpt lat="45.5067" lon="4.62955">
        <ele>314</ele>
        <time>2010-01-01T00:13:36Z</time>
      </trkpt>
      <trkpt lat="45.50658" lon="4.62961">
        <ele>315</ele>
        <time>2010-01-01T00:13:41Z</time>
      </trkpt>
      <trkpt lat="45.50606" lon="4.63042">
        <ele>322</ele>
        <time>2010-01-01T00:14:12Z</time>
      </trkpt>
      <trkpt lat="45.50578" lon="4.63069">
        <ele>322</ele>
        <time>2010-01-01T00:14:25Z</time>
      </trkpt>
      <trkpt lat="45.50521" lon="4.63107">
        <ele>324</ele>
        <time>2010-01-01T00:14:51Z</time>
      </trkpt>
      <trkpt lat="45.50482" lon="4.63152">
        <ele>324</ele>
        <time>2010-01-01T00:15:11Z</time>
      </trkpt>
      <trkpt lat="45.50468" lon="4.63181">
        <ele>323</ele>
        <time>2010-01-01T00:15:21Z</time>
      </trkpt>
      <trkpt lat="45.50468" lon="4.63214">
        <ele>325</ele>
        <time>2010-01-01T00:15:30Z</time>
      </trkpt>
      <trkpt lat="45.50474" lon="4.63263">
        <ele>331</ele>
        <time>2010-01-01T00:15:44Z</time>
      </trkpt>
      <trkpt lat="45.50475" lon="4.63291">
        <ele>334</ele>
        <time>2010-01-01T00:15:52Z</time>
      </trkpt>
      <trkpt lat="45.50473" lon="4.63299">
        <ele>335</ele>
        <time>2010-01-01T00:15:54Z</time>
      </trkpt>
      <trkpt lat="45.50468" lon="4.63305">
        <ele>335</ele>
        <time>2010-01-01T00:15:57Z</time>
      </trkpt>
      <trkpt lat="45.50463" lon="4.63308">
        <ele>336</ele>
        <time>2010-01-01T00:15:59Z</time>
      </trkpt>
      <trkpt lat="45.50453" lon="4.63308">
        <ele>335</ele>
        <time>2010-01-01T00:16:03Z</time>
      </trkpt>
      <trkpt lat="45.50447" lon="4.63306">
        <ele>335</ele>
        <time>2010-01-01T00:16:05Z</time>
      </trkpt>
      <trkpt lat="45.50442" lon="4.633">
        <ele>335</ele>
        <time>2010-01-01T00:16:08Z</time>
      </trkpt>
      <trkpt lat="45.50437" lon="4.63289">
        <ele>335</ele>
        <time>2010-01-01T00:16:12Z</time>
      </trkpt>
      <trkpt lat="45.50418" lon="4.63231">
        <ele>327</ele>
        <time>2010-01-01T00:16:30Z</time>
      </trkpt>
      <trkpt lat="45.50414" lon="4.63226">
        <ele>326</ele>
        <time>2010-01-01T00:16:32Z</time>
      </trkpt>
      <trkpt lat="45.50404" lon="4.63221">
        <ele>325</ele>
        <time>2010-01-01T00:16:36Z</time>
      </trkpt>
      <trkpt lat="45.50389" lon="4.63226">
        <ele>327</ele>
        <time>2010-01-01T00:16:42Z</time>
      </trkpt>
      <trkpt lat="45.50334" lon="4.63264">
        <ele>338</ele>
        <time>2010-01-01T00:17:07Z</time>
      </trkpt>
      <trkpt lat="45.50314" lon="4.63272">
        <ele>341</ele>
        <time>2010-01-01T00:17:15Z</time>
      </trkpt>
      <trkpt lat="45.50304" lon="4.63272">
        <ele>341</ele>
        <time>2010-01-01T00:17:19Z</time>
      </trkpt>
      <trkpt lat="45.50282" lon="4.63269">
        <ele>344</ele>
        <time>2010-01-01T00:17:28Z</time>
      </trkpt>
      <trkpt lat="45.50273" lon="4.63265">
        <ele>344</ele>
        <time>2010-01-01T00:17:32Z</time>
      </trkpt>
      <trkpt lat="45.50261" lon="4.63259">
        <ele>345</ele>
        <time>2010-01-01T00:17:37Z</time>
      </trkpt>
      <trkpt lat="45.50253" lon="4.63251">
        <ele>344</ele>
        <time>2010-01-01T00:17:41Z</time>
      </trkpt>
      <trkpt lat="45.50246" lon="4.6324">
        <ele>343</ele>
        <time>2010-01-01T00:17:45Z</time>
      </trkpt>
      <trkpt lat="45.50229" lon="4.63199">
        <ele>338</ele>
        <time>2010-01-01T00:17:58Z</time>
      </trkpt>
      <trkpt lat="45.50222" lon="4.63187">
        <ele>337</ele>
        <time>2010-01-01T00:18:02Z</time>
      </trkpt>
      <trkpt lat="45.50215" lon="4.63181">
        <ele>336</ele>
        <time>2010-01-01T00:18:06Z</time>
      </trkpt>
      <trkpt lat="45.50207" lon="4.63177">
        <ele>337</ele>
        <time>2010-01-01T00:18:09Z</time>
      </trkpt>
      <trkpt lat="45.5019" lon="4.63177">
        <ele>340</ele>
        <time>2010-01-01T00:18:16Z</time>
      </trkpt>
      <trkpt lat="45.50124" lon="4.6321">
        <ele>345</ele>
        <time>2010-01-01T00:18:44Z</time>
      </trkpt>
      <trkpt lat="45.50112" lon="4.63213">
        <ele>346</ele>
        <time>2010-01-01T00:18:49Z</time>
      </trkpt>
      <trkpt lat="45.50092" lon="4.63214">
        <ele>348</ele>
        <time>2010-01-01T00:18:57Z</time>
      </trkpt>
      <trkpt lat="45.50075" lon="4.6321">
        <ele>350</ele>
        <time>2010-01-01T00:19:04Z</time>
      </trkpt>
      <trkpt lat="45.50068" lon="4.63205">
        <ele>350</ele>
        <time>2010-01-01T00:19:07Z</time>
      </trkpt>
      <trkpt lat="45.50059" lon="4.63194">
        <ele>349</ele>
        <time>2010-01-01T00:19:12Z</time>
      </trkpt>
      <trkpt lat="45.50039" lon="4.63157">
        <ele>345</ele>
        <time>2010-01-01T00:19:25Z</time>
      </trkpt>
      <trkpt lat="45.50014" lon="4.63139">
        <ele>351</ele>
        <time>2010-01-01T00:19:36Z</time>
      </trkpt>
      <trkpt lat="45.50008" lon="4.63132">
        <ele>354</ele>
        <time>2010-01-01T00:19:39Z</time>
      </trkpt>
      <trkpt lat="45.50004" lon="4.63122">
        <ele>355</ele>
        <time>2010-01-01T00:19:42Z</time>
      </trkpt>
      <trkpt lat="45.49997" lon="4.63062">
        <ele>350</ele>
        <time>2010-01-01T00:19:59Z</time>
      </trkpt>
      <trkpt lat="45.49991" lon="4.63052">
        <ele>350</ele>
        <time>2010-01-01T00:20:03Z</time>
      </trkpt>
      <trkpt lat="45.49984" lon="4.63047">
        <ele>350</ele>
        <time>2010-01-01T00:20:06Z</time>
      </trkpt>
      <trkpt lat="45.49975" lon="4.63043">
        <ele>351</ele>
        <time>2010-01-01T00:20:10Z</time>
      </trkpt>
      <trkpt lat="45.49952" lon="4.63041">
        <ele>356</ele>
        <time>2010-01-01T00:20:19Z</time>
      </trkpt>
      <trkpt lat="45.49944" lon="4.63038">
        <ele>357</ele>
        <time>2010-01-01T00:20:22Z</time>
      </trkpt>
      <trkpt lat="45.49937" lon="4.63032">
        <ele>357</ele>
        <time>2010-01-01T00:20:26Z</time>
      </trkpt>
      <trkpt lat="45.49904" lon="4.62996">
        <ele>354</ele>
        <time>2010-01-01T00:20:42Z</time>
      </trkpt>
      <trkpt lat="45.4988" lon="4.62978">
        <ele>353</ele>
        <time>2010-01-01T00:20:53Z</time>
      </trkpt>
      <trkpt lat="45.49857" lon="4.62966">
        <ele>354</ele>
        <time>2010-01-01T00:21:03Z</time>
      </trkpt>
      <trkpt lat="45.49846" lon="4.62964">
        <ele>354</ele>
        <time>2010-01-01T00:21:07Z</time>
      </trkpt>
      <trkpt lat="45.49816" lon="4.62966">
        <ele>356</ele>
        <time>2010-01-01T00:21:19Z</time>
      </trkpt>
      <trkpt lat="45.49806" lon="4.62968">
        <ele>356</ele>
        <time>2010-01-01T00:21:24Z</time>
      </trkpt>
      <trkpt lat="45.49792" lon="4.62974">
        <ele>358</ele>
        <time>2010-01-01T00:21:29Z</time>
      </trkpt>
      <trkpt lat="45.49771" lon="4.62989">
        <ele>365</ele>
        <time>2010-01-01T00:21:39Z</time>
      </trkpt>
      <trkpt lat="45.49754" lon="4.62994">
        <ele>371</ele>
        <time>2010-01-01T00:21:46Z</time>
      </trkpt>
      <trkpt lat="45.49745" lon="4.62974">
        <ele>372</ele>
        <time>2010-01-01T00:21:52Z</time>
      </trkpt>
      <trkpt lat="45.49741" lon="4.62926">
        <ele>366</ele>
        <time>2010-01-01T00:22:06Z</time>
      </trkpt>
      <trkpt lat="45.49689" lon="4.62809">
        <ele>367</ele>
        <time>2010-01-01T00:22:45Z</time>
      </trkpt>
      <trkpt lat="45.49685" lon="4.62763">
        <ele>365</ele>
        <time>2010-01-01T00:22:58Z</time>
      </trkpt>
      <trkpt lat="45.49685" lon="4.62745">
        <ele>364</ele>
        <time>2010-01-01T00:23:03Z</time>
      </trkpt>
      <trkpt lat="45.49684" lon="4.62721">
        <ele>363</ele>
        <time>2010-01-01T00:23:10Z</time>
      </trkpt>
      <trkpt lat="45.49679" lon="4.62705">
        <ele>365</ele>
        <time>2010-01-01T00:23:15Z</time>
      </trkpt>
      <trkpt lat="45.49651" lon="4.62677">
        <ele>367</ele>
        <time>2010-01-01T00:23:28Z</time>
      </trkpt>
      <trkpt lat="45.49623" lon="4.62667">
        <ele>367</ele>
        <time>2010-01-01T00:23:40Z</time>
      </trkpt>
      <trkpt lat="45.4957" lon="4.62658">
        <ele>370</ele>
        <time>2010-01-01T00:24:01Z</time>
      </trkpt>
      <trkpt lat="45.49538" lon="4.62659">
        <ele>371</ele>
        <time>2010-01-01T00:24:14Z</time>
      </trkpt>
      <trkpt lat="45.49512" lon="4.62666">
        <ele>370</ele>
        <time>2010-01-01T00:24:25Z</time>
      </trkpt>
      <trkpt lat="45.49467" lon="4.62687">
        <ele>376</ele>
        <time>2010-01-01T00:24:43Z</time>
      </trkpt>
      <trkpt lat="45.4945" lon="4.6269">
        <ele>376</ele>
        <time>2010-01-01T00:24:50Z</time>
      </trkpt>
      <trkpt lat="45.49383" lon="4.62696">
        <ele>378</ele>
        <time>2010-01-01T00:25:17Z</time>
      </trkpt>
      <trkpt lat="45.49352" lon="4.62686">
        <ele>384</ele>
        <time>2010-01-01T00:25:30Z</time>
      </trkpt>
      <trkpt lat="45.49341" lon="4.62669">
        <ele>385</ele>
        <time>2010-01-01T00:25:36Z</time>
      </trkpt>
      <trkpt lat="45.49335" lon="4.62646">
        <ele>385</ele>
        <time>2010-01-01T00:25:43Z</time>
      </trkpt>
      <trkpt lat="45.49327" lon="4.62581">
        <ele>375</ele>
        <time>2010-01-01T00:26:02Z</time>
      </trkpt>
      <trkpt lat="45.49317" lon="4.62557">
        <ele>373</ele>
        <time>2010-01-01T00:26:10Z</time>
      </trkpt>
      <trkpt lat="45.49307" lon="4.62544">
        <ele>372</ele>
        <time>2010-01-01T00:26:15Z</time>
      </trkpt>
      <trkpt lat="45.49259" lon="4.62527">
        <ele>378</ele>
        <time>2010-01-01T00:26:35Z</time>
      </trkpt>
      <trkpt lat="45.49227" lon="4.62505">
        <ele>375</ele>
        <time>2010-01-01T00:26:49Z</time>
      </trkpt>
      <trkpt lat="45.49205" lon="4.62506">
        <ele>372</ele>
        <time>2010-01-01T00:26:58Z</time>
      </trkpt>
      <trkpt lat="45.49198" lon="4.62512">
        <ele>372</ele>
        <time>2010-01-01T00:27:01Z</time>
      </trkpt>
      <trkpt lat="45.49191" lon="4.62524">
        <ele>372</ele>
        <time>2010-01-01T00:27:06Z</time>
      </trkpt>
      <trkpt lat="45.49182" lon="4.62584">
        <ele>373</ele>
        <time>2010-01-01T00:27:23Z</time>
      </trkpt>
      <trkpt lat="45.49179" lon="4.62621">
        <ele>374</ele>
        <time>2010-01-01T00:27:33Z</time>
      </trkpt>
      <trkpt lat="45.49172" lon="4.62679">
        <ele>378</ele>
        <time>2010-01-01T00:27:50Z</time>
      </trkpt>
      <trkpt lat="45.49148" lon="4.62748">
        <ele>381</ele>
        <time>2010-01-01T00:28:11Z</time>
      </trkpt>
      <trkpt lat="45.49145" lon="4.62764">
        <ele>383</ele>
        <time>2010-01-01T00:28:16Z</time>
      </trkpt>
      <trkpt lat="45.49136" lon="4.62784">
        <ele>384</ele>
        <time>2010-01-01T00:28:23Z</time>
      </trkpt>
      <trkpt lat="45.49125" lon="4.62791">
        <ele>384</ele>
        <time>2010-01-01T00:28:28Z</time>
      </trkpt>
      <trkpt lat="45.49094" lon="4.62779">
        <ele>378</ele>
        <time>2010-01-01T00:28:40Z</time>
      </trkpt>
      <trkpt lat="45.49072" lon="4.62777">
        <ele>380</ele>
        <time>2010-01-01T00:28:49Z</time>
      </trkpt>
      <trkpt lat="45.49025" lon="4.62759">
        <ele>383</ele>
        <time>2010-01-01T00:29:09Z</time>
      </trkpt>
      <trkpt lat="45.48948" lon="4.62739">
        <ele>382</ele>
        <time>2010-01-01T00:29:40Z</time>
      </trkpt>
      <trkpt lat="45.48928" lon="4.62742">
        <ele>379</ele>
        <time>2010-01-01T00:29:48Z</time>
      </trkpt>
      <trkpt lat="45.48917" lon="4.62751">
        <ele>378</ele>
        <time>2010-01-01T00:29:53Z</time>
      </trkpt>
      <trkpt lat="45.48908" lon="4.62765">
        <ele>378</ele>
        <time>2010-01-01T00:29:58Z</time>
      </trkpt>
      <trkpt lat="45.48901" lon="4.6281">
        <ele>381</ele>
        <time>2010-01-01T00:30:11Z</time>
      </trkpt>
      <trkpt lat="45.48873" lon="4.63022">
        <ele>388</ele>
        <time>2010-01-01T00:31:12Z</time>
      </trkpt>
      <trkpt lat="45.48865" lon="4.63088">
        <ele>386</ele>
        <time>2010-01-01T00:31:31Z</time>
      </trkpt>
      <trkpt lat="45.48863" lon="4.63145">
        <ele>388</ele>
        <time>2010-01-01T00:31:47Z</time>
      </trkpt>
      <trkpt lat="45.48855" lon="4.63198">
        <ele>387</ele>
        <time>2010-01-01T00:32:02Z</time>
      </trkpt>
      <trkpt lat="45.48855" lon="4.63217">
        <ele>387</ele>
        <time>2010-01-01T00:32:07Z</time>
      </trkpt>
      <trkpt lat="45.48859" lon="4.6324">
        <ele>387</ele>
        <time>2010-01-01T00:32:14Z</time>
      </trkpt>
      <trkpt lat="45.48871" lon="4.63266">
        <ele>388</ele>
        <time>2010-01-01T00:32:23Z</time>
      </trkpt>
      <trkpt lat="45.48923" lon="4.63367">
        <ele>393</ele>
        <time>2010-01-01T00:32:58Z</time>
      </trkpt>
      <trkpt lat="45.48928" lon="4.63381">
        <ele>394</ele>
        <time>2010-01-01T00:33:02Z</time>
      </trkpt>
      <trkpt lat="45.4893" lon="4.63397">
        <ele>395</ele>
        <time>2010-01-01T00:33:07Z</time>
      </trkpt>
      <trkpt lat="45.48927" lon="4.63413">
        <ele>394</ele>
        <time>2010-01-01T00:33:11Z</time>
      </trkpt>
      <trkpt lat="45.48921" lon="4.63423">
        <ele>395</ele>
        <time>2010-01-01T00:33:15Z</time>
      </trkpt>
      <trkpt lat="45.48909" lon="4.63433">
        <ele>395</ele>
        <time>2010-01-01T00:33:21Z</time>
      </trkpt>
      <trkpt lat="45.48892" lon="4.63434">
        <ele>395</ele>
        <time>2010-01-01T00:33:28Z</time>
      </trkpt>
      <trkpt lat="45.48855" lon="4.63416">
        <ele>393</ele>
        <time>2010-01-01T00:33:43Z</time>
      </trkpt>
      <trkpt lat="45.4883" lon="4.6341">
        <ele>392</ele>
        <time>2010-01-01T00:33:53Z</time>
      </trkpt>
      <trkpt lat="45.48814" lon="4.6342">
        <ele>392</ele>
        <time>2010-01-01T00:34:00Z</time>
      </trkpt>
      <trkpt lat="45.48793" lon="4.6344">
        <ele>394</ele>
        <time>2010-01-01T00:34:10Z</time>
      </trkpt>
      <trkpt lat="45.48764" lon="4.63449">
        <ele>392</ele>
        <time>2010-01-01T00:34:22Z</time>
      </trkpt>
      <trkpt lat="45.48696" lon="4.63494">
        <ele>397</ele>
        <time>2010-01-01T00:34:52Z</time>
      </trkpt>
      <trkpt lat="45.48633" lon="4.63508">
        <ele>398</ele>
        <time>2010-01-01T00:35:18Z</time>
      </trkpt>
      <trkpt lat="45.48611" lon="4.63506">
        <ele>399</ele>
        <time>2010-01-01T00:35:27Z</time>
      </trkpt>
      <trkpt lat="45.48586" lon="4.63499">
        <ele>401</ele>
        <time>2010-01-01T00:35:37Z</time>
      </trkpt>
      <trkpt lat="45.48561" lon="4.6349">
        <ele>402</ele>
        <time>2010-01-01T00:35:47Z</time>
      </trkpt>
      <trkpt lat="45.48509" lon="4.63454">
        <ele>400</ele>
        <time>2010-01-01T00:36:10Z</time>
      </trkpt>
      <trkpt lat="45.4849" lon="4.63444">
        <ele>400</ele>
        <time>2010-01-01T00:36:18Z</time>
      </trkpt>
      <trkpt lat="45.4847" lon="4.63442">
        <ele>402</ele>
        <time>2010-01-01T00:36:26Z</time>
      </trkpt>
      <trkpt lat="45.4845" lon="4.63449">
        <ele>403</ele>
        <time>2010-01-01T00:36:35Z</time>
      </trkpt>
      <trkpt lat="45.4839" lon="4.63488">
        <ele>404</ele>
        <time>2010-01-01T00:37:01Z</time>
      </trkpt>
      <trkpt lat="45.48364" lon="4.63499">
        <ele>405</ele>
        <time>2010-01-01T00:37:12Z</time>
      </trkpt>
      <trkpt lat="45.48298" lon="4.63496">
        <ele>407</ele>
        <time>2010-01-01T00:37:38Z</time>
      </trkpt>
      <trkpt lat="45.48242" lon="4.63464">
        <ele>407</ele>
        <time>2010-01-01T00:38:03Z</time>
      </trkpt>
      <trkpt lat="45.48227" lon="4.6346">
        <ele>407</ele>
        <time>2010-01-01T00:38:09Z</time>
      </trkpt>
      <trkpt lat="45.48213" lon="4.63459">
        <ele>406</ele>
        <time>2010-01-01T00:38:14Z</time>
      </trkpt>
      <trkpt lat="45.48196" lon="4.63464">
        <ele>407</ele>
        <time>2010-01-01T00:38:21Z</time>
      </trkpt>
      <trkpt lat="45.48184" lon="4.63475">
        <ele>406</ele>
        <time>2010-01-01T00:38:27Z</time>
      </trkpt>
      <trkpt lat="45.48179" lon="4.63498">
        <ele>406</ele>
        <time>2010-01-01T00:38:34Z</time>
      </trkpt>
      <trkpt lat="45.48186" lon="4.63533">
        <ele>407</ele>
        <time>2010-01-01T00:38:44Z</time>
      </trkpt>
      <trkpt lat="45.48215" lon="4.63575">
        <ele>409</ele>
        <time>2010-01-01T00:39:00Z</time>
      </trkpt>
      <trkpt lat="45.48243" lon="4.63605">
        <ele>410</ele>
        <time>2010-01-01T00:39:14Z</time>
      </trkpt>
      <trkpt lat="45.48269" lon="4.63636">
        <ele>412</ele>
        <time>2010-01-01T00:39:28Z</time>
      </trkpt>
      <trkpt lat="45.48277" lon="4.63674">
        <ele>411</ele>
        <time>2010-01-01T00:39:39Z</time>
      </trkpt>
      <trkpt lat="45.48283" lon="4.63716">
        <ele>411</ele>
        <time>2010-01-01T00:39:51Z</time>
      </trkpt>
      <trkpt lat="45.48283" lon="4.63755">
        <ele>410</ele>
        <time>2010-01-01T00:40:02Z</time>
      </trkpt>
      <trkpt lat="45.48287" lon="4.63797">
        <ele>410</ele>
        <time>2010-01-01T00:40:14Z</time>
      </trkpt>
      <trkpt lat="45.48293" lon="4.63817">
        <ele>412</ele>
        <time>2010-01-01T00:40:20Z</time>
      </trkpt>
      <trkpt lat="45.48306" lon="4.63851">
        <ele>415</ele>
        <time>2010-01-01T00:40:31Z</time>
      </trkpt>
      <trkpt lat="45.48303" lon="4.63867">
        <ele>415</ele>
        <time>2010-01-01T00:40:36Z</time>
      </trkpt>
      <trkpt lat="45.48294" lon="4.63874">
        <ele>415</ele>
        <time>2010-01-01T00:40:40Z</time>
      </trkpt>
      <trkpt lat="45.48283" lon="4.63876">
        <ele>413</ele>
        <time>2010-01-01T00:40:44Z</time>
      </trkpt>
      <trkpt lat="45.48249" lon="4.63876">
        <ele>409</ele>
        <time>2010-01-01T00:40:58Z</time>
      </trkpt>
      <trkpt lat="45.48234" lon="4.63887">
        <ele>409</ele>
        <time>2010-01-01T00:41:05Z</time>
      </trkpt>
      <trkpt lat="45.48212" lon="4.63922">
        <ele>411</ele>
        <time>2010-01-01T00:41:18Z</time>
      </trkpt>
      <trkpt lat="45.48199" lon="4.63949">
        <ele>412</ele>
        <time>2010-01-01T00:41:27Z</time>
      </trkpt>
      <trkpt lat="45.48203" lon="4.63979">
        <ele>415</ele>
        <time>2010-01-01T00:41:36Z</time>
      </trkpt>
      <trkpt lat="45.48201" lon="4.64002">
        <ele>417</ele>
        <time>2010-01-01T00:41:42Z</time>
      </trkpt>
      <trkpt lat="45.48196" lon="4.64015">
        <ele>418</ele>
        <time>2010-01-01T00:41:46Z</time>
      </trkpt>
      <trkpt lat="45.48146" lon="4.64061">
        <ele>416</ele>
        <time>2010-01-01T00:42:10Z</time>
      </trkpt>
      <trkpt lat="45.48116" lon="4.64075">
        <ele>417</ele>
        <time>2010-01-01T00:42:23Z</time>
      </trkpt>
      <trkpt lat="45.48044" lon="4.6409">
        <ele>414</ele>
        <time>2010-01-01T00:42:52Z</time>
      </trkpt>
      <trkpt lat="45.48027" lon="4.64099">
        <ele>413</ele>
        <time>2010-01-01T00:42:59Z</time>
      </trkpt>
      <trkpt lat="45.48019" lon="4.64108">
        <ele>413</ele>
        <time>2010-01-01T00:43:03Z</time>
      </trkpt>
      <trkpt lat="45.48011" lon="4.64142">
        <ele>414</ele>
        <time>2010-01-01T00:43:13Z</time>
      </trkpt>
      <trkpt lat="45.48007" lon="4.64254">
        <ele>414</ele>
        <time>2010-01-01T00:43:45Z</time>
      </trkpt>
      <trkpt lat="45.48016" lon="4.64286">
        <ele>415</ele>
        <time>2010-01-01T00:43:54Z</time>
      </trkpt>
      <trkpt lat="45.48061" lon="4.64332">
        <ele>422</ele>
        <time>2010-01-01T00:44:16Z</time>
      </trkpt>
      <trkpt lat="45.48067" lon="4.64343">
        <ele>422</ele>
        <time>2010-01-01T00:44:20Z</time>
      </trkpt>
      <trkpt lat="45.48075" lon="4.64378">
        <ele>420</ele>
        <time>2010-01-01T00:44:31Z</time>
      </trkpt>
      <trkpt lat="45.48116" lon="4.64454">
        <ele>423</ele>
        <time>2010-01-01T00:44:58Z</time>
      </trkpt>
      <trkpt lat="45.48126" lon="4.64481">
        <ele>425</ele>
        <time>2010-01-01T00:45:06Z</time>
      </trkpt>
      <trkpt lat="45.4813" lon="4.64509">
        <ele>424</ele>
        <time>2010-01-01T00:45:14Z</time>
      </trkpt>
      <trkpt lat="45.48126" lon="4.64546">
        <ele>424</ele>
        <time>2010-01-01T00:45:25Z</time>
      </trkpt>
      <trkpt lat="45.4812" lon="4.64562">
        <ele>423</ele>
        <time>2010-01-01T00:45:30Z</time>
      </trkpt>
      <trkpt lat="45.48096" lon="4.6459">
        <ele>423</ele>
        <time>2010-01-01T00:45:42Z</time>
      </trkpt>
      <trkpt lat="45.48061" lon="4.64622">
        <ele>421</ele>
        <time>2010-01-01T00:45:59Z</time>
      </trkpt>
      <trkpt lat="45.48041" lon="4.64644">
        <ele>420</ele>
        <time>2010-01-01T00:46:09Z</time>
      </trkpt>
      <trkpt lat="45.48027" lon="4.64672">
        <ele>420</ele>
        <time>2010-01-01T00:46:19Z</time>
      </trkpt>
      <trkpt lat="45.48016" lon="4.64712">
        <ele>424</ele>
        <time>2010-01-01T00:46:31Z</time>
      </trkpt>
      <trkpt lat="45.48007" lon="4.64751">
        <ele>427</ele>
        <time>2010-01-01T00:46:42Z</time>
      </trkpt>
      <trkpt lat="45.47992" lon="4.64768">
        <ele>426</ele>
        <time>2010-01-01T00:46:50Z</time>
      </trkpt>
      <trkpt lat="45.47973" lon="4.6477">
        <ele>424</ele>
        <time>2010-01-01T00:46:58Z</time>
      </trkpt>
      <trkpt lat="45.47959" lon="4.64756">
        <ele>424</ele>
        <time>2010-01-01T00:47:04Z</time>
      </trkpt>
      <trkpt lat="45.47958" lon="4.64756">
        <ele>424</ele>
        <time>2010-01-01T00:47:05Z</time>
      </trkpt>
      <trkpt lat="45.47937" lon="4.64734">
        <ele>423</ele>
        <time>2010-01-01T00:47:15Z</time>
      </trkpt>
      <trkpt lat="45.47926" lon="4.64717">
        <ele>423</ele>
        <time>2010-01-01T00:47:22Z</time>
      </trkpt>
      <trkpt lat="45.47917" lon="4.64712">
        <ele>423</ele>
        <time>2010-01-01T00:47:26Z</time>
      </trkpt>
      <trkpt lat="45.47905" lon="4.64709">
        <ele>423</ele>
        <time>2010-01-01T00:47:30Z</time>
      </trkpt>
      <trkpt lat="45.47892" lon="4.64713">
        <ele>423</ele>
        <time>2010-01-01T00:47:36Z</time>
      </trkpt>
      <trkpt lat="45.47849" lon="4.64679">
        <ele>425</ele>
        <time>2010-01-01T00:47:55Z</time>
      </trkpt>
      <trkpt lat="45.47781" lon="4.64636">
        <ele>440</ele>
        <time>2010-01-01T00:48:25Z</time>
      </trkpt>
      <trkpt lat="45.47733" lon="4.64633">
        <ele>441</ele>
        <time>2010-01-01T00:48:44Z</time>
      </trkpt>
      <trkpt lat="45.47714" lon="4.64625">
        <ele>443</ele>
        <time>2010-01-01T00:48:52Z</time>
      </trkpt>
      <trkpt lat="45.4769" lon="4.6461">
        <ele>445</ele>
        <time>2010-01-01T00:49:03Z</time>
      </trkpt>
      <trkpt lat="45.47664" lon="4.64587">
        <ele>451</ele>
        <time>2010-01-01T00:49:15Z</time>
      </trkpt>
      <trkpt lat="45.47617" lon="4.64563">
        <ele>456</ele>
        <time>2010-01-01T00:49:35Z</time>
      </trkpt>
      <trkpt lat="45.47559" lon="4.64523">
        <ele>464</ele>
        <time>2010-01-01T00:50:01Z</time>
      </trkpt>
      <trkpt lat="45.47511" lon="4.64487">
        <ele>466</ele>
        <time>2010-01-01T00:50:23Z</time>
      </trkpt>
      <trkpt lat="45.47452" lon="4.64432">
        <ele>475</ele>
        <time>2010-01-01T00:50:51Z</time>
      </trkpt>
      <trkpt lat="45.47452" lon="4.64422">
        <ele>477</ele>
        <time>2010-01-01T00:50:54Z</time>
      </trkpt>
      <trkpt lat="45.47459" lon="4.6442">
        <ele>479</ele>
        <time>2010-01-01T00:50:56Z</time>
      </trkpt>
      <trkpt lat="45.47534" lon="4.64448">
        <ele>480</ele>
        <time>2010-01-01T00:51:28Z</time>
      </trkpt>
      <trkpt lat="45.47573" lon="4.64445">
        <ele>481</ele>
        <time>2010-01-01T00:51:43Z</time>
      </trkpt>
      <trkpt lat="45.47596" lon="4.64437">
        <ele>482</ele>
        <time>2010-01-01T00:51:53Z</time>
      </trkpt>
      <trkpt lat="45.47611" lon="4.64424">
        <ele>484</ele>
        <time>2010-01-01T00:52:00Z</time>
      </trkpt>
      <trkpt lat="45.47626" lon="4.64401">
        <ele>484</ele>
        <time>2010-01-01T00:52:08Z</time>
      </trkpt>
      <trkpt lat="45.47629" lon="4.64387">
        <ele>485</ele>
        <time>2010-01-01T00:52:13Z</time>
      </trkpt>
      <trkpt lat="45.47631" lon="4.64366">
        <ele>486</ele>
        <time>2010-01-01T00:52:19Z</time>
      </trkpt>
      <trkpt lat="45.47628" lon="4.64345">
        <ele>487</ele>
        <time>2010-01-01T00:52:25Z</time>
      </trkpt>
      <trkpt lat="45.47556" lon="4.64083">
        <ele>505</ele>
        <time>2010-01-01T00:53:44Z</time>
      </trkpt>
      <trkpt lat="45.47547" lon="4.64043">
        <ele>508</ele>
        <time>2010-01-01T00:53:55Z</time>
      </trkpt>
      <trkpt lat="45.4753" lon="4.63932">
        <ele>513</ele>
        <time>2010-01-01T00:54:27Z</time>
      </trkpt>
      <trkpt lat="45.47525" lon="4.63914">
        <ele>514</ele>
        <time>2010-01-01T00:54:33Z</time>
      </trkpt>
      <trkpt lat="45.47515" lon="4.63898">
        <ele>515</ele>
        <time>2010-01-01T00:54:39Z</time>
      </trkpt>
      <trkpt lat="45.47495" lon="4.63882">
        <ele>517</ele>
        <time>2010-01-01T00:54:48Z</time>
      </trkpt>
      <trkpt lat="45.47452" lon="4.63864">
        <ele>517</ele>
        <time>2010-01-01T00:55:06Z</time>
      </trkpt>
      <trkpt lat="45.47432" lon="4.63861">
        <ele>519</ele>
        <time>2010-01-01T00:55:14Z</time>
      </trkpt>
      <trkpt lat="45.47407" lon="4.63867">
        <ele>523</ele>
        <time>2010-01-01T00:55:24Z</time>
      </trkpt>
      <trkpt lat="45.4729" lon="4.63911">
        <ele>532</ele>
        <time>2010-01-01T00:56:12Z</time>
      </trkpt>
      <trkpt lat="45.47274" lon="4.63895">
        <ele>533</ele>
        <time>2010-01-01T00:56:20Z</time>
      </trkpt>
      <trkpt lat="45.47199" lon="4.63804">
        <ele>531</ele>
        <time>2010-01-01T00:57:00Z</time>
      </trkpt>
      <trkpt lat="45.47178" lon="4.63786">
        <ele>531</ele>
        <time>2010-01-01T00:57:09Z</time>
      </trkpt>
      <trkpt lat="45.47126" lon="4.63758">
        <ele>530</ele>
        <time>2010-01-01T00:57:32Z</time>
      </trkpt>
      <trkpt lat="45.47049" lon="4.63727">
        <ele>527</ele>
        <time>2010-01-01T00:58:04Z</time>
      </trkpt>
      <trkpt lat="45.47022" lon="4.63715">
        <ele>529</ele>
        <time>2010-01-01T00:58:15Z</time>
      </trkpt>
      <trkpt lat="45.46918" lon="4.63643">
        <ele>525</ele>
        <time>2010-01-01T00:59:01Z</time>
      </trkpt>
      <trkpt lat="45.46901" lon="4.63629">
        <ele>528</ele>
        <time>2010-01-01T00:59:09Z</time>
      </trkpt>
      <trkpt lat="45.46888" lon="4.63612">
        <ele>529</ele>
        <time>2010-01-01T00:59:16Z</time>
      </trkpt>
      <trkpt lat="45.46862" lon="4.63565">
        <ele>530</ele>
        <time>2010-01-01T00:59:33Z</time>
      </trkpt>
      <trkpt lat="45.46861" lon="4.63565">
        <ele>530</ele>
        <time>2010-01-01T00:59:33Z</time>
      </trkpt>
      <trkpt lat="45.46788" lon="4.63445">
        <ele>531</ele>
        <time>2010-01-01T01:00:18Z</time>
      </trkpt>
      <trkpt lat="45.46757" lon="4.63418">
        <ele>531</ele>
        <time>2010-01-01T01:00:33Z</time>
      </trkpt>
      <trkpt lat="45.46716" lon="4.63398">
        <ele>532</ele>
        <time>2010-01-01T01:00:50Z</time>
      </trkpt>
      <trkpt lat="45.46671" lon="4.63383">
        <ele>535</ele>
        <time>2010-01-01T01:01:08Z</time>
      </trkpt>
      <trkpt lat="45.46629" lon="4.63374">
        <ele>537</ele>
        <time>2010-01-01T01:01:25Z</time>
      </trkpt>
      <trkpt lat="45.46612" lon="4.63367">
        <ele>538</ele>
        <time>2010-01-01T01:01:33Z</time>
      </trkpt>
      <trkpt lat="45.46591" lon="4.63342">
        <ele>537</ele>
        <time>2010-01-01T01:01:43Z</time>
      </trkpt>
      <trkpt lat="45.46574" lon="4.63328">
        <ele>539</ele>
        <time>2010-01-01T01:01:51Z</time>
      </trkpt>
      <trkpt lat="45.46533" lon="4.63297">
        <ele>544</ele>
        <time>2010-01-01T01:02:10Z</time>
      </trkpt>
      <trkpt lat="45.46512" lon="4.63285">
        <ele>547</ele>
        <time>2010-01-01T01:02:19Z</time>
      </trkpt>
      <trkpt lat="45.46486" lon="4.63275">
        <ele>550</ele>
        <time>2010-01-01T01:02:30Z</time>
      </trkpt>
      <trkpt lat="45.46475" lon="4.63261">
        <ele>551</ele>
        <time>2010-01-01T01:02:36Z</time>
      </trkpt>
      <trkpt lat="45.46465" lon="4.6324">
        <ele>554</ele>
        <time>2010-01-01T01:02:43Z</time>
      </trkpt>
      <trkpt lat="45.46462" lon="4.63224">
        <ele>556</ele>
        <time>2010-01-01T01:02:47Z</time>
      </trkpt>
      <trkpt lat="45.46468" lon="4.63193">
        <ele>557</ele>
        <time>2010-01-01T01:02:56Z</time>
      </trkpt>
      <trkpt lat="45.46481" lon="4.63176">
        <ele>556</ele>
        <time>2010-01-01T01:03:04Z</time>
      </trkpt>
      <trkpt lat="45.465" lon="4.6316">
        <ele>554</ele>
        <time>2010-01-01T01:03:12Z</time>
      </trkpt>
      <trkpt lat="45.46513" lon="4.63144">
        <ele>553</ele>
        <time>2010-01-01T01:03:19Z</time>
      </trkpt>
      <trkpt lat="45.46525" lon="4.63123">
        <ele>551</ele>
        <time>2010-01-01T01:03:27Z</time>
      </trkpt>
      <trkpt lat="45.46529" lon="4.63093">
        <ele>550</ele>
        <time>2010-01-01T01:03:35Z</time>
      </trkpt>
      <trkpt lat="45.46525" lon="4.63065">
        <ele>551</ele>
        <time>2010-01-01T01:03:43Z</time>
      </trkpt>
      <trkpt lat="45.46492" lon="4.62968">
        <ele>560</ele>
        <time>2010-01-01T01:04:14Z</time>
      </trkpt>
      <trkpt lat="45.4648" lon="4.62914">
        <ele>562</ele>
        <time>2010-01-01T01:04:30Z</time>
      </trkpt>
      <trkpt lat="45.46475" lon="4.6287">
        <ele>563</ele>
        <time>2010-01-01T01:04:42Z</time>
      </trkpt>
      <trkpt lat="45.46467" lon="4.62838">
        <ele>562</ele>
        <time>2010-01-01T01:04:52Z</time>
      </trkpt>
      <trkpt lat="45.46448" lon="4.62804">
        <ele>565</ele>
        <time>2010-01-01T01:05:04Z</time>
      </trkpt>
      <trkpt lat="45.46385" lon="4.62727">
        <ele>565</ele>
        <time>2010-01-01T01:05:37Z</time>
      </trkpt>
      <trkpt lat="45.46368" lon="4.62713">
        <ele>564</ele>
        <time>2010-01-01T01:05:45Z</time>
      </trkpt>
      <trkpt lat="45.46349" lon="4.62707">
        <ele>566</ele>
        <time>2010-01-01T01:05:53Z</time>
      </trkpt>
      <trkpt lat="45.46321" lon="4.62706">
        <ele>570</ele>
        <time>2010-01-01T01:06:04Z</time>
      </trkpt>
      <trkpt lat="45.46288" lon="4.62718">
        <ele>575</ele>
        <time>2010-01-01T01:06:18Z</time>
      </trkpt>
      <trkpt lat="45.46272" lon="4.62731">
        <ele>577</ele>
        <time>2010-01-01T01:06:25Z</time>
      </trkpt>
      <trkpt lat="45.46252" lon="4.62756">
        <ele>580</ele>
        <time>2010-01-01T01:06:36Z</time>
      </trkpt>
      <trkpt lat="45.46245" lon="4.62771">
        <ele>582</ele>
        <time>2010-01-01T01:06:41Z</time>
      </trkpt>
      <trkpt lat="45.4623" lon="4.62789">
        <ele>586</ele>
        <time>2010-01-01T01:06:48Z</time>
      </trkpt>
      <trkpt lat="45.462" lon="4.62809">
        <ele>589</ele>
        <time>2010-01-01T01:07:02Z</time>
      </trkpt>
      <trkpt lat="45.46188" lon="4.628">
        <ele>588</ele>
        <time>2010-01-01T01:07:07Z</time>
      </trkpt>
      <trkpt lat="45.46178" lon="4.62785">
        <ele>588</ele>
        <time>2010-01-01T01:07:13Z</time>
      </trkpt>
      <trkpt lat="45.46173" lon="4.62762">
        <ele>588</ele>
        <time>2010-01-01T01:07:20Z</time>
      </trkpt>
      <trkpt lat="45.46175" lon="4.62729">
        <ele>589</ele>
        <time>2010-01-01T01:07:29Z</time>
      </trkpt>
      <trkpt lat="45.46182" lon="4.62692">
        <ele>591</ele>
        <time>2010-01-01T01:07:40Z</time>
      </trkpt>
      <trkpt lat="45.46209" lon="4.62624">
        <ele>594</ele>
        <time>2010-01-01T01:08:02Z</time>
      </trkpt>
      <trkpt lat="45.46223" lon="4.62557">
        <ele>597</ele>
        <time>2010-01-01T01:08:21Z</time>
      </trkpt>
      <trkpt lat="45.46222" lon="4.62529">
        <ele>600</ele>
        <time>2010-01-01T01:08:29Z</time>
      </trkpt>
      <trkpt lat="45.46212" lon="4.62488">
        <ele>602</ele>
        <time>2010-01-01T01:08:41Z</time>
      </trkpt>
      <trkpt lat="45.46185" lon="4.62415">
        <ele>601</ele>
        <time>2010-01-01T01:09:05Z</time>
      </trkpt>
      <trkpt lat="45.46139" lon="4.62341">
        <ele>602</ele>
        <time>2010-01-01T01:09:32Z</time>
      </trkpt>
      <trkpt lat="45.46109" lon="4.62301">
        <ele>610</ele>
        <time>2010-01-01T01:09:49Z</time>
      </trkpt>
      <trkpt lat="45.46103" lon="4.62288">
        <ele>612</ele>
        <time>2010-01-01T01:09:53Z</time>
      </trkpt>
      <trkpt lat="45.46098" lon="4.62273">
        <ele>613</ele>
        <time>2010-01-01T01:09:58Z</time>
      </trkpt>
      <trkpt lat="45.46098" lon="4.62257">
        <ele>613</ele>
        <time>2010-01-01T01:10:02Z</time>
      </trkpt>
      <trkpt lat="45.46111" lon="4.62219">
        <ele>609</ele>
        <time>2010-01-01T01:10:14Z</time>
      </trkpt>
      <trkpt lat="45.46113" lon="4.62191">
        <ele>611</ele>
        <time>2010-01-01T01:10:22Z</time>
      </trkpt>
      <trkpt lat="45.46112" lon="4.62167">
        <ele>615</ele>
        <time>2010-01-01T01:10:29Z</time>
      </trkpt>
      <trkpt lat="45.46118" lon="4.62153">
        <ele>616</ele>
        <time>2010-01-01T01:10:33Z</time>
      </trkpt>
      <trkpt lat="45.46137" lon="4.62117">
        <ele>619</ele>
        <time>2010-01-01T01:10:46Z</time>
      </trkpt>
      <trkpt lat="45.46157" lon="4.62106">
        <ele>620</ele>
        <time>2010-01-01T01:10:55Z</time>
      </trkpt>
      <trkpt lat="45.46191" lon="4.62097">
        <ele>623</ele>
        <time>2010-01-01T01:11:09Z</time>
      </trkpt>
      <trkpt lat="45.46232" lon="4.62091">
        <ele>628</ele>
        <time>2010-01-01T01:11:25Z</time>
      </trkpt>
      <trkpt lat="45.46284" lon="4.62093">
        <ele>631</ele>
        <time>2010-01-01T01:11:46Z</time>
      </trkpt>
      <trkpt lat="45.46303" lon="4.62097">
        <ele>632</ele>
        <time>2010-01-01T01:11:54Z</time>
      </trkpt>
      <trkpt lat="45.46307" lon="4.62088">
        <ele>635</ele>
        <time>2010-01-01T01:11:57Z</time>
      </trkpt>
      <trkpt lat="45.46303" lon="4.62082">
        <ele>636</ele>
        <time>2010-01-01T01:11:59Z</time>
      </trkpt>
      <trkpt lat="45.46272" lon="4.62072">
        <ele>635</ele>
        <time>2010-01-01T01:12:12Z</time>
      </trkpt>
      <trkpt lat="45.46234" lon="4.62053">
        <ele>639</ele>
        <time>2010-01-01T01:12:28Z</time>
      </trkpt>
      <trkpt lat="45.46187" lon="4.62025">
        <ele>644</ele>
        <time>2010-01-01T01:12:48Z</time>
      </trkpt>
      <trkpt lat="45.4614" lon="4.62002">
        <ele>648</ele>
        <time>2010-01-01T01:13:08Z</time>
      </trkpt>
      <trkpt lat="45.46081" lon="4.61983">
        <ele>652</ele>
        <time>2010-01-01T01:13:32Z</time>
      </trkpt>
      <trkpt lat="45.46046" lon="4.61959">
        <ele>654</ele>
        <time>2010-01-01T01:13:48Z</time>
      </trkpt>
      <trkpt lat="45.4603" lon="4.61969">
        <ele>654</ele>
        <time>2010-01-01T01:13:55Z</time>
      </trkpt>
      <trkpt lat="45.46021" lon="4.61952">
        <ele>653</ele>
        <time>2010-01-01T01:14:01Z</time>
      </trkpt>
      <trkpt lat="45.46011" lon="4.61938">
        <ele>651</ele>
        <time>2010-01-01T01:14:06Z</time>
      </trkpt>
      <trkpt lat="45.4601" lon="4.61938">
        <ele>651</ele>
        <time>2010-01-01T01:14:07Z</time>
      </trkpt>
      <trkpt lat="45.45997" lon="4.61926">
        <ele>649</ele>
        <time>2010-01-01T01:14:13Z</time>
      </trkpt>
      <trkpt lat="45.4598" lon="4.61917">
        <ele>648</ele>
        <time>2010-01-01T01:14:20Z</time>
      </trkpt>
      <trkpt lat="45.45897" lon="4.61887">
        <ele>647</ele>
        <time>2010-01-01T01:14:54Z</time>
      </trkpt>
      <trkpt lat="45.45758" lon="4.61843">
        <ele>643</ele>
        <time>2010-01-01T01:15:51Z</time>
      </trkpt>
      <trkpt lat="45.45708" lon="4.61831">
        <ele>638</ele>
        <time>2010-01-01T01:16:12Z</time>
      </trkpt>
      <trkpt lat="45.45695" lon="4.61833">
        <ele>638</ele>
        <time>2010-01-01T01:16:17Z</time>
      </trkpt>
      <trkpt lat="45.45671" lon="4.61842">
        <ele>636</ele>
        <time>2010-01-01T01:16:27Z</time>
      </trkpt>
      <trkpt lat="45.45634" lon="4.61886">
        <ele>636</ele>
        <time>2010-01-01T01:16:46Z</time>
      </trkpt>
      <trkpt lat="45.45602" lon="4.61934">
        <ele>635</ele>
        <time>2010-01-01T01:17:05Z</time>
      </trkpt>
      <trkpt lat="45.45578" lon="4.61951">
        <ele>633</ele>
        <time>2010-01-01T01:17:16Z</time>
      </trkpt>
      <trkpt lat="45.45548" lon="4.61947">
        <ele>633</ele>
        <time>2010-01-01T01:17:28Z</time>
      </trkpt>
      <trkpt lat="45.45512" lon="4.61921">
        <ele>635</ele>
        <time>2010-01-01T01:17:44Z</time>
      </trkpt>
      <trkpt lat="45.45479" lon="4.6189">
        <ele>634</ele>
        <time>2010-01-01T01:18:00Z</time>
      </trkpt>
      <trkpt lat="45.45463" lon="4.61854">
        <ele>633</ele>
        <time>2010-01-01T01:18:12Z</time>
      </trkpt>
      <trkpt lat="45.45454" lon="4.61806">
        <ele>629</ele>
        <time>2010-01-01T01:18:26Z</time>
      </trkpt>
      <trkpt lat="45.45434" lon="4.61775">
        <ele>624</ele>
        <time>2010-01-01T01:18:37Z</time>
      </trkpt>
      <trkpt lat="45.45353" lon="4.61721">
        <ele>623</ele>
        <time>2010-01-01T01:19:13Z</time>
      </trkpt>
      <trkpt lat="45.45318" lon="4.6162">
        <ele>619</ele>
        <time>2010-01-01T01:19:45Z</time>
      </trkpt>
      <trkpt lat="45.45289" lon="4.61588">
        <ele>618</ele>
        <time>2010-01-01T01:19:59Z</time>
      </trkpt>
      <trkpt lat="45.45266" lon="4.61572">
        <ele>615</ele>
        <time>2010-01-01T01:20:10Z</time>
      </trkpt>
      <trkpt lat="45.45244" lon="4.61567">
        <ele>613</ele>
        <time>2010-01-01T01:20:19Z</time>
      </trkpt>
      <trkpt lat="45.45192" lon="4.61586">
        <ele>611</ele>
        <time>2010-01-01T01:20:40Z</time>
      </trkpt>
      <trkpt lat="45.4511" lon="4.61654">
        <ele>609</ele>
        <time>2010-01-01T01:21:18Z</time>
      </trkpt>
      <trkpt lat="45.45088" lon="4.61657">
        <ele>608</ele>
        <time>2010-01-01T01:21:27Z</time>
      </trkpt>
      <trkpt lat="45.45069" lon="4.61641">
        <ele>606</ele>
        <time>2010-01-01T01:21:36Z</time>
      </trkpt>
      <trkpt lat="45.4506" lon="4.61608">
        <ele>604</ele>
        <time>2010-01-01T01:21:46Z</time>
      </trkpt>
      <trkpt lat="45.45065" lon="4.61533">
        <ele>603</ele>
        <time>2010-01-01T01:22:07Z</time>
      </trkpt>
      <trkpt lat="45.45112" lon="4.61323">
        <ele>596</ele>
        <time>2010-01-01T01:23:09Z</time>
      </trkpt>
      <trkpt lat="45.4512" lon="4.61252">
        <ele>592</ele>
        <time>2010-01-01T01:23:29Z</time>
      </trkpt>
      <trkpt lat="45.45122" lon="4.61214">
        <ele>594</ele>
        <time>2010-01-01T01:23:40Z</time>
      </trkpt>
      <trkpt lat="45.45129" lon="4.61177">
        <ele>594</ele>
        <time>2010-01-01T01:23:50Z</time>
      </trkpt>
      <trkpt lat="45.45159" lon="4.6112">
        <ele>591</ele>
        <time>2010-01-01T01:24:10Z</time>
      </trkpt>
      <trkpt lat="45.45164" lon="4.61089">
        <ele>589</ele>
        <time>2010-01-01T01:24:19Z</time>
      </trkpt>
      <trkpt lat="45.45159" lon="4.61046">
        <ele>587</ele>
        <time>2010-01-01T01:24:32Z</time>
      </trkpt>
      <trkpt lat="45.45126" lon="4.60946">
        <ele>585</ele>
        <time>2010-01-01T01:25:03Z</time>
      </trkpt>
      <trkpt lat="45.45058" lon="4.60773">
        <ele>584</ele>
        <time>2010-01-01T01:25:58Z</time>
      </trkpt>
      <trkpt lat="45.45055" lon="4.60735">
        <ele>584</ele>
        <time>2010-01-01T01:26:09Z</time>
      </trkpt>
      <trkpt lat="45.45066" lon="4.60683">
        <ele>581</ele>
        <time>2010-01-01T01:26:24Z</time>
      </trkpt>
      <trkpt lat="45.45109" lon="4.60582">
        <ele>574</ele>
        <time>2010-01-01T01:26:57Z</time>
      </trkpt>
      <trkpt lat="45.45117" lon="4.60527">
        <ele>572</ele>
        <time>2010-01-01T01:27:13Z</time>
      </trkpt>
      <trkpt lat="45.45116" lon="4.60495">
        <ele>571</ele>
        <time>2010-01-01T01:27:22Z</time>
      </trkpt>
      <trkpt lat="45.45113" lon="4.60466">
        <ele>572</ele>
        <time>2010-01-01T01:27:30Z</time>
      </trkpt>
      <trkpt lat="45.45101" lon="4.60422">
        <ele>572</ele>
        <time>2010-01-01T01:27:44Z</time>
      </trkpt>
      <trkpt lat="45.45092" lon="4.60405">
        <ele>573</ele>
        <time>2010-01-01T01:27:50Z</time>
      </trkpt>
      <trkpt lat="45.4505" lon="4.60341">
        <ele>569</ele>
        <time>2010-01-01T01:28:14Z</time>
      </trkpt>
      <trkpt lat="45.45026" lon="4.60313">
        <ele>567</ele>
        <time>2010-01-01T01:28:27Z</time>
      </trkpt>
      <trkpt lat="45.44997" lon="4.60266">
        <ele>565</ele>
        <time>2010-01-01T01:28:44Z</time>
      </trkpt>
      <trkpt lat="45.44981" lon="4.60231">
        <ele>567</ele>
        <time>2010-01-01T01:28:56Z</time>
      </trkpt>
      <trkpt lat="45.44975" lon="4.60201">
        <ele>568</ele>
        <time>2010-01-01T01:29:05Z</time>
      </trkpt>
      <trkpt lat="45.44978" lon="4.6017">
        <ele>568</ele>
        <time>2010-01-01T01:29:14Z</time>
      </trkpt>
      <trkpt lat="45.44994" lon="4.60136">
        <ele>566</ele>
        <time>2010-01-01T01:29:25Z</time>
      </trkpt>
      <trkpt lat="45.45046" lon="4.60061">
        <ele>565</ele>
        <time>2010-01-01T01:29:55Z</time>
      </trkpt>
      <trkpt lat="45.45072" lon="4.6003">
        <ele>564</ele>
        <time>2010-01-01T01:30:08Z</time>
      </trkpt>
      <trkpt lat="45.45094" lon="4.60017">
        <ele>561</ele>
        <time>2010-01-01T01:30:18Z</time>
      </trkpt>
      <trkpt lat="45.45141" lon="4.60001">
        <ele>558</ele>
        <time>2010-01-01T01:30:37Z</time>
      </trkpt>
      <trkpt lat="45.45164" lon="4.59991">
        <ele>555</ele>
        <time>2010-01-01T01:30:47Z</time>
      </trkpt>
      <trkpt lat="45.45191" lon="4.59969">
        <ele>552</ele>
        <time>2010-01-01T01:30:59Z</time>
      </trkpt>
      <trkpt lat="45.45223" lon="4.59928">
        <ele>552</ele>
        <time>2010-01-01T01:31:16Z</time>
      </trkpt>
      <trkpt lat="45.45237" lon="4.59908">
        <ele>551</ele>
        <time>2010-01-01T01:31:24Z</time>
      </trkpt>
      <trkpt lat="45.45247" lon="4.59883">
        <ele>548</ele>
        <time>2010-01-01T01:31:32Z</time>
      </trkpt>
      <trkpt lat="45.4527" lon="4.59797">
        <ele>551</ele>
        <time>2010-01-01T01:31:58Z</time>
      </trkpt>
      <trkpt lat="45.45277" lon="4.59777">
        <ele>553</ele>
        <time>2010-01-01T01:32:05Z</time>
      </trkpt>
      <trkpt lat="45.4533" lon="4.59728">
        <ele>542</ele>
        <time>2010-01-01T01:32:30Z</time>
      </trkpt>
      <trkpt lat="45.45344" lon="4.59711">
        <ele>541</ele>
        <time>2010-01-01T01:32:37Z</time>
      </trkpt>
      <trkpt lat="45.45356" lon="4.5969">
        <ele>540</ele>
        <time>2010-01-01T01:32:45Z</time>
      </trkpt>
      <trkpt lat="45.45366" lon="4.59664">
        <ele>540</ele>
        <time>2010-01-01T01:32:53Z</time>
      </trkpt>
      <trkpt lat="45.4537" lon="4.59638">
        <ele>540</ele>
        <time>2010-01-01T01:33:01Z</time>
      </trkpt>
      <trkpt lat="45.45367" lon="4.59598">
        <ele>544</ele>
        <time>2010-01-01T01:33:12Z</time>
      </trkpt>
      <trkpt lat="45.45368" lon="4.59576">
        <ele>546</ele>
        <time>2010-01-01T01:33:18Z</time>
      </trkpt>
      <trkpt lat="45.45376" lon="4.59551">
        <ele>547</ele>
        <time>2010-01-01T01:33:26Z</time>
      </trkpt>
      <trkpt lat="45.45389" lon="4.59537">
        <ele>546</ele>
        <time>2010-01-01T01:33:32Z</time>
      </trkpt>
      <trkpt lat="45.45403" lon="4.59527">
        <ele>544</ele>
        <time>2010-01-01T01:33:39Z</time>
      </trkpt>
      <trkpt lat="45.45447" lon="4.59512">
        <ele>538</ele>
        <time>2010-01-01T01:33:57Z</time>
      </trkpt>
      <trkpt lat="45.45474" lon="4.59485">
        <ele>537</ele>
        <time>2010-01-01T01:34:10Z</time>
      </trkpt>
      <trkpt lat="45.45498" lon="4.59452">
        <ele>534</ele>
        <time>2010-01-01T01:34:23Z</time>
      </trkpt>
      <trkpt lat="45.456" lon="4.59293">
        <ele>527</ele>
        <time>2010-01-01T01:35:24Z</time>
      </trkpt>
      <trkpt lat="45.45612" lon="4.59268">
        <ele>526</ele>
        <time>2010-01-01T01:35:32Z</time>
      </trkpt>
      <trkpt lat="45.45621" lon="4.5924">
        <ele>522</ele>
        <time>2010-01-01T01:35:41Z</time>
      </trkpt>
      <trkpt lat="45.4565" lon="4.59122">
        <ele>516</ele>
        <time>2010-01-01T01:36:16Z</time>
      </trkpt>
      <trkpt lat="45.45654" lon="4.59098">
        <ele>516</ele>
        <time>2010-01-01T01:36:23Z</time>
      </trkpt>
      <trkpt lat="45.45654" lon="4.59069">
        <ele>515</ele>
        <time>2010-01-01T01:36:31Z</time>
      </trkpt>
      <trkpt lat="45.45633" lon="4.58981">
        <ele>515</ele>
        <time>2010-01-01T01:36:57Z</time>
      </trkpt>
      <trkpt lat="45.45633" lon="4.58962">
        <ele>515</ele>
        <time>2010-01-01T01:37:03Z</time>
      </trkpt>
      <trkpt lat="45.45634" lon="4.58943">
        <ele>516</ele>
        <time>2010-01-01T01:37:08Z</time>
      </trkpt>
      <trkpt lat="45.45639" lon="4.58928">
        <ele>516</ele>
        <time>2010-01-01T01:37:13Z</time>
      </trkpt>
      <trkpt lat="45.45646" lon="4.58913">
        <ele>514</ele>
        <time>2010-01-01T01:37:18Z</time>
      </trkpt>
      <trkpt lat="45.45682" lon="4.58857">
        <ele>508</ele>
        <time>2010-01-01T01:37:39Z</time>
      </trkpt>
      <trkpt lat="45.457" lon="4.58819">
        <ele>507</ele>
        <time>2010-01-01T01:37:52Z</time>
      </trkpt>
      <trkpt lat="45.45713" lon="4.58785">
        <ele>505</ele>
        <time>2010-01-01T01:38:03Z</time>
      </trkpt>
      <trkpt lat="45.45723" lon="4.58742">
        <ele>504</ele>
        <time>2010-01-01T01:38:15Z</time>
      </trkpt>
      <trkpt lat="45.45725" lon="4.58723">
        <ele>503</ele>
        <time>2010-01-01T01:38:21Z</time>
      </trkpt>
      <trkpt lat="45.45724" lon="4.587">
        <ele>501</ele>
        <time>2010-01-01T01:38:27Z</time>
      </trkpt>
      <trkpt lat="45.4572" lon="4.58669">
        <ele>499</ele>
        <time>2010-01-01T01:38:36Z</time>
      </trkpt>
      <trkpt lat="45.45709" lon="4.58639">
        <ele>501</ele>
        <time>2010-01-01T01:38:46Z</time>
      </trkpt>
      <trkpt lat="45.45695" lon="4.58611">
        <ele>497</ele>
        <time>2010-01-01T01:38:55Z</time>
      </trkpt>
      <trkpt lat="45.45681" lon="4.58593">
        <ele>496</ele>
        <time>2010-01-01T01:39:03Z</time>
      </trkpt>
      <trkpt lat="45.45666" lon="4.58583">
        <ele>497</ele>
        <time>2010-01-01T01:39:09Z</time>
      </trkpt>
      <trkpt lat="45.45657" lon="4.58579">
        <ele>497</ele>
        <time>2010-01-01T01:39:13Z</time>
      </trkpt>
      <trkpt lat="45.45632" lon="4.58576">
        <ele>498</ele>
        <time>2010-01-01T01:39:23Z</time>
      </trkpt>
      <trkpt lat="45.45607" lon="4.58571">
        <ele>499</ele>
        <time>2010-01-01T01:39:33Z</time>
      </trkpt>
      <trkpt lat="45.45587" lon="4.58555">
        <ele>499</ele>
        <time>2010-01-01T01:39:43Z</time>
      </trkpt>
      <trkpt lat="45.45578" lon="4.58543">
        <ele>498</ele>
        <time>2010-01-01T01:39:48Z</time>
      </trkpt>
      <trkpt lat="45.45567" lon="4.58532">
        <ele>498</ele>
        <time>2010-01-01T01:39:53Z</time>
      </trkpt>
      <trkpt lat="45.45541" lon="4.58496">
        <ele>497</ele>
        <time>2010-01-01T01:40:07Z</time>
      </trkpt>
      <trkpt lat="45.45525" lon="4.58477">
        <ele>493</ele>
        <time>2010-01-01T01:40:16Z</time>
      </trkpt>
      <trkpt lat="45.4551" lon="4.58466">
        <ele>490</ele>
        <time>2010-01-01T01:40:22Z</time>
      </trkpt>
      <trkpt lat="45.45494" lon="4.5846">
        <ele>491</ele>
        <time>2010-01-01T01:40:29Z</time>
      </trkpt>
      <trkpt lat="45.45476" lon="4.58457">
        <ele>494</ele>
        <time>2010-01-01T01:40:36Z</time>
      </trkpt>
      <trkpt lat="45.4543" lon="4.58455">
        <ele>494</ele>
        <time>2010-01-01T01:40:55Z</time>
      </trkpt>
      <trkpt lat="45.45325" lon="4.58462">
        <ele>491</ele>
        <time>2010-01-01T01:41:37Z</time>
      </trkpt>
      <trkpt lat="45.45296" lon="4.58462">
        <ele>493</ele>
        <time>2010-01-01T01:41:48Z</time>
      </trkpt>
      <trkpt lat="45.45273" lon="4.58457">
        <ele>493</ele>
        <time>2010-01-01T01:41:58Z</time>
      </trkpt>
      <trkpt lat="45.45219" lon="4.58437">
        <ele>486</ele>
        <time>2010-01-01T01:42:20Z</time>
      </trkpt>
      <trkpt lat="45.45203" lon="4.58438">
        <ele>485</ele>
        <time>2010-01-01T01:42:27Z</time>
      </trkpt>
      <trkpt lat="45.45154" lon="4.58447">
        <ele>482</ele>
        <time>2010-01-01T01:42:46Z</time>
      </trkpt>
      <trkpt lat="45.45132" lon="4.58457">
        <ele>480</ele>
        <time>2010-01-01T01:42:56Z</time>
      </trkpt>
      <trkpt lat="45.45114" lon="4.58474">
        <ele>481</ele>
        <time>2010-01-01T01:43:04Z</time>
      </trkpt>
      <trkpt lat="45.45042" lon="4.58515">
        <ele>476</ele>
        <time>2010-01-01T01:43:35Z</time>
      </trkpt>
      <trkpt lat="45.44993" lon="4.58514">
        <ele>477</ele>
        <time>2010-01-01T01:43:55Z</time>
      </trkpt>
      <trkpt lat="45.44894" lon="4.58485">
        <ele>474</ele>
        <time>2010-01-01T01:44:35Z</time>
      </trkpt>
      <trkpt lat="45.44813" lon="4.5845">
        <ele>472</ele>
        <time>2010-01-01T01:45:09Z</time>
      </trkpt>
      <trkpt lat="45.4474" lon="4.58402">
        <ele>466</ele>
        <time>2010-01-01T01:45:41Z</time>
      </trkpt>
      <trkpt lat="45.44723" lon="4.58362">
        <ele>461</ele>
        <time>2010-01-01T01:45:55Z</time>
      </trkpt>
      <trkpt lat="45.4472" lon="4.58351">
        <ele>461</ele>
        <time>2010-01-01T01:45:58Z</time>
      </trkpt>
      <trkpt lat="45.447" lon="4.58355">
        <ele>462</ele>
        <time>2010-01-01T01:46:06Z</time>
      </trkpt>
      <trkpt lat="45.44673" lon="4.58351">
        <ele>466</ele>
        <time>2010-01-01T01:46:17Z</time>
      </trkpt>
      <trkpt lat="45.44633" lon="4.58335">
        <ele>471</ele>
        <time>2010-01-01T01:46:33Z</time>
      </trkpt>
      <trkpt lat="45.44607" lon="4.58317">
        <ele>474</ele>
        <time>2010-01-01T01:46:45Z</time>
      </trkpt>
      <trkpt lat="45.44598" lon="4.583">
        <ele>476</ele>
        <time>2010-01-01T01:46:51Z</time>
      </trkpt>
      <trkpt lat="45.44592" lon="4.5828">
        <ele>477</ele>
        <time>2010-01-01T01:46:57Z</time>
      </trkpt>
      <trkpt lat="45.44587" lon="4.58208">
        <ele>481</ele>
        <time>2010-01-01T01:47:17Z</time>
      </trkpt>
      <trkpt lat="45.44577" lon="4.58177">
        <ele>481</ele>
        <time>2010-01-01T01:47:27Z</time>
      </trkpt>
      <trkpt lat="45.44564" lon="4.58154">
        <ele>482</ele>
        <time>2010-01-01T01:47:35Z</time>
      </trkpt>
      <trkpt lat="45.44509" lon="4.58088">
        <ele>487</ele>
        <time>2010-01-01T01:48:04Z</time>
      </trkpt>
      <trkpt lat="45.44491" lon="4.5807">
        <ele>489</ele>
        <time>2010-01-01T01:48:13Z</time>
      </trkpt>
      <trkpt lat="45.44455" lon="4.58013">
        <ele>487</ele>
        <time>2010-01-01T01:48:34Z</time>
      </trkpt>
      <trkpt lat="45.44406" lon="4.57982">
        <ele>487</ele>
        <time>2010-01-01T01:48:56Z</time>
      </trkpt>
      <trkpt lat="45.4439" lon="4.57978">
        <ele>487</ele>
        <time>2010-01-01T01:49:02Z</time>
      </trkpt>
      <trkpt lat="45.44372" lon="4.57985">
        <ele>492</ele>
        <time>2010-01-01T01:49:10Z</time>
      </trkpt>
      <trkpt lat="45.44359" lon="4.58">
        <ele>496</ele>
        <time>2010-01-01T01:49:17Z</time>
      </trkpt>
      <trkpt lat="45.44353" lon="4.58017">
        <ele>498</ele>
        <time>2010-01-01T01:49:22Z</time>
      </trkpt>
      <trkpt lat="45.44351" lon="4.58034">
        <ele>500</ele>
        <time>2010-01-01T01:49:27Z</time>
      </trkpt>
      <trkpt lat="45.44353" lon="4.5805">
        <ele>502</ele>
        <time>2010-01-01T01:49:31Z</time>
      </trkpt>
      <trkpt lat="45.44359" lon="4.58066">
        <ele>503</ele>
        <time>2010-01-01T01:49:36Z</time>
      </trkpt>
      <trkpt lat="45.44382" lon="4.58088">
        <ele>501</ele>
        <time>2010-01-01T01:49:47Z</time>
      </trkpt>
      <trkpt lat="45.44409" lon="4.5811">
        <ele>500</ele>
        <time>2010-01-01T01:50:00Z</time>
      </trkpt>
      <trkpt lat="45.44419" lon="4.58122">
        <ele>500</ele>
        <time>2010-01-01T01:50:05Z</time>
      </trkpt>
      <trkpt lat="45.44424" lon="4.58136">
        <ele>500</ele>
        <time>2010-01-01T01:50:10Z</time>
      </trkpt>
      <trkpt lat="45.44426" lon="4.58157">
        <ele>503</ele>
        <time>2010-01-01T01:50:15Z</time>
      </trkpt>
      <trkpt lat="45.44424" lon="4.58175">
        <ele>505</ele>
        <time>2010-01-01T01:50:21Z</time>
      </trkpt>
      <trkpt lat="45.44412" lon="4.58196">
        <ele>509</ele>
        <time>2010-01-01T01:50:28Z</time>
      </trkpt>
      <trkpt lat="45.44397" lon="4.58204">
        <ele>511</ele>
        <time>2010-01-01T01:50:35Z</time>
      </trkpt>
      <trkpt lat="45.44374" lon="4.582">
        <ele>514</ele>
        <time>2010-01-01T01:50:44Z</time>
      </trkpt>
      <trkpt lat="45.44362" lon="4.5819">
        <ele>515</ele>
        <time>2010-01-01T01:50:49Z</time>
      </trkpt>
      <trkpt lat="45.44339" lon="4.58169">
        <ele>516</ele>
        <time>2010-01-01T01:51:00Z</time>
      </trkpt>
      <trkpt lat="45.44277" lon="4.58107">
        <ele>517</ele>
        <time>2010-01-01T01:51:31Z</time>
      </trkpt>
      <trkpt lat="45.44226" lon="4.58061">
        <ele>518</ele>
        <time>2010-01-01T01:51:55Z</time>
      </trkpt>
      <trkpt lat="45.44216" lon="4.58076">
        <ele>521</ele>
        <time>2010-01-01T01:52:01Z</time>
      </trkpt>
      <trkpt lat="45.44213" lon="4.58108">
        <ele>524</ele>
        <time>2010-01-01T01:52:10Z</time>
      </trkpt>
      <trkpt lat="45.44226" lon="4.58134">
        <ele>527</ele>
        <time>2010-01-01T01:52:19Z</time>
      </trkpt>
      <trkpt lat="45.44243" lon="4.58154">
        <ele>527</ele>
        <time>2010-01-01T01:52:28Z</time>
      </trkpt>
      <trkpt lat="45.44273" lon="4.58224">
        <ele>530</ele>
        <time>2010-01-01T01:52:51Z</time>
      </trkpt>
      <trkpt lat="45.44298" lon="4.58272">
        <ele>534</ele>
        <time>2010-01-01T01:53:07Z</time>
      </trkpt>
      <trkpt lat="45.44318" lon="4.58299">
        <ele>535</ele>
        <time>2010-01-01T01:53:18Z</time>
      </trkpt>
      <trkpt lat="45.44319" lon="4.58318">
        <ele>536</ele>
        <time>2010-01-01T01:53:24Z</time>
      </trkpt>
      <trkpt lat="45.44313" lon="4.58329">
        <ele>538</ele>
        <time>2010-01-01T01:53:28Z</time>
      </trkpt>
      <trkpt lat="45.44296" lon="4.58323">
        <ele>541</ele>
        <time>2010-01-01T01:53:35Z</time>
      </trkpt>
      <trkpt lat="45.44277" lon="4.58296">
        <ele>541</ele>
        <time>2010-01-01T01:53:45Z</time>
      </trkpt>
      <trkpt lat="45.44233" lon="4.58255">
        <ele>543</ele>
        <time>2010-01-01T01:54:06Z</time>
      </trkpt>
      <trkpt lat="45.44148" lon="4.58199">
        <ele>550</ele>
        <time>2010-01-01T01:54:44Z</time>
      </trkpt>
      <trkpt lat="45.44147" lon="4.58199">
        <ele>550</ele>
        <time>2010-01-01T01:54:44Z</time>
      </trkpt>
      <trkpt lat="45.44067" lon="4.58145">
        <ele>557</ele>
        <time>2010-01-01T01:55:20Z</time>
      </trkpt>
      <trkpt lat="45.43966" lon="4.58107">
        <ele>567</ele>
        <time>2010-01-01T01:56:02Z</time>
      </trkpt>
      <trkpt lat="45.43908" lon="4.58075">
        <ele>573</ele>
        <time>2010-01-01T01:56:26Z</time>
      </trkpt>
      <trkpt lat="45.4388" lon="4.58053">
        <ele>575</ele>
        <time>2010-01-01T01:56:39Z</time>
      </trkpt>
      <trkpt lat="45.43851" lon="4.58007">
        <ele>574</ele>
        <time>2010-01-01T01:56:57Z</time>
      </trkpt>
      <trkpt lat="45.43827" lon="4.57978">
        <ele>575</ele>
        <time>2010-01-01T01:57:09Z</time>
      </trkpt>
      <trkpt lat="45.4376" lon="4.57922">
        <ele>581</ele>
        <time>2010-01-01T01:57:40Z</time>
      </trkpt>
      <trkpt lat="45.43749" lon="4.5791">
        <ele>581</ele>
        <time>2010-01-01T01:57:46Z</time>
      </trkpt>
      <trkpt lat="45.43736" lon="4.57903">
        <ele>582</ele>
        <time>2010-01-01T01:57:51Z</time>
      </trkpt>
      <trkpt lat="45.43726" lon="4.57901">
        <ele>582</ele>
        <time>2010-01-01T01:57:56Z</time>
      </trkpt>
      <trkpt lat="45.4371" lon="4.57891">
        <ele>582</ele>
        <time>2010-01-01T01:58:02Z</time>
      </trkpt>
      <trkpt lat="45.43681" lon="4.57892">
        <ele>583</ele>
        <time>2010-01-01T01:58:14Z</time>
      </trkpt>
      <trkpt lat="45.43664" lon="4.57888">
        <ele>584</ele>
        <time>2010-01-01T01:58:21Z</time>
      </trkpt>
      <trkpt lat="45.43643" lon="4.57868">
        <ele>583</ele>
        <time>2010-01-01T01:58:31Z</time>
      </trkpt>
      <trkpt lat="45.43627" lon="4.57846">
        <ele>582</ele>
        <time>2010-01-01T01:58:40Z</time>
      </trkpt>
      <trkpt lat="45.43548" lon="4.57842">
        <ele>584</ele>
        <time>2010-01-01T01:59:12Z</time>
      </trkpt>
      <trkpt lat="45.43506" lon="4.57824">
        <ele>582</ele>
        <time>2010-01-01T01:59:29Z</time>
      </trkpt>
      <trkpt lat="45.43481" lon="4.57819">
        <ele>582</ele>
        <time>2010-01-01T01:59:39Z</time>
      </trkpt>
      <trkpt lat="45.43445" lon="4.5782">
        <ele>582</ele>
        <time>2010-01-01T01:59:54Z</time>
      </trkpt>
      <trkpt lat="45.43421" lon="4.57831">
        <ele>582</ele>
        <time>2010-01-01T02:00:04Z</time>
      </trkpt>
      <trkpt lat="45.434" lon="4.57852">
        <ele>583</ele>
        <time>2010-01-01T02:00:14Z</time>
      </trkpt>
      <trkpt lat="45.43381" lon="4.57901">
        <ele>590</ele>
        <time>2010-01-01T02:00:30Z</time>
      </trkpt>
      <trkpt lat="45.43373" lon="4.57912">
        <ele>591</ele>
        <time>2010-01-01T02:00:34Z</time>
      </trkpt>
      <trkpt lat="45.43358" lon="4.57923">
        <ele>591</ele>
        <time>2010-01-01T02:00:41Z</time>
      </trkpt>
      <trkpt lat="45.43329" lon="4.5793">
        <ele>588</ele>
        <time>2010-01-01T02:00:53Z</time>
      </trkpt>
      <trkpt lat="45.43286" lon="4.57977">
        <ele>598</ele>
        <time>2010-01-01T02:01:14Z</time>
      </trkpt>
      <trkpt lat="45.43252" lon="4.58008">
        <ele>607</ele>
        <time>2010-01-01T02:01:31Z</time>
      </trkpt>
      <trkpt lat="45.43237" lon="4.58018">
        <ele>609</ele>
        <time>2010-01-01T02:01:37Z</time>
      </trkpt>
      <trkpt lat="45.43133" lon="4.58057">
        <ele>614</ele>
        <time>2010-01-01T02:02:20Z</time>
      </trkpt>
      <trkpt lat="45.43109" lon="4.58069">
        <ele>616</ele>
        <time>2010-01-01T02:02:31Z</time>
      </trkpt>
      <trkpt lat="45.43088" lon="4.58083">
        <ele>615</ele>
        <time>2010-01-01T02:02:40Z</time>
      </trkpt>
      <trkpt lat="45.43064" lon="4.58109">
        <ele>614</ele>
        <time>2010-01-01T02:02:52Z</time>
      </trkpt>
      <trkpt lat="45.43008" lon="4.58214">
        <ele>618</ele>
        <time>2010-01-01T02:03:29Z</time>
      </trkpt>
      <trkpt lat="45.42992" lon="4.58248">
        <ele>617</ele>
        <time>2010-01-01T02:03:40Z</time>
      </trkpt>
      <trkpt lat="45.42949" lon="4.58294">
        <ele>606</ele>
        <time>2010-01-01T02:04:02Z</time>
      </trkpt>
      <trkpt lat="45.42932" lon="4.58321">
        <ele>602</ele>
        <time>2010-01-01T02:04:12Z</time>
      </trkpt>
      <trkpt lat="45.42924" lon="4.58332">
        <ele>600</ele>
        <time>2010-01-01T02:04:17Z</time>
      </trkpt>
      <trkpt lat="45.42895" lon="4.58352">
        <ele>593</ele>
        <time>2010-01-01T02:04:29Z</time>
      </trkpt>
      <trkpt lat="45.42881" lon="4.58373">
        <ele>592</ele>
        <time>2010-01-01T02:04:38Z</time>
      </trkpt>
      <trkpt lat="45.42873" lon="4.584">
        <ele>591</ele>
        <time>2010-01-01T02:04:46Z</time>
      </trkpt>
      <trkpt lat="45.42875" lon="4.58423">
        <ele>592</ele>
        <time>2010-01-01T02:04:52Z</time>
      </trkpt>
      <trkpt lat="45.42879" lon="4.58446">
        <ele>591</ele>
        <time>2010-01-01T02:04:59Z</time>
      </trkpt>
      <trkpt lat="45.42888" lon="4.5847">
        <ele>594</ele>
        <time>2010-01-01T02:05:07Z</time>
      </trkpt>
      <trkpt lat="45.42893" lon="4.58496">
        <ele>596</ele>
        <time>2010-01-01T02:05:14Z</time>
      </trkpt>
      <trkpt lat="45.42898" lon="4.58533">
        <ele>598</ele>
        <time>2010-01-01T02:05:25Z</time>
      </trkpt>
      <trkpt lat="45.42888" lon="4.58555">
        <ele>596</ele>
        <time>2010-01-01T02:05:32Z</time>
      </trkpt>
      <trkpt lat="45.42872" lon="4.58557">
        <ele>596</ele>
        <time>2010-01-01T02:05:39Z</time>
      </trkpt>
      <trkpt lat="45.4284" lon="4.58546">
        <ele>591</ele>
        <time>2010-01-01T02:05:52Z</time>
      </trkpt>
      <trkpt lat="45.42826" lon="4.58548">
        <ele>590</ele>
        <time>2010-01-01T02:05:57Z</time>
      </trkpt>
      <trkpt lat="45.42786" lon="4.58569">
        <ele>588</ele>
        <time>2010-01-01T02:06:14Z</time>
      </trkpt>
      <trkpt lat="45.4276" lon="4.58569">
        <ele>583</ele>
        <time>2010-01-01T02:06:25Z</time>
      </trkpt>
      <trkpt lat="45.42722" lon="4.58595">
        <ele>583</ele>
        <time>2010-01-01T02:06:42Z</time>
      </trkpt>
      <trkpt lat="45.42716" lon="4.58634">
        <ele>586</ele>
        <time>2010-01-01T02:06:53Z</time>
      </trkpt>
      <trkpt lat="45.42708" lon="4.58654">
        <ele>588</ele>
        <time>2010-01-01T02:06:59Z</time>
      </trkpt>
      <trkpt lat="45.42702" lon="4.58677">
        <ele>589</ele>
        <time>2010-01-01T02:07:06Z</time>
      </trkpt>
      <trkpt lat="45.42702" lon="4.58706">
        <ele>593</ele>
        <time>2010-01-01T02:07:14Z</time>
      </trkpt>
      <trkpt lat="45.42707" lon="4.58751">
        <ele>604</ele>
        <time>2010-01-01T02:07:27Z</time>
      </trkpt>
      <trkpt lat="45.42713" lon="4.58772">
        <ele>610</ele>
        <time>2010-01-01T02:07:34Z</time>
      </trkpt>
      <trkpt lat="45.42743" lon="4.58843">
        <ele>623</ele>
        <time>2010-01-01T02:07:57Z</time>
      </trkpt>
      <trkpt lat="45.42749" lon="4.58874">
        <ele>627</ele>
        <time>2010-01-01T02:08:06Z</time>
      </trkpt>
      <trkpt lat="45.4275" lon="4.589">
        <ele>628</ele>
        <time>2010-01-01T02:08:13Z</time>
      </trkpt>
      <trkpt lat="45.42747" lon="4.58926">
        <ele>631</ele>
        <time>2010-01-01T02:08:21Z</time>
      </trkpt>
      <trkpt lat="45.42744" lon="4.58976">
        <ele>636</ele>
        <time>2010-01-01T02:08:35Z</time>
      </trkpt>
      <trkpt lat="45.42744" lon="4.59012">
        <ele>640</ele>
        <time>2010-01-01T02:08:45Z</time>
      </trkpt>
      <trkpt lat="45.42741" lon="4.59023">
        <ele>642</ele>
        <time>2010-01-01T02:08:48Z</time>
      </trkpt>
      <trkpt lat="45.42736" lon="4.59025">
        <ele>644</ele>
        <time>2010-01-01T02:08:50Z</time>
      </trkpt>
      <trkpt lat="45.42731" lon="4.59019">
        <ele>645</ele>
        <time>2010-01-01T02:08:53Z</time>
      </trkpt>
      <trkpt lat="45.42728" lon="4.59012">
        <ele>645</ele>
        <time>2010-01-01T02:08:55Z</time>
      </trkpt>
      <trkpt lat="45.42728" lon="4.58966">
        <ele>641</ele>
        <time>2010-01-01T02:09:08Z</time>
      </trkpt>
      <trkpt lat="45.42724" lon="4.58937">
        <ele>640</ele>
        <time>2010-01-01T02:09:16Z</time>
      </trkpt>
      <trkpt lat="45.42714" lon="4.58903">
        <ele>640</ele>
        <time>2010-01-01T02:09:27Z</time>
      </trkpt>
      <trkpt lat="45.42689" lon="4.58878">
        <ele>643</ele>
        <time>2010-01-01T02:09:39Z</time>
      </trkpt>
      <trkpt lat="45.42651" lon="4.58851">
        <ele>645</ele>
        <time>2010-01-01T02:09:56Z</time>
      </trkpt>
      <trkpt lat="45.42627" lon="4.58844">
        <ele>647</ele>
        <time>2010-01-01T02:10:06Z</time>
      </trkpt>
      <trkpt lat="45.426" lon="4.58841">
        <ele>647</ele>
        <time>2010-01-01T02:10:17Z</time>
      </trkpt>
      <trkpt lat="45.42412" lon="4.58889">
        <ele>661</ele>
        <time>2010-01-01T02:11:33Z</time>
      </trkpt>
      <trkpt lat="45.42407" lon="4.58892">
        <ele>662</ele>
        <time>2010-01-01T02:11:35Z</time>
      </trkpt>
      <trkpt lat="45.42402" lon="4.589">
        <ele>663</ele>
        <time>2010-01-01T02:11:38Z</time>
      </trkpt>
      <trkpt lat="45.42389" lon="4.58933">
        <ele>669</ele>
        <time>2010-01-01T02:11:49Z</time>
      </trkpt>
      <trkpt lat="45.42373" lon="4.58949">
        <ele>670</ele>
        <time>2010-01-01T02:11:57Z</time>
      </trkpt>
      <trkpt lat="45.42362" lon="4.5897">
        <ele>672</ele>
        <time>2010-01-01T02:12:04Z</time>
      </trkpt>
      <trkpt lat="45.4236" lon="4.59019">
        <ele>678</ele>
        <time>2010-01-01T02:12:18Z</time>
      </trkpt>
      <trkpt lat="45.42351" lon="4.59039">
        <ele>682</ele>
        <time>2010-01-01T02:12:25Z</time>
      </trkpt>
      <trkpt lat="45.42335" lon="4.59057">
        <ele>685</ele>
        <time>2010-01-01T02:12:33Z</time>
      </trkpt>
      <trkpt lat="45.42331" lon="4.59062">
        <ele>687</ele>
        <time>2010-01-01T02:12:35Z</time>
      </trkpt>
      <trkpt lat="45.42321" lon="4.59064">
        <ele>688</ele>
        <time>2010-01-01T02:12:39Z</time>
      </trkpt>
      <trkpt lat="45.42305" lon="4.59043">
        <ele>687</ele>
        <time>2010-01-01T02:12:48Z</time>
      </trkpt>
      <trkpt lat="45.42291" lon="4.59004">
        <ele>688</ele>
        <time>2010-01-01T02:13:00Z</time>
      </trkpt>
      <trkpt lat="45.42273" lon="4.58928">
        <ele>689</ele>
        <time>2010-01-01T02:13:22Z</time>
      </trkpt>
      <trkpt lat="45.42254" lon="4.58895">
        <ele>693</ele>
        <time>2010-01-01T02:13:34Z</time>
      </trkpt>
      <trkpt lat="45.42208" lon="4.58848">
        <ele>697</ele>
        <time>2010-01-01T02:13:57Z</time>
      </trkpt>
      <trkpt lat="45.42178" lon="4.58798">
        <ele>700</ele>
        <time>2010-01-01T02:14:16Z</time>
      </trkpt>
      <trkpt lat="45.42073" lon="4.58723">
        <ele>710</ele>
        <time>2010-01-01T02:15:03Z</time>
      </trkpt>
      <trkpt lat="45.41937" lon="4.58644">
        <ele>715</ele>
        <time>2010-01-01T02:16:01Z</time>
      </trkpt>
      <trkpt lat="45.41858" lon="4.58627">
        <ele>723</ele>
        <time>2010-01-01T02:16:33Z</time>
      </trkpt>
      <trkpt lat="45.41778" lon="4.58637">
        <ele>730</ele>
        <time>2010-01-01T02:17:06Z</time>
      </trkpt>
      <trkpt lat="45.41702" lon="4.58651">
        <ele>735</ele>
        <time>2010-01-01T02:17:36Z</time>
      </trkpt>
      <trkpt lat="45.41633" lon="4.58669">
        <ele>740</ele>
        <time>2010-01-01T02:18:04Z</time>
      </trkpt>
      <trkpt lat="45.41579" lon="4.58666">
        <ele>735</ele>
        <time>2010-01-01T02:18:26Z</time>
      </trkpt>
      <trkpt lat="45.41353" lon="4.58703">
        <ele>726</ele>
        <time>2010-01-01T02:19:57Z</time>
      </trkpt>
      <trkpt lat="45.41234" lon="4.58755">
        <ele>726</ele>
        <time>2010-01-01T02:20:47Z</time>
      </trkpt>
      <trkpt lat="45.41216" lon="4.58766">
        <ele>728</ele>
        <time>2010-01-01T02:20:55Z</time>
      </trkpt>
      <trkpt lat="45.41192" lon="4.58805">
        <ele>733</ele>
        <time>2010-01-01T02:21:09Z</time>
      </trkpt>
      <trkpt lat="45.4117" lon="4.58832">
        <ele>732</ele>
        <time>2010-01-01T02:21:21Z</time>
      </trkpt>
      <trkpt lat="45.41068" lon="4.58938">
        <ele>734</ele>
        <time>2010-01-01T02:22:11Z</time>
      </trkpt>
      <trkpt lat="45.41032" lon="4.58986">
        <ele>739</ele>
        <time>2010-01-01T02:22:31Z</time>
      </trkpt>
      <trkpt lat="45.41015" lon="4.59006">
        <ele>744</ele>
        <time>2010-01-01T02:22:40Z</time>
      </trkpt>
      <trkpt lat="45.40999" lon="4.5902">
        <ele>744</ele>
        <time>2010-01-01T02:22:47Z</time>
      </trkpt>
      <trkpt lat="45.40979" lon="4.59041">
        <ele>744</ele>
        <time>2010-01-01T02:22:57Z</time>
      </trkpt>
      <trkpt lat="45.4097" lon="4.59052">
        <ele>742</ele>
        <time>2010-01-01T02:23:02Z</time>
      </trkpt>
      <trkpt lat="45.40966" lon="4.59066">
        <ele>746</ele>
        <time>2010-01-01T02:23:06Z</time>
      </trkpt>
      <trkpt lat="45.40947" lon="4.59088">
        <ele>753</ele>
        <time>2010-01-01T02:23:16Z</time>
      </trkpt>
      <trkpt lat="45.40934" lon="4.59097">
        <ele>759</ele>
        <time>2010-01-01T02:23:22Z</time>
      </trkpt>
      <trkpt lat="45.40914" lon="4.59096">
        <ele>763</ele>
        <time>2010-01-01T02:23:30Z</time>
      </trkpt>
      <trkpt lat="45.40885" lon="4.5908">
        <ele>762</ele>
        <time>2010-01-01T02:23:42Z</time>
      </trkpt>
      <trkpt lat="45.40879" lon="4.59078">
        <ele>763</ele>
        <time>2010-01-01T02:23:45Z</time>
      </trkpt>
      <trkpt lat="45.40852" lon="4.5908">
        <ele>765</ele>
        <time>2010-01-01T02:23:56Z</time>
      </trkpt>
      <trkpt lat="45.40834" lon="4.59088">
        <ele>766</ele>
        <time>2010-01-01T02:24:03Z</time>
      </trkpt>
      <trkpt lat="45.40831" lon="4.59098">
        <ele>763</ele>
        <time>2010-01-01T02:24:06Z</time>
      </trkpt>
      <trkpt lat="45.40839" lon="4.59123">
        <ele>758</ele>
        <time>2010-01-01T02:24:14Z</time>
      </trkpt>
      <trkpt lat="45.40848" lon="4.5914">
        <ele>760</ele>
        <time>2010-01-01T02:24:20Z</time>
      </trkpt>
      <trkpt lat="45.40889" lon="4.59147">
        <ele>775</ele>
        <time>2010-01-01T02:24:37Z</time>
      </trkpt>
      <trkpt lat="45.4093" lon="4.59146">
        <ele>777</ele>
        <time>2010-01-01T02:24:53Z</time>
      </trkpt>
      <trkpt lat="45.40987" lon="4.59123">
        <ele>771</ele>
        <time>2010-01-01T02:25:17Z</time>
      </trkpt>
      <trkpt lat="45.41027" lon="4.59117">
        <ele>778</ele>
        <time>2010-01-01T02:25:33Z</time>
      </trkpt>
      <trkpt lat="45.41046" lon="4.59077">
        <ele>775</ele>
        <time>2010-01-01T02:25:46Z</time>
      </trkpt>
      <trkpt lat="45.41067" lon="4.59055">
        <ele>779</ele>
        <time>2010-01-01T02:25:57Z</time>
      </trkpt>
      <trkpt lat="45.41101" lon="4.59012">
        <ele>781</ele>
        <time>2010-01-01T02:26:15Z</time>
      </trkpt>
      <trkpt lat="45.4113" lon="4.5901">
        <ele>792</ele>
        <time>2010-01-01T02:26:27Z</time>
      </trkpt>
      <trkpt lat="45.41146" lon="4.59002">
        <ele>796</ele>
        <time>2010-01-01T02:26:33Z</time>
      </trkpt>
      <trkpt lat="45.412" lon="4.58963">
        <ele>795</ele>
        <time>2010-01-01T02:26:58Z</time>
      </trkpt>
      <trkpt lat="45.4124" lon="4.58947">
        <ele>791</ele>
        <time>2010-01-01T02:27:14Z</time>
      </trkpt>
      <trkpt lat="45.41281" lon="4.58935">
        <ele>791</ele>
        <time>2010-01-01T02:27:31Z</time>
      </trkpt>
      <trkpt lat="45.41352" lon="4.58906">
        <ele>794</ele>
        <time>2010-01-01T02:28:01Z</time>
      </trkpt>
      <trkpt lat="45.41452" lon="4.58892">
        <ele>805</ele>
        <time>2010-01-01T02:28:41Z</time>
      </trkpt>
      <trkpt lat="45.4151" lon="4.58892">
        <ele>815</ele>
        <time>2010-01-01T02:29:04Z</time>
      </trkpt>
      <trkpt lat="45.41608" lon="4.58886">
        <ele>817</ele>
        <time>2010-01-01T02:29:43Z</time>
      </trkpt>
      <trkpt lat="45.41685" lon="4.58889">
        <ele>815</ele>
        <time>2010-01-01T02:30:14Z</time>
      </trkpt>
      <trkpt lat="45.41717" lon="4.58895">
        <ele>811</ele>
        <time>2010-01-01T02:30:27Z</time>
      </trkpt>
      <trkpt lat="45.41848" lon="4.5903">
        <ele>821</ele>
        <time>2010-01-01T02:31:32Z</time>
      </trkpt>
      <trkpt lat="45.4194" lon="4.59135">
        <ele>840</ele>
        <time>2010-01-01T02:32:19Z</time>
      </trkpt>
      <trkpt lat="45.41962" lon="4.59173">
        <ele>836</ele>
        <time>2010-01-01T02:32:33Z</time>
      </trkpt>
      <trkpt lat="45.41974" lon="4.59199">
        <ele>834</ele>
        <time>2010-01-01T02:32:42Z</time>
      </trkpt>
      <trkpt lat="45.41979" lon="4.59227">
        <ele>834</ele>
        <time>2010-01-01T02:32:50Z</time>
      </trkpt>
      <trkpt lat="45.4198" lon="4.59252">
        <ele>834</ele>
        <time>2010-01-01T02:32:57Z</time>
      </trkpt>
      <trkpt lat="45.41975" lon="4.59271">
        <ele>834</ele>
        <time>2010-01-01T02:33:02Z</time>
      </trkpt>
      <trkpt lat="45.4197" lon="4.59323">
        <ele>837</ele>
        <time>2010-01-01T02:33:17Z</time>
      </trkpt>
      <trkpt lat="45.41971" lon="4.59361">
        <ele>835</ele>
        <time>2010-01-01T02:33:28Z</time>
      </trkpt>
      <trkpt lat="45.41954" lon="4.59447">
        <ele>850</ele>
        <time>2010-01-01T02:33:53Z</time>
      </trkpt>
      <trkpt lat="45.41959" lon="4.59461">
        <ele>851</ele>
        <time>2010-01-01T02:33:57Z</time>
      </trkpt>
      <trkpt lat="45.41975" lon="4.59469">
        <ele>848</ele>
        <time>2010-01-01T02:34:04Z</time>
      </trkpt>
      <trkpt lat="45.42061" lon="4.59463">
        <ele>844</ele>
        <time>2010-01-01T02:34:39Z</time>
      </trkpt>
      <trkpt lat="45.42098" lon="4.59467">
        <ele>844</ele>
        <time>2010-01-01T02:34:54Z</time>
      </trkpt>
      <trkpt lat="45.42148" lon="4.59496">
        <ele>846</ele>
        <time>2010-01-01T02:35:15Z</time>
      </trkpt>
      <trkpt lat="45.42208" lon="4.59556">
        <ele>853</ele>
        <time>2010-01-01T02:35:44Z</time>
      </trkpt>
      <trkpt lat="45.42267" lon="4.59634">
        <ele>853</ele>
        <time>2010-01-01T02:36:17Z</time>
      </trkpt>
      <trkpt lat="45.42306" lon="4.59724">
        <ele>862</ele>
        <time>2010-01-01T02:36:46Z</time>
      </trkpt>
      <trkpt lat="45.42351" lon="4.59862">
        <ele>863</ele>
        <time>2010-01-01T02:37:29Z</time>
      </trkpt>
      <trkpt lat="45.42372" lon="4.59954">
        <ele>871</ele>
        <time>2010-01-01T02:37:56Z</time>
      </trkpt>
      <trkpt lat="45.42396" lon="4.60042">
        <ele>871</ele>
        <time>2010-01-01T02:38:23Z</time>
      </trkpt>
      <trkpt lat="45.42401" lon="4.60089">
        <ele>877</ele>
        <time>2010-01-01T02:38:36Z</time>
      </trkpt>
      <trkpt lat="45.42418" lon="4.60149">
        <ele>883</ele>
        <time>2010-01-01T02:38:54Z</time>
      </trkpt>
      <trkpt lat="45.4243" lon="4.60211">
        <ele>884</ele>
        <time>2010-01-01T02:39:12Z</time>
      </trkpt>
      <trkpt lat="45.42438" lon="4.60279">
        <ele>892</ele>
        <time>2010-01-01T02:39:32Z</time>
      </trkpt>
      <trkpt lat="45.42444" lon="4.60508">
        <ele>909</ele>
        <time>2010-01-01T02:40:36Z</time>
      </trkpt>
      <trkpt lat="45.42457" lon="4.60606">
        <ele>911</ele>
        <time>2010-01-01T02:41:04Z</time>
      </trkpt>
      <trkpt lat="45.42454" lon="4.60687">
        <ele>908</ele>
        <time>2010-01-01T02:41:27Z</time>
      </trkpt>
      <trkpt lat="45.42431" lon="4.60757">
        <ele>910</ele>
        <time>2010-01-01T02:41:49Z</time>
      </trkpt>
      <trkpt lat="45.42318" lon="4.6084">
        <ele>930</ele>
        <time>2010-01-01T02:42:40Z</time>
      </trkpt>
      <trkpt lat="45.42293" lon="4.60869">
        <ele>930</ele>
        <time>2010-01-01T02:42:53Z</time>
      </trkpt>
      <trkpt lat="45.42272" lon="4.60908">
        <ele>934</ele>
        <time>2010-01-01T02:43:06Z</time>
      </trkpt>
      <trkpt lat="45.42258" lon="4.60951">
        <ele>938</ele>
        <time>2010-01-01T02:43:20Z</time>
      </trkpt>
      <trkpt lat="45.42321" lon="4.61094">
        <ele>937</ele>
        <time>2010-01-01T02:44:07Z</time>
      </trkpt>
      <trkpt lat="45.42409" lon="4.61309">
        <ele>936</ele>
        <time>2010-01-01T02:45:17Z</time>
      </trkpt>
      <trkpt lat="45.42442" lon="4.61426">
        <ele>941</ele>
        <time>2010-01-01T02:45:52Z</time>
      </trkpt>
      <trkpt lat="45.42453" lon="4.61524">
        <ele>943</ele>
        <time>2010-01-01T02:46:20Z</time>
      </trkpt>
      <trkpt lat="45.42464" lon="4.61568">
        <ele>941</ele>
        <time>2010-01-01T02:46:33Z</time>
      </trkpt>
      <trkpt lat="45.42464" lon="4.61567">
        <ele>941</ele>
        <time>2010-01-01T02:46:34Z</time>
      </trkpt>
      <trkpt lat="45.42507" lon="4.61738">
        <ele>947</ele>
        <time>2010-01-01T02:47:25Z</time>
      </trkpt>
      <trkpt lat="45.42522" lon="4.61749">
        <ele>950</ele>
        <time>2010-01-01T02:47:32Z</time>
      </trkpt>
      <trkpt lat="45.42529" lon="4.61766">
        <ele>951</ele>
        <time>2010-01-01T02:47:37Z</time>
      </trkpt>
      <trkpt lat="45.42525" lon="4.61784">
        <ele>949</ele>
        <time>2010-01-01T02:47:42Z</time>
      </trkpt>
      <trkpt lat="45.42509" lon="4.61795">
        <ele>946</ele>
        <time>2010-01-01T02:47:49Z</time>
      </trkpt>
      <trkpt lat="45.42479" lon="4.61803">
        <ele>945</ele>
        <time>2010-01-01T02:48:02Z</time>
      </trkpt>
      <trkpt lat="45.42383" lon="4.61902">
        <ele>938</ele>
        <time>2010-01-01T02:48:49Z</time>
      </trkpt>
      <trkpt lat="45.42288" lon="4.62017">
        <ele>929</ele>
        <time>2010-01-01T02:49:39Z</time>
      </trkpt>
      <trkpt lat="45.42256" lon="4.6205">
        <ele>933</ele>
        <time>2010-01-01T02:49:55Z</time>
      </trkpt>
      <trkpt lat="45.42229" lon="4.62118">
        <ele>931</ele>
        <time>2010-01-01T02:50:17Z</time>
      </trkpt>
      <trkpt lat="45.42024" lon="4.62455">
        <ele>900</ele>
        <time>2010-01-01T02:52:22Z</time>
      </trkpt>
      <trkpt lat="45.41994" lon="4.62497">
        <ele>892</ele>
        <time>2010-01-01T02:52:39Z</time>
      </trkpt>
      <trkpt lat="45.41968" lon="4.62508">
        <ele>890</ele>
        <time>2010-01-01T02:52:50Z</time>
      </trkpt>
      <trkpt lat="45.41941" lon="4.62489">
        <ele>896</ele>
        <time>2010-01-01T02:53:02Z</time>
      </trkpt>
      <trkpt lat="45.419" lon="4.62478">
        <ele>898</ele>
        <time>2010-01-01T02:53:19Z</time>
      </trkpt>
      <trkpt lat="45.4186" lon="4.62507">
        <ele>894</ele>
        <time>2010-01-01T02:53:37Z</time>
      </trkpt>
      <trkpt lat="45.41832" lon="4.62558">
        <ele>893</ele>
        <time>2010-01-01T02:53:55Z</time>
      </trkpt>
      <trkpt lat="45.41859" lon="4.6277">
        <ele>874</ele>
        <time>2010-01-01T02:54:55Z</time>
      </trkpt>
      <trkpt lat="45.41863" lon="4.63055">
        <ele>847</ele>
        <time>2010-01-01T02:56:15Z</time>
      </trkpt>
      <trkpt lat="45.41836" lon="4.63326">
        <ele>837</ele>
        <time>2010-01-01T02:57:32Z</time>
      </trkpt>
      <trkpt lat="45.41842" lon="4.6334">
        <ele>833</ele>
        <time>2010-01-01T02:57:37Z</time>
      </trkpt>
      <trkpt lat="45.41851" lon="4.63344">
        <ele>828</ele>
        <time>2010-01-01T02:57:41Z</time>
      </trkpt>
      <trkpt lat="45.41857" lon="4.63334">
        <ele>825</ele>
        <time>2010-01-01T02:57:44Z</time>
      </trkpt>
      <trkpt lat="45.4188" lon="4.63234">
        <ele>824</ele>
        <time>2010-01-01T02:58:14Z</time>
      </trkpt>
      <trkpt lat="45.41944" lon="4.63083">
        <ele>816</ele>
        <time>2010-01-01T02:59:03Z</time>
      </trkpt>
      <trkpt lat="45.41978" lon="4.6292">
        <ele>817</ele>
        <time>2010-01-01T02:59:51Z</time>
      </trkpt>
      <trkpt lat="45.41994" lon="4.62878">
        <ele>817</ele>
        <time>2010-01-01T03:00:05Z</time>
      </trkpt>
      <trkpt lat="45.42025" lon="4.62853">
        <ele>816</ele>
        <time>2010-01-01T03:00:19Z</time>
      </trkpt>
      <trkpt lat="45.42052" lon="4.62857">
        <ele>813</ele>
        <time>2010-01-01T03:00:30Z</time>
      </trkpt>
      <trkpt lat="45.42074" lon="4.62873">
        <ele>806</ele>
        <time>2010-01-01T03:00:40Z</time>
      </trkpt>
      <trkpt lat="45.42099" lon="4.62894">
        <ele>799</ele>
        <time>2010-01-01T03:00:51Z</time>
      </trkpt>
      <trkpt lat="45.42132" lon="4.62879">
        <ele>802</ele>
        <time>2010-01-01T03:01:05Z</time>
      </trkpt>
      <trkpt lat="45.42284" lon="4.62746">
        <ele>778</ele>
        <time>2010-01-01T03:02:17Z</time>
      </trkpt>
      <trkpt lat="45.42309" lon="4.62742">
        <ele>778</ele>
        <time>2010-01-01T03:02:27Z</time>
      </trkpt>
      <trkpt lat="45.42322" lon="4.62761">
        <ele>775</ele>
        <time>2010-01-01T03:02:34Z</time>
      </trkpt>
      <trkpt lat="45.42332" lon="4.62793">
        <ele>770</ele>
        <time>2010-01-01T03:02:44Z</time>
      </trkpt>
      <trkpt lat="45.42341" lon="4.62852">
        <ele>769</ele>
        <time>2010-01-01T03:03:01Z</time>
      </trkpt>
      <trkpt lat="45.4235" lon="4.63">
        <ele>759</ele>
        <time>2010-01-01T03:03:43Z</time>
      </trkpt>
      <trkpt lat="45.42358" lon="4.63076">
        <ele>754</ele>
        <time>2010-01-01T03:04:04Z</time>
      </trkpt>
      <trkpt lat="45.42374" lon="4.63147">
        <ele>750</ele>
        <time>2010-01-01T03:04:25Z</time>
      </trkpt>
      <trkpt lat="45.42399" lon="4.63186">
        <ele>753</ele>
        <time>2010-01-01T03:04:40Z</time>
      </trkpt>
      <trkpt lat="45.42414" lon="4.63217">
        <ele>749</ele>
        <time>2010-01-01T03:04:51Z</time>
      </trkpt>
      <trkpt lat="45.42411" lon="4.63436">
        <ele>730</ele>
        <time>2010-01-01T03:05:52Z</time>
      </trkpt>
      <trkpt lat="45.4242" lon="4.63507">
        <ele>730</ele>
        <time>2010-01-01T03:06:12Z</time>
      </trkpt>
      <trkpt lat="45.42389" lon="4.63637">
        <ele>718</ele>
        <time>2010-01-01T03:06:51Z</time>
      </trkpt>
      <trkpt lat="45.4239" lon="4.63693">
        <ele>717</ele>
        <time>2010-01-01T03:07:07Z</time>
      </trkpt>
      <trkpt lat="45.42394" lon="4.63717">
        <ele>717</ele>
        <time>2010-01-01T03:07:14Z</time>
      </trkpt>
      <trkpt lat="45.42393" lon="4.63745">
        <ele>716</ele>
        <time>2010-01-01T03:07:22Z</time>
      </trkpt>
      <trkpt lat="45.42383" lon="4.63805">
        <ele>710</ele>
        <time>2010-01-01T03:07:39Z</time>
      </trkpt>
      <trkpt lat="45.42386" lon="4.6385">
        <ele>710</ele>
        <time>2010-01-01T03:07:52Z</time>
      </trkpt>
      <trkpt lat="45.42383" lon="4.63898">
        <ele>708</ele>
        <time>2010-01-01T03:08:05Z</time>
      </trkpt>
      <trkpt lat="45.42358" lon="4.64041">
        <ele>698</ele>
        <time>2010-01-01T03:08:46Z</time>
      </trkpt>
      <trkpt lat="45.42329" lon="4.64183">
        <ele>692</ele>
        <time>2010-01-01T03:09:28Z</time>
      </trkpt>
      <trkpt lat="45.42285" lon="4.64326">
        <ele>680</ele>
        <time>2010-01-01T03:10:12Z</time>
      </trkpt>
      <trkpt lat="45.42261" lon="4.64396">
        <ele>673</ele>
        <time>2010-01-01T03:10:34Z</time>
      </trkpt>
      <trkpt lat="45.4225" lon="4.64433">
        <ele>669</ele>
        <time>2010-01-01T03:10:45Z</time>
      </trkpt>
      <trkpt lat="45.42244" lon="4.64472">
        <ele>667</ele>
        <time>2010-01-01T03:10:56Z</time>
      </trkpt>
      <trkpt lat="45.42256" lon="4.64643">
        <ele>664</ele>
        <time>2010-01-01T03:11:45Z</time>
      </trkpt>
      <trkpt lat="45.42256" lon="4.64642">
        <ele>664</ele>
        <time>2010-01-01T03:11:45Z</time>
      </trkpt>
      <trkpt lat="45.42279" lon="4.64999">
        <ele>642</ele>
        <time>2010-01-01T03:13:26Z</time>
      </trkpt>
      <trkpt lat="45.42333" lon="4.65283">
        <ele>628</ele>
        <time>2010-01-01T03:14:48Z</time>
      </trkpt>
      <trkpt lat="45.42376" lon="4.65422">
        <ele>621</ele>
        <time>2010-01-01T03:15:31Z</time>
      </trkpt>
      <trkpt lat="45.42402" lon="4.65621">
        <ele>606</ele>
        <time>2010-01-01T03:16:28Z</time>
      </trkpt>
      <trkpt lat="45.42447" lon="4.65743">
        <ele>603</ele>
        <time>2010-01-01T03:17:07Z</time>
      </trkpt>
      <trkpt lat="45.42504" lon="4.6585">
        <ele>590</ele>
        <time>2010-01-01T03:17:44Z</time>
      </trkpt>
      <trkpt lat="45.42579" lon="4.65919">
        <ele>584</ele>
        <time>2010-01-01T03:18:20Z</time>
      </trkpt>
      <trkpt lat="45.42756" lon="4.66">
        <ele>571</ele>
        <time>2010-01-01T03:19:34Z</time>
      </trkpt>
      <trkpt lat="45.42795" lon="4.65982">
        <ele>571</ele>
        <time>2010-01-01T03:19:51Z</time>
      </trkpt>
      <trkpt lat="45.42834" lon="4.65936">
        <ele>570</ele>
        <time>2010-01-01T03:20:11Z</time>
      </trkpt>
      <trkpt lat="45.42856" lon="4.65929">
        <ele>567</ele>
        <time>2010-01-01T03:20:20Z</time>
      </trkpt>
      <trkpt lat="45.42814" lon="4.66018">
        <ele>563</ele>
        <time>2010-01-01T03:20:50Z</time>
      </trkpt>
      <trkpt lat="45.42792" lon="4.66109">
        <ele>554</ele>
        <time>2010-01-01T03:21:17Z</time>
      </trkpt>
      <trkpt lat="45.42785" lon="4.66122">
        <ele>553</ele>
        <time>2010-01-01T03:21:22Z</time>
      </trkpt>
      <trkpt lat="45.42774" lon="4.66128">
        <ele>553</ele>
        <time>2010-01-01T03:21:27Z</time>
      </trkpt>
      <trkpt lat="45.42763" lon="4.66127">
        <ele>552</ele>
        <time>2010-01-01T03:21:31Z</time>
      </trkpt>
      <trkpt lat="45.42753" lon="4.66123">
        <ele>553</ele>
        <time>2010-01-01T03:21:35Z</time>
      </trkpt>
      <trkpt lat="45.42694" lon="4.6607">
        <ele>554</ele>
        <time>2010-01-01T03:22:03Z</time>
      </trkpt>
      <trkpt lat="45.42611" lon="4.6604">
        <ele>551</ele>
        <time>2010-01-01T03:22:37Z</time>
      </trkpt>
      <trkpt lat="45.42511" lon="4.66043">
        <ele>547</ele>
        <time>2010-01-01T03:23:17Z</time>
      </trkpt>
      <trkpt lat="45.42502" lon="4.66048">
        <ele>547</ele>
        <time>2010-01-01T03:23:21Z</time>
      </trkpt>
      <trkpt lat="45.42598" lon="4.66056">
        <ele>545</ele>
        <time>2010-01-01T03:24:00Z</time>
      </trkpt>
      <trkpt lat="45.4263" lon="4.66065">
        <ele>546</ele>
        <time>2010-01-01T03:24:13Z</time>
      </trkpt>
      <trkpt lat="45.42775" lon="4.66173">
        <ele>545</ele>
        <time>2010-01-01T03:25:18Z</time>
      </trkpt>
      <trkpt lat="45.42788" lon="4.66177">
        <ele>544</ele>
        <time>2010-01-01T03:25:24Z</time>
      </trkpt>
      <trkpt lat="45.42787" lon="4.66177">
        <ele>544</ele>
        <time>2010-01-01T03:25:24Z</time>
      </trkpt>
      <trkpt lat="45.42805" lon="4.66182">
        <ele>542</ele>
        <time>2010-01-01T03:25:31Z</time>
      </trkpt>
      <trkpt lat="45.42845" lon="4.66148">
        <ele>543</ele>
        <time>2010-01-01T03:25:50Z</time>
      </trkpt>
      <trkpt lat="45.42877" lon="4.66099">
        <ele>545</ele>
        <time>2010-01-01T03:26:09Z</time>
      </trkpt>
      <trkpt lat="45.42891" lon="4.66029">
        <ele>548</ele>
        <time>2010-01-01T03:26:29Z</time>
      </trkpt>
      <trkpt lat="45.42896" lon="4.65965">
        <ele>553</ele>
        <time>2010-01-01T03:26:47Z</time>
      </trkpt>
      <trkpt lat="45.42944" lon="4.6591">
        <ele>551</ele>
        <time>2010-01-01T03:27:12Z</time>
      </trkpt>
      <trkpt lat="45.42985" lon="4.65836">
        <ele>551</ele>
        <time>2010-01-01T03:27:39Z</time>
      </trkpt>
      <trkpt lat="45.43057" lon="4.65736">
        <ele>551</ele>
        <time>2010-01-01T03:28:19Z</time>
      </trkpt>
      <trkpt lat="45.4309" lon="4.65723">
        <ele>552</ele>
        <time>2010-01-01T03:28:32Z</time>
      </trkpt>
      <trkpt lat="45.4315" lon="4.65725">
        <ele>549</ele>
        <time>2010-01-01T03:28:57Z</time>
      </trkpt>
      <trkpt lat="45.43187" lon="4.6571">
        <ele>550</ele>
        <time>2010-01-01T03:29:12Z</time>
      </trkpt>
      <trkpt lat="45.43215" lon="4.65679">
        <ele>550</ele>
        <time>2010-01-01T03:29:26Z</time>
      </trkpt>
      <trkpt lat="45.43235" lon="4.65649">
        <ele>551</ele>
        <time>2010-01-01T03:29:38Z</time>
      </trkpt>
      <trkpt lat="45.43275" lon="4.65552">
        <ele>555</ele>
        <time>2010-01-01T03:30:09Z</time>
      </trkpt>
      <trkpt lat="45.43299" lon="4.65522">
        <ele>557</ele>
        <time>2010-01-01T03:30:22Z</time>
      </trkpt>
      <trkpt lat="45.43397" lon="4.65442">
        <ele>558</ele>
        <time>2010-01-01T03:31:07Z</time>
      </trkpt>
      <trkpt lat="45.43418" lon="4.65409">
        <ele>558</ele>
        <time>2010-01-01T03:31:20Z</time>
      </trkpt>
      <trkpt lat="45.43439" lon="4.6534">
        <ele>559</ele>
        <time>2010-01-01T03:31:41Z</time>
      </trkpt>
      <trkpt lat="45.43469" lon="4.65295">
        <ele>559</ele>
        <time>2010-01-01T03:31:58Z</time>
      </trkpt>
      <trkpt lat="45.43509" lon="4.65272">
        <ele>559</ele>
        <time>2010-01-01T03:32:16Z</time>
      </trkpt>
      <trkpt lat="45.43594" lon="4.65262">
        <ele>557</ele>
        <time>2010-01-01T03:32:50Z</time>
      </trkpt>
      <trkpt lat="45.43692" lon="4.65176">
        <ele>556</ele>
        <time>2010-01-01T03:33:36Z</time>
      </trkpt>
      <trkpt lat="45.43722" lon="4.65157">
        <ele>559</ele>
        <time>2010-01-01T03:33:49Z</time>
      </trkpt>
      <trkpt lat="45.43756" lon="4.65162">
        <ele>559</ele>
        <time>2010-01-01T03:34:03Z</time>
      </trkpt>
      <trkpt lat="45.43866" lon="4.65264">
        <ele>559</ele>
        <time>2010-01-01T03:34:55Z</time>
      </trkpt>
      <trkpt lat="45.43884" lon="4.65293">
        <ele>557</ele>
        <time>2010-01-01T03:35:06Z</time>
      </trkpt>
      <trkpt lat="45.43895" lon="4.65323">
        <ele>559</ele>
        <time>2010-01-01T03:35:16Z</time>
      </trkpt>
      <trkpt lat="45.43902" lon="4.65456">
        <ele>562</ele>
        <time>2010-01-01T03:35:53Z</time>
      </trkpt>
      <trkpt lat="45.43935" lon="4.65519">
        <ele>565</ele>
        <time>2010-01-01T03:36:15Z</time>
      </trkpt>
      <trkpt lat="45.44016" lon="4.65688">
        <ele>565</ele>
        <time>2010-01-01T03:37:13Z</time>
      </trkpt>
      <trkpt lat="45.44061" lon="4.6577">
        <ele>565</ele>
        <time>2010-01-01T03:37:42Z</time>
      </trkpt>
      <trkpt lat="45.44089" lon="4.65838">
        <ele>569</ele>
        <time>2010-01-01T03:38:04Z</time>
      </trkpt>
      <trkpt lat="45.441" lon="4.65918">
        <ele>569</ele>
        <time>2010-01-01T03:38:27Z</time>
      </trkpt>
      <trkpt lat="45.44105" lon="4.66005">
        <ele>569</ele>
        <time>2010-01-01T03:38:51Z</time>
      </trkpt>
      <trkpt lat="45.4407" lon="4.66066">
        <ele>569</ele>
        <time>2010-01-01T03:39:14Z</time>
      </trkpt>
      <trkpt lat="45.44031" lon="4.66076">
        <ele>570</ele>
        <time>2010-01-01T03:39:29Z</time>
      </trkpt>
      <trkpt lat="45.43979" lon="4.66098">
        <ele>570</ele>
        <time>2010-01-01T03:39:51Z</time>
      </trkpt>
      <trkpt lat="45.43933" lon="4.66165">
        <ele>572</ele>
        <time>2010-01-01T03:40:17Z</time>
      </trkpt>
      <trkpt lat="45.43913" lon="4.66247">
        <ele>572</ele>
        <time>2010-01-01T03:40:42Z</time>
      </trkpt>
      <trkpt lat="45.43922" lon="4.66316">
        <ele>573</ele>
        <time>2010-01-01T03:41:02Z</time>
      </trkpt>
      <trkpt lat="45.43942" lon="4.66368">
        <ele>576</ele>
        <time>2010-01-01T03:41:18Z</time>
      </trkpt>
      <trkpt lat="45.43998" lon="4.6647">
        <ele>581</ele>
        <time>2010-01-01T03:41:55Z</time>
      </trkpt>
      <trkpt lat="45.44017" lon="4.66519">
        <ele>581</ele>
        <time>2010-01-01T03:42:10Z</time>
      </trkpt>
      <trkpt lat="45.44019" lon="4.6655">
        <ele>581</ele>
        <time>2010-01-01T03:42:19Z</time>
      </trkpt>
      <trkpt lat="45.44019" lon="4.66549">
        <ele>581</ele>
        <time>2010-01-01T03:42:19Z</time>
      </trkpt>
      <trkpt lat="45.44022" lon="4.66591">
        <ele>580</ele>
        <time>2010-01-01T03:42:31Z</time>
      </trkpt>
      <trkpt lat="45.44021" lon="4.6673">
        <ele>583</ele>
        <time>2010-01-01T03:43:10Z</time>
      </trkpt>
      <trkpt lat="45.44025" lon="4.66857">
        <ele>587</ele>
        <time>2010-01-01T03:43:46Z</time>
      </trkpt>
      <trkpt lat="45.4407" lon="4.6699">
        <ele>589</ele>
        <time>2010-01-01T03:44:27Z</time>
      </trkpt>
      <trkpt lat="45.44115" lon="4.67089">
        <ele>584</ele>
        <time>2010-01-01T03:45:01Z</time>
      </trkpt>
      <trkpt lat="45.44162" lon="4.67131">
        <ele>585</ele>
        <time>2010-01-01T03:45:23Z</time>
      </trkpt>
      <trkpt lat="45.4429" lon="4.67151">
        <ele>599</ele>
        <time>2010-01-01T03:46:14Z</time>
      </trkpt>
      <trkpt lat="45.44356" lon="4.67191">
        <ele>599</ele>
        <time>2010-01-01T03:46:43Z</time>
      </trkpt>
      <trkpt lat="45.44419" lon="4.67202">
        <ele>604</ele>
        <time>2010-01-01T03:47:08Z</time>
      </trkpt>
      <trkpt lat="45.44447" lon="4.67222">
        <ele>605</ele>
        <time>2010-01-01T03:47:21Z</time>
      </trkpt>
      <trkpt lat="45.44487" lon="4.67309">
        <ele>600</ele>
        <time>2010-01-01T03:47:50Z</time>
      </trkpt>
      <trkpt lat="45.44538" lon="4.67396">
        <ele>602</ele>
        <time>2010-01-01T03:48:22Z</time>
      </trkpt>
      <trkpt lat="45.44553" lon="4.67454">
        <ele>602</ele>
        <time>2010-01-01T03:48:39Z</time>
      </trkpt>
      <trkpt lat="45.44573" lon="4.67503">
        <ele>606</ele>
        <time>2010-01-01T03:48:55Z</time>
      </trkpt>
      <trkpt lat="45.44671" lon="4.67684">
        <ele>605</ele>
        <time>2010-01-01T03:50:00Z</time>
      </trkpt>
      <trkpt lat="45.44719" lon="4.67865">
        <ele>610</ele>
        <time>2010-01-01T03:50:54Z</time>
      </trkpt>
      <trkpt lat="45.4478" lon="4.67986">
        <ele>610</ele>
        <time>2010-01-01T03:51:36Z</time>
      </trkpt>
      <trkpt lat="45.44865" lon="4.68192">
        <ele>612</ele>
        <time>2010-01-01T03:52:43Z</time>
      </trkpt>
      <trkpt lat="45.44898" lon="4.68258">
        <ele>614</ele>
        <time>2010-01-01T03:53:06Z</time>
      </trkpt>
      <trkpt lat="45.44926" lon="4.68284">
        <ele>618</ele>
        <time>2010-01-01T03:53:19Z</time>
      </trkpt>
      <trkpt lat="45.44976" lon="4.68315">
        <ele>619</ele>
        <time>2010-01-01T03:53:41Z</time>
      </trkpt>
      <trkpt lat="45.45003" lon="4.68319">
        <ele>619</ele>
        <time>2010-01-01T03:53:52Z</time>
      </trkpt>
      <trkpt lat="45.45026" lon="4.68309">
        <ele>620</ele>
        <time>2010-01-01T03:54:01Z</time>
      </trkpt>
      <trkpt lat="45.45039" lon="4.68301">
        <ele>621</ele>
        <time>2010-01-01T03:54:07Z</time>
      </trkpt>
      <trkpt lat="45.45067" lon="4.68275">
        <ele>624</ele>
        <time>2010-01-01T03:54:20Z</time>
      </trkpt>
      <trkpt lat="45.45087" lon="4.68263">
        <ele>627</ele>
        <time>2010-01-01T03:54:29Z</time>
      </trkpt>
      <trkpt lat="45.45111" lon="4.68262">
        <ele>626</ele>
        <time>2010-01-01T03:54:39Z</time>
      </trkpt>
      <trkpt lat="45.45165" lon="4.68287">
        <ele>625</ele>
        <time>2010-01-01T03:55:01Z</time>
      </trkpt>
      <trkpt lat="45.45188" lon="4.68289">
        <ele>627</ele>
        <time>2010-01-01T03:55:11Z</time>
      </trkpt>
      <trkpt lat="45.45215" lon="4.68279">
        <ele>629</ele>
        <time>2010-01-01T03:55:22Z</time>
      </trkpt>
      <trkpt lat="45.45232" lon="4.68254">
        <ele>632</ele>
        <time>2010-01-01T03:55:32Z</time>
      </trkpt>
      <trkpt lat="45.45259" lon="4.68197">
        <ele>633</ele>
        <time>2010-01-01T03:55:51Z</time>
      </trkpt>
      <trkpt lat="45.45283" lon="4.68159">
        <ele>635</ele>
        <time>2010-01-01T03:56:05Z</time>
      </trkpt>
      <trkpt lat="45.45302" lon="4.68145">
        <ele>635</ele>
        <time>2010-01-01T03:56:14Z</time>
      </trkpt>
      <trkpt lat="45.45316" lon="4.68144">
        <ele>634</ele>
        <time>2010-01-01T03:56:19Z</time>
      </trkpt>
      <trkpt lat="45.45329" lon="4.6815">
        <ele>632</ele>
        <time>2010-01-01T03:56:25Z</time>
      </trkpt>
      <trkpt lat="45.45375" lon="4.68179">
        <ele>632</ele>
        <time>2010-01-01T03:56:45Z</time>
      </trkpt>
      <trkpt lat="45.45413" lon="4.68198">
        <ele>632</ele>
        <time>2010-01-01T03:57:01Z</time>
      </trkpt>
      <trkpt lat="45.45489" lon="4.68215">
        <ele>640</ele>
        <time>2010-01-01T03:57:32Z</time>
      </trkpt>
      <trkpt lat="45.45544" lon="4.68246">
        <ele>640</ele>
        <time>2010-01-01T03:57:56Z</time>
      </trkpt>
      <trkpt lat="45.45599" lon="4.68298">
        <ele>641</ele>
        <time>2010-01-01T03:58:22Z</time>
      </trkpt>
      <trkpt lat="45.45644" lon="4.68353">
        <ele>640</ele>
        <time>2010-01-01T03:58:46Z</time>
      </trkpt>
      <trkpt lat="45.45679" lon="4.68378">
        <ele>640</ele>
        <time>2010-01-01T03:59:01Z</time>
      </trkpt>
      <trkpt lat="45.45719" lon="4.68391">
        <ele>642</ele>
        <time>2010-01-01T03:59:18Z</time>
      </trkpt>
      <trkpt lat="45.45769" lon="4.68387">
        <ele>645</ele>
        <time>2010-01-01T03:59:38Z</time>
      </trkpt>
      <trkpt lat="45.4582" lon="4.68367">
        <ele>645</ele>
        <time>2010-01-01T03:59:59Z</time>
      </trkpt>
      <trkpt lat="45.45882" lon="4.68324">
        <ele>651</ele>
        <time>2010-01-01T04:00:27Z</time>
      </trkpt>
      <trkpt lat="45.4595" lon="4.68316">
        <ele>645</ele>
        <time>2010-01-01T04:00:54Z</time>
      </trkpt>
      <trkpt lat="45.45985" lon="4.68305">
        <ele>645</ele>
        <time>2010-01-01T04:01:08Z</time>
      </trkpt>
      <trkpt lat="45.46027" lon="4.68272">
        <ele>652</ele>
        <time>2010-01-01T04:01:27Z</time>
      </trkpt>
      <trkpt lat="45.46118" lon="4.68223">
        <ele>649</ele>
        <time>2010-01-01T04:02:06Z</time>
      </trkpt>
      <trkpt lat="45.46142" lon="4.68201">
        <ele>650</ele>
        <time>2010-01-01T04:02:18Z</time>
      </trkpt>
      <trkpt lat="45.46192" lon="4.68106">
        <ele>655</ele>
        <time>2010-01-01T04:02:51Z</time>
      </trkpt>
      <trkpt lat="45.46227" lon="4.6805">
        <ele>662</ele>
        <time>2010-01-01T04:03:12Z</time>
      </trkpt>
      <trkpt lat="45.46305" lon="4.67995">
        <ele>656</ele>
        <time>2010-01-01T04:03:47Z</time>
      </trkpt>
      <trkpt lat="45.46374" lon="4.67919">
        <ele>657</ele>
        <time>2010-01-01T04:04:22Z</time>
      </trkpt>
      <trkpt lat="45.46374" lon="4.6792">
        <ele>657</ele>
        <time>2010-01-01T04:04:22Z</time>
      </trkpt>
      <trkpt lat="45.46439" lon="4.67849">
        <ele>655</ele>
        <time>2010-01-01T04:04:55Z</time>
      </trkpt>
      <trkpt lat="45.46453" lon="4.67821">
        <ele>655</ele>
        <time>2010-01-01T04:05:05Z</time>
      </trkpt>
      <trkpt lat="45.4645" lon="4.67804">
        <ele>654</ele>
        <time>2010-01-01T04:05:10Z</time>
      </trkpt>
      <trkpt lat="45.46425" lon="4.6772">
        <ele>655</ele>
        <time>2010-01-01T04:05:35Z</time>
      </trkpt>
      <trkpt lat="45.46377" lon="4.67571">
        <ele>658</ele>
        <time>2010-01-01T04:06:21Z</time>
      </trkpt>
      <trkpt lat="45.46359" lon="4.67507">
        <ele>659</ele>
        <time>2010-01-01T04:06:41Z</time>
      </trkpt>
      <trkpt lat="45.46344" lon="4.67422">
        <ele>658</ele>
        <time>2010-01-01T04:07:05Z</time>
      </trkpt>
      <trkpt lat="45.46301" lon="4.67213">
        <ele>660</ele>
        <time>2010-01-01T04:08:06Z</time>
      </trkpt>
      <trkpt lat="45.46301" lon="4.67149">
        <ele>659</ele>
        <time>2010-01-01T04:08:24Z</time>
      </trkpt>
      <trkpt lat="45.46294" lon="4.67056">
        <ele>660</ele>
        <time>2010-01-01T04:08:51Z</time>
      </trkpt>
      <trkpt lat="45.46292" lon="4.66972">
        <ele>666</ele>
        <time>2010-01-01T04:09:14Z</time>
      </trkpt>
      <trkpt lat="45.46306" lon="4.66882">
        <ele>664</ele>
        <time>2010-01-01T04:09:40Z</time>
      </trkpt>
      <trkpt lat="45.4631" lon="4.66788">
        <ele>666</ele>
        <time>2010-01-01T04:10:07Z</time>
      </trkpt>
      <trkpt lat="45.46317" lon="4.66736">
        <ele>671</ele>
        <time>2010-01-01T04:10:21Z</time>
      </trkpt>
      <trkpt lat="45.4634" lon="4.66682">
        <ele>673</ele>
        <time>2010-01-01T04:10:39Z</time>
      </trkpt>
      <trkpt lat="45.46373" lon="4.66618">
        <ele>663</ele>
        <time>2010-01-01T04:11:01Z</time>
      </trkpt>
      <trkpt lat="45.46386" lon="4.66561">
        <ele>659</ele>
        <time>2010-01-01T04:11:18Z</time>
      </trkpt>
      <trkpt lat="45.46374" lon="4.66443">
        <ele>659</ele>
        <time>2010-01-01T04:11:52Z</time>
      </trkpt>
      <trkpt lat="45.46356" lon="4.664">
        <ele>659</ele>
        <time>2010-01-01T04:12:06Z</time>
      </trkpt>
      <trkpt lat="45.4633" lon="4.66385">
        <ele>658</ele>
        <time>2010-01-01T04:12:17Z</time>
      </trkpt>
      <trkpt lat="45.46262" lon="4.66369">
        <ele>656</ele>
        <time>2010-01-01T04:12:45Z</time>
      </trkpt>
      <trkpt lat="45.46192" lon="4.66346">
        <ele>654</ele>
        <time>2010-01-01T04:13:13Z</time>
      </trkpt>
      <trkpt lat="45.46139" lon="4.66297">
        <ele>656</ele>
        <time>2010-01-01T04:13:39Z</time>
      </trkpt>
      <trkpt lat="45.46003" lon="4.66101">
        <ele>658</ele>
        <time>2010-01-01T04:14:56Z</time>
      </trkpt>
      <trkpt lat="45.45932" lon="4.65976">
        <ele>650</ele>
        <time>2010-01-01T04:15:41Z</time>
      </trkpt>
      <trkpt lat="45.45854" lon="4.65872">
        <ele>647</ele>
        <time>2010-01-01T04:16:24Z</time>
      </trkpt>
      <trkpt lat="45.45798" lon="4.65814">
        <ele>648</ele>
        <time>2010-01-01T04:16:52Z</time>
      </trkpt>
      <trkpt lat="45.45768" lon="4.65767">
        <ele>658</ele>
        <time>2010-01-01T04:17:10Z</time>
      </trkpt>
      <trkpt lat="45.45761" lon="4.65698">
        <ele>668</ele>
        <time>2010-01-01T04:17:29Z</time>
      </trkpt>
      <trkpt lat="45.45782" lon="4.65634">
        <ele>667</ele>
        <time>2010-01-01T04:17:49Z</time>
      </trkpt>
      <trkpt lat="45.45814" lon="4.65578">
        <ele>659</ele>
        <time>2010-01-01T04:18:09Z</time>
      </trkpt>
      <trkpt lat="45.45853" lon="4.65552">
        <ele>658</ele>
        <time>2010-01-01T04:18:26Z</time>
      </trkpt>
      <trkpt lat="45.45897" lon="4.65552">
        <ele>659</ele>
        <time>2010-01-01T04:18:44Z</time>
      </trkpt>
      <trkpt lat="45.45937" lon="4.65545">
        <ele>661</ele>
        <time>2010-01-01T04:19:00Z</time>
      </trkpt>
      <trkpt lat="45.45988" lon="4.65518">
        <ele>664</ele>
        <time>2010-01-01T04:19:22Z</time>
      </trkpt>
      <trkpt lat="45.46026" lon="4.6549">
        <ele>661</ele>
        <time>2010-01-01T04:19:39Z</time>
      </trkpt>
      <trkpt lat="45.46056" lon="4.65445">
        <ele>660</ele>
        <time>2010-01-01T04:19:57Z</time>
      </trkpt>
      <trkpt lat="45.46086" lon="4.65362">
        <ele>662</ele>
        <time>2010-01-01T04:20:23Z</time>
      </trkpt>
      <trkpt lat="45.46111" lon="4.65308">
        <ele>658</ele>
        <time>2010-01-01T04:20:41Z</time>
      </trkpt>
      <trkpt lat="45.46158" lon="4.65269">
        <ele>652</ele>
        <time>2010-01-01T04:21:03Z</time>
      </trkpt>
      <trkpt lat="45.46198" lon="4.65225">
        <ele>654</ele>
        <time>2010-01-01T04:21:23Z</time>
      </trkpt>
      <trkpt lat="45.4623" lon="4.6513">
        <ele>657</ele>
        <time>2010-01-01T04:21:53Z</time>
      </trkpt>
      <trkpt lat="45.46242" lon="4.65024">
        <ele>660</ele>
        <time>2010-01-01T04:22:23Z</time>
      </trkpt>
      <trkpt lat="45.46281" lon="4.64919">
        <ele>665</ele>
        <time>2010-01-01T04:22:56Z</time>
      </trkpt>
      <trkpt lat="45.46287" lon="4.64892">
        <ele>665</ele>
        <time>2010-01-01T04:23:04Z</time>
      </trkpt>
      <trkpt lat="45.46287" lon="4.64865">
        <ele>664</ele>
        <time>2010-01-01T04:23:12Z</time>
      </trkpt>
      <trkpt lat="45.46272" lon="4.64811">
        <ele>662</ele>
        <time>2010-01-01T04:23:28Z</time>
      </trkpt>
      <trkpt lat="45.46109" lon="4.64528">
        <ele>679</ele>
        <time>2010-01-01T04:25:11Z</time>
      </trkpt>
      <trkpt lat="45.46048" lon="4.64326">
        <ele>682</ele>
        <time>2010-01-01T04:26:12Z</time>
      </trkpt>
      <trkpt lat="45.46019" lon="4.64214">
        <ele>682</ele>
        <time>2010-01-01T04:26:46Z</time>
      </trkpt>
      <trkpt lat="45.45976" lon="4.64105">
        <ele>682</ele>
        <time>2010-01-01T04:27:21Z</time>
      </trkpt>
      <trkpt lat="45.45929" lon="4.64043">
        <ele>689</ele>
        <time>2010-01-01T04:27:47Z</time>
      </trkpt>
      <trkpt lat="45.45896" lon="4.63974">
        <ele>693</ele>
        <time>2010-01-01T04:28:10Z</time>
      </trkpt>
      <trkpt lat="45.459" lon="4.63947">
        <ele>693</ele>
        <time>2010-01-01T04:28:18Z</time>
      </trkpt>
      <trkpt lat="45.45913" lon="4.6392">
        <ele>696</ele>
        <time>2010-01-01T04:28:27Z</time>
      </trkpt>
      <trkpt lat="45.45939" lon="4.639">
        <ele>695</ele>
        <time>2010-01-01T04:28:39Z</time>
      </trkpt>
      <trkpt lat="45.45987" lon="4.63872">
        <ele>688</ele>
        <time>2010-01-01T04:29:00Z</time>
      </trkpt>
      <trkpt lat="45.46037" lon="4.63854">
        <ele>687</ele>
        <time>2010-01-01T04:29:20Z</time>
      </trkpt>
      <trkpt lat="45.46111" lon="4.63832">
        <ele>689</ele>
        <time>2010-01-01T04:29:51Z</time>
      </trkpt>
      <trkpt lat="45.46162" lon="4.63832">
        <ele>688</ele>
        <time>2010-01-01T04:30:11Z</time>
      </trkpt>
      <trkpt lat="45.46274" lon="4.63852">
        <ele>682</ele>
        <time>2010-01-01T04:30:56Z</time>
      </trkpt>
      <trkpt lat="45.46288" lon="4.63851">
        <ele>682</ele>
        <time>2010-01-01T04:31:02Z</time>
      </trkpt>
      <trkpt lat="45.46299" lon="4.63847">
        <ele>683</ele>
        <time>2010-01-01T04:31:06Z</time>
      </trkpt>
      <trkpt lat="45.46311" lon="4.63834">
        <ele>684</ele>
        <time>2010-01-01T04:31:12Z</time>
      </trkpt>
      <trkpt lat="45.46319" lon="4.63822">
        <ele>684</ele>
        <time>2010-01-01T04:31:17Z</time>
      </trkpt>
      <trkpt lat="45.46325" lon="4.63802">
        <ele>684</ele>
        <time>2010-01-01T04:31:23Z</time>
      </trkpt>
      <trkpt lat="45.46326" lon="4.63775">
        <ele>682</ele>
        <time>2010-01-01T04:31:31Z</time>
      </trkpt>
      <trkpt lat="45.46317" lon="4.63746">
        <ele>680</ele>
        <time>2010-01-01T04:31:40Z</time>
      </trkpt>
      <trkpt lat="45.46296" lon="4.63702">
        <ele>679</ele>
        <time>2010-01-01T04:31:55Z</time>
      </trkpt>
      <trkpt lat="45.46256" lon="4.63652">
        <ele>681</ele>
        <time>2010-01-01T04:32:16Z</time>
      </trkpt>
      <trkpt lat="45.46224" lon="4.63604">
        <ele>681</ele>
        <time>2010-01-01T04:32:34Z</time>
      </trkpt>
      <trkpt lat="45.46203" lon="4.63563">
        <ele>682</ele>
        <time>2010-01-01T04:32:49Z</time>
      </trkpt>
      <trkpt lat="45.46176" lon="4.63505">
        <ele>682</ele>
        <time>2010-01-01T04:33:08Z</time>
      </trkpt>
      <trkpt lat="45.46145" lon="4.63419">
        <ele>682</ele>
        <time>2010-01-01T04:33:35Z</time>
      </trkpt>
      <trkpt lat="45.4611" lon="4.63299">
        <ele>678</ele>
        <time>2010-01-01T04:34:12Z</time>
      </trkpt>
      <trkpt lat="45.4611" lon="4.63298">
        <ele>678</ele>
        <time>2010-01-01T04:34:12Z</time>
      </trkpt>
      <trkpt lat="45.46088" lon="4.632">
        <ele>676</ele>
        <time>2010-01-01T04:34:41Z</time>
      </trkpt>
      <trkpt lat="45.46075" lon="4.63161">
        <ele>673</ele>
        <time>2010-01-01T04:34:53Z</time>
      </trkpt>
      <trkpt lat="45.46024" lon="4.63096">
        <ele>669</ele>
        <time>2010-01-01T04:35:21Z</time>
      </trkpt>
      <trkpt lat="45.4601" lon="4.63084">
        <ele>669</ele>
        <time>2010-01-01T04:35:27Z</time>
      </trkpt>
      <trkpt lat="45.45998" lon="4.63077">
        <ele>670</ele>
        <time>2010-01-01T04:35:32Z</time>
      </trkpt>
      <trkpt lat="45.45955" lon="4.63063">
        <ele>675</ele>
        <time>2010-01-01T04:35:50Z</time>
      </trkpt>
      <trkpt lat="45.45994" lon="4.63058">
        <ele>667</ele>
        <time>2010-01-01T04:36:06Z</time>
      </trkpt>
      <trkpt lat="45.46017" lon="4.63057">
        <ele>663</ele>
        <time>2010-01-01T04:36:15Z</time>
      </trkpt>
      <trkpt lat="45.46051" lon="4.63062">
        <ele>660</ele>
        <time>2010-01-01T04:36:29Z</time>
      </trkpt>
      <trkpt lat="45.46105" lon="4.63074">
        <ele>653</ele>
        <time>2010-01-01T04:36:50Z</time>
      </trkpt>
      <trkpt lat="45.46154" lon="4.63093">
        <ele>641</ele>
        <time>2010-01-01T04:37:11Z</time>
      </trkpt>
      <trkpt lat="45.46189" lon="4.63136">
        <ele>634</ele>
        <time>2010-01-01T04:37:29Z</time>
      </trkpt>
      <trkpt lat="45.4622" lon="4.63167">
        <ele>627</ele>
        <time>2010-01-01T04:37:44Z</time>
      </trkpt>
      <trkpt lat="45.46231" lon="4.63183">
        <ele>626</ele>
        <time>2010-01-01T04:37:51Z</time>
      </trkpt>
      <trkpt lat="45.4625" lon="4.63228">
        <ele>623</ele>
        <time>2010-01-01T04:38:05Z</time>
      </trkpt>
      <trkpt lat="45.463" lon="4.6333">
        <ele>611</ele>
        <time>2010-01-01T04:38:40Z</time>
      </trkpt>
      <trkpt lat="45.46349" lon="4.63402">
        <ele>602</ele>
        <time>2010-01-01T04:39:09Z</time>
      </trkpt>
      <trkpt lat="45.4637" lon="4.63412">
        <ele>596</ele>
        <time>2010-01-01T04:39:17Z</time>
      </trkpt>
      <trkpt lat="45.46389" lon="4.63413">
        <ele>590</ele>
        <time>2010-01-01T04:39:25Z</time>
      </trkpt>
      <trkpt lat="45.46427" lon="4.63436">
        <ele>587</ele>
        <time>2010-01-01T04:39:41Z</time>
      </trkpt>
      <trkpt lat="45.46501" lon="4.63482">
        <ele>585</ele>
        <time>2010-01-01T04:40:14Z</time>
      </trkpt>
      <trkpt lat="45.46603" lon="4.63552">
        <ele>580</ele>
        <time>2010-01-01T04:40:59Z</time>
      </trkpt>
      <trkpt lat="45.46633" lon="4.63582">
        <ele>580</ele>
        <time>2010-01-01T04:41:14Z</time>
      </trkpt>
      <trkpt lat="45.46656" lon="4.63614">
        <ele>581</ele>
        <time>2010-01-01T04:41:27Z</time>
      </trkpt>
      <trkpt lat="45.46686" lon="4.63662">
        <ele>580</ele>
        <time>2010-01-01T04:41:45Z</time>
      </trkpt>
      <trkpt lat="45.46715" lon="4.63723">
        <ele>580</ele>
        <time>2010-01-01T04:42:05Z</time>
      </trkpt>
      <trkpt lat="45.46738" lon="4.6376">
        <ele>581</ele>
        <time>2010-01-01T04:42:19Z</time>
      </trkpt>
      <trkpt lat="45.46765" lon="4.63798">
        <ele>583</ele>
        <time>2010-01-01T04:42:34Z</time>
      </trkpt>
      <trkpt lat="45.46788" lon="4.63809">
        <ele>580</ele>
        <time>2010-01-01T04:42:44Z</time>
      </trkpt>
      <trkpt lat="45.46891" lon="4.63853">
        <ele>566</ele>
        <time>2010-01-01T04:43:27Z</time>
      </trkpt>
      <trkpt lat="45.47004" lon="4.63894">
        <ele>561</ele>
        <time>2010-01-01T04:44:14Z</time>
      </trkpt>
      <trkpt lat="45.47022" lon="4.63922">
        <ele>562</ele>
        <time>2010-01-01T04:44:25Z</time>
      </trkpt>
      <trkpt lat="45.47038" lon="4.63953">
        <ele>562</ele>
        <time>2010-01-01T04:44:35Z</time>
      </trkpt>
      <trkpt lat="45.47061" lon="4.63958">
        <ele>559</ele>
        <time>2010-01-01T04:44:45Z</time>
      </trkpt>
      <trkpt lat="45.4716" lon="4.63962">
        <ele>544</ele>
        <time>2010-01-01T04:45:24Z</time>
      </trkpt>
      <trkpt lat="45.47159" lon="4.63962">
        <ele>544</ele>
        <time>2010-01-01T04:45:25Z</time>
      </trkpt>
      <trkpt lat="45.47276" lon="4.63919">
        <ele>532</ele>
        <time>2010-01-01T04:46:13Z</time>
      </trkpt>
      <trkpt lat="45.4729" lon="4.63911">
        <ele>532</ele>
        <time>2010-01-01T04:46:19Z</time>
      </trkpt>
      <trkpt lat="45.47407" lon="4.63867">
        <ele>523</ele>
        <time>2010-01-01T04:47:08Z</time>
      </trkpt>
      <trkpt lat="45.47432" lon="4.63861">
        <ele>519</ele>
        <time>2010-01-01T04:47:18Z</time>
      </trkpt>
      <trkpt lat="45.47452" lon="4.63864">
        <ele>517</ele>
        <time>2010-01-01T04:47:26Z</time>
      </trkpt>
      <trkpt lat="45.47495" lon="4.63882">
        <ele>517</ele>
        <time>2010-01-01T04:47:44Z</time>
      </trkpt>
      <trkpt lat="45.47515" lon="4.63898">
        <ele>515</ele>
        <time>2010-01-01T04:47:53Z</time>
      </trkpt>
      <trkpt lat="45.47525" lon="4.63914">
        <ele>514</ele>
        <time>2010-01-01T04:47:59Z</time>
      </trkpt>
      <trkpt lat="45.4753" lon="4.63932">
        <ele>513</ele>
        <time>2010-01-01T04:48:04Z</time>
      </trkpt>
      <trkpt lat="45.47547" lon="4.64043">
        <ele>508</ele>
        <time>2010-01-01T04:48:36Z</time>
      </trkpt>
      <trkpt lat="45.47556" lon="4.64083">
        <ele>505</ele>
        <time>2010-01-01T04:48:48Z</time>
      </trkpt>
      <trkpt lat="45.47628" lon="4.64345">
        <ele>487</ele>
        <time>2010-01-01T04:50:07Z</time>
      </trkpt>
      <trkpt lat="45.47631" lon="4.64366">
        <ele>486</ele>
        <time>2010-01-01T04:50:13Z</time>
      </trkpt>
      <trkpt lat="45.47629" lon="4.64387">
        <ele>485</ele>
        <time>2010-01-01T04:50:19Z</time>
      </trkpt>
      <trkpt lat="45.47626" lon="4.64401">
        <ele>484</ele>
        <time>2010-01-01T04:50:23Z</time>
      </trkpt>
      <trkpt lat="45.47611" lon="4.64424">
        <ele>484</ele>
        <time>2010-01-01T04:50:32Z</time>
      </trkpt>
      <trkpt lat="45.47596" lon="4.64437">
        <ele>482</ele>
        <time>2010-01-01T04:50:39Z</time>
      </trkpt>
      <trkpt lat="45.47573" lon="4.64445">
        <ele>481</ele>
        <time>2010-01-01T04:50:48Z</time>
      </trkpt>
      <trkpt lat="45.47534" lon="4.64448">
        <ele>480</ele>
        <time>2010-01-01T04:51:04Z</time>
      </trkpt>
      <trkpt lat="45.47459" lon="4.6442">
        <ele>479</ele>
        <time>2010-01-01T04:51:35Z</time>
      </trkpt>
      <trkpt lat="45.47452" lon="4.64422">
        <ele>477</ele>
        <time>2010-01-01T04:51:38Z</time>
      </trkpt>
      <trkpt lat="45.47452" lon="4.64432">
        <ele>475</ele>
        <time>2010-01-01T04:51:41Z</time>
      </trkpt>
      <trkpt lat="45.47511" lon="4.64487">
        <ele>466</ele>
        <time>2010-01-01T04:52:09Z</time>
      </trkpt>
      <trkpt lat="45.47559" lon="4.64523">
        <ele>464</ele>
        <time>2010-01-01T04:52:31Z</time>
      </trkpt>
      <trkpt lat="45.47617" lon="4.64563">
        <ele>456</ele>
        <time>2010-01-01T04:52:56Z</time>
      </trkpt>
      <trkpt lat="45.47664" lon="4.64587">
        <ele>451</ele>
        <time>2010-01-01T04:53:16Z</time>
      </trkpt>
      <trkpt lat="45.4769" lon="4.6461">
        <ele>445</ele>
        <time>2010-01-01T04:53:29Z</time>
      </trkpt>
      <trkpt lat="45.47714" lon="4.64625">
        <ele>443</ele>
        <time>2010-01-01T04:53:39Z</time>
      </trkpt>
      <trkpt lat="45.47733" lon="4.64633">
        <ele>441</ele>
        <time>2010-01-01T04:53:47Z</time>
      </trkpt>
      <trkpt lat="45.47781" lon="4.64636">
        <ele>440</ele>
        <time>2010-01-01T04:54:06Z</time>
      </trkpt>
      <trkpt lat="45.47849" lon="4.64679">
        <ele>425</ele>
        <time>2010-01-01T04:54:36Z</time>
      </trkpt>
      <trkpt lat="45.47892" lon="4.64713">
        <ele>423</ele>
        <time>2010-01-01T04:54:56Z</time>
      </trkpt>
      <trkpt lat="45.47905" lon="4.64709">
        <ele>423</ele>
        <time>2010-01-01T04:55:01Z</time>
      </trkpt>
      <trkpt lat="45.47917" lon="4.64712">
        <ele>423</ele>
        <time>2010-01-01T04:55:06Z</time>
      </trkpt>
      <trkpt lat="45.47926" lon="4.64717">
        <ele>423</ele>
        <time>2010-01-01T04:55:10Z</time>
      </trkpt>
      <trkpt lat="45.47937" lon="4.64734">
        <ele>423</ele>
        <time>2010-01-01T04:55:16Z</time>
      </trkpt>
      <trkpt lat="45.47973" lon="4.6477">
        <ele>424</ele>
        <time>2010-01-01T04:55:34Z</time>
      </trkpt>
      <trkpt lat="45.47992" lon="4.64768">
        <ele>426</ele>
        <time>2010-01-01T04:55:42Z</time>
      </trkpt>
      <trkpt lat="45.48007" lon="4.64751">
        <ele>427</ele>
        <time>2010-01-01T04:55:49Z</time>
      </trkpt>
      <trkpt lat="45.48016" lon="4.64712">
        <ele>424</ele>
        <time>2010-01-01T04:56:01Z</time>
      </trkpt>
      <trkpt lat="45.48027" lon="4.64672">
        <ele>420</ele>
        <time>2010-01-01T04:56:13Z</time>
      </trkpt>
      <trkpt lat="45.48041" lon="4.64644">
        <ele>420</ele>
        <time>2010-01-01T04:56:22Z</time>
      </trkpt>
      <trkpt lat="45.48061" lon="4.64622">
        <ele>421</ele>
        <time>2010-01-01T04:56:33Z</time>
      </trkpt>
      <trkpt lat="45.48096" lon="4.6459">
        <ele>423</ele>
        <time>2010-01-01T04:56:49Z</time>
      </trkpt>
      <trkpt lat="45.4812" lon="4.64562">
        <ele>423</ele>
        <time>2010-01-01T04:57:02Z</time>
      </trkpt>
      <trkpt lat="45.48126" lon="4.64546">
        <ele>424</ele>
        <time>2010-01-01T04:57:07Z</time>
      </trkpt>
      <trkpt lat="45.4813" lon="4.64509">
        <ele>424</ele>
        <time>2010-01-01T04:57:17Z</time>
      </trkpt>
      <trkpt lat="45.48126" lon="4.64481">
        <ele>425</ele>
        <time>2010-01-01T04:57:25Z</time>
      </trkpt>
      <trkpt lat="45.48116" lon="4.64454">
        <ele>423</ele>
        <time>2010-01-01T04:57:34Z</time>
      </trkpt>
      <trkpt lat="45.48075" lon="4.64378">
        <ele>420</ele>
        <time>2010-01-01T04:58:01Z</time>
      </trkpt>
      <trkpt lat="45.48067" lon="4.64343">
        <ele>422</ele>
        <time>2010-01-01T04:58:11Z</time>
      </trkpt>
      <trkpt lat="45.48061" lon="4.64332">
        <ele>422</ele>
        <time>2010-01-01T04:58:15Z</time>
      </trkpt>
      <trkpt lat="45.48016" lon="4.64286">
        <ele>415</ele>
        <time>2010-01-01T04:58:37Z</time>
      </trkpt>
      <trkpt lat="45.48007" lon="4.64254">
        <ele>414</ele>
        <time>2010-01-01T04:58:47Z</time>
      </trkpt>
      <trkpt lat="45.48011" lon="4.64142">
        <ele>414</ele>
        <time>2010-01-01T04:59:18Z</time>
      </trkpt>
      <trkpt lat="45.48019" lon="4.64108">
        <ele>413</ele>
        <time>2010-01-01T04:59:28Z</time>
      </trkpt>
      <trkpt lat="45.48027" lon="4.64099">
        <ele>413</ele>
        <time>2010-01-01T04:59:32Z</time>
      </trkpt>
      <trkpt lat="45.48044" lon="4.6409">
        <ele>414</ele>
        <time>2010-01-01T04:59:40Z</time>
      </trkpt>
      <trkpt lat="45.48116" lon="4.64075">
        <ele>417</ele>
        <time>2010-01-01T05:00:09Z</time>
      </trkpt>
      <trkpt lat="45.48146" lon="4.64061">
        <ele>416</ele>
        <time>2010-01-01T05:00:21Z</time>
      </trkpt>
      <trkpt lat="45.48196" lon="4.64015">
        <ele>418</ele>
        <time>2010-01-01T05:00:45Z</time>
      </trkpt>
      <trkpt lat="45.48201" lon="4.64002">
        <ele>417</ele>
        <time>2010-01-01T05:00:49Z</time>
      </trkpt>
      <trkpt lat="45.48203" lon="4.63979">
        <ele>415</ele>
        <time>2010-01-01T05:00:56Z</time>
      </trkpt>
      <trkpt lat="45.48199" lon="4.63949">
        <ele>412</ele>
        <time>2010-01-01T05:01:05Z</time>
      </trkpt>
      <trkpt lat="45.48212" lon="4.63922">
        <ele>411</ele>
        <time>2010-01-01T05:01:14Z</time>
      </trkpt>
      <trkpt lat="45.48234" lon="4.63887">
        <ele>409</ele>
        <time>2010-01-01T05:01:27Z</time>
      </trkpt>
      <trkpt lat="45.48249" lon="4.63876">
        <ele>409</ele>
        <time>2010-01-01T05:01:34Z</time>
      </trkpt>
      <trkpt lat="45.48283" lon="4.63876">
        <ele>413</ele>
        <time>2010-01-01T05:01:47Z</time>
      </trkpt>
      <trkpt lat="45.48294" lon="4.63874">
        <ele>415</ele>
        <time>2010-01-01T05:01:52Z</time>
      </trkpt>
      <trkpt lat="45.48303" lon="4.63867">
        <ele>415</ele>
        <time>2010-01-01T05:01:56Z</time>
      </trkpt>
      <trkpt lat="45.48306" lon="4.63851">
        <ele>415</ele>
        <time>2010-01-01T05:02:00Z</time>
      </trkpt>
      <trkpt lat="45.48293" lon="4.63817">
        <ele>412</ele>
        <time>2010-01-01T05:02:11Z</time>
      </trkpt>
      <trkpt lat="45.48287" lon="4.63797">
        <ele>410</ele>
        <time>2010-01-01T05:02:17Z</time>
      </trkpt>
      <trkpt lat="45.48283" lon="4.63755">
        <ele>410</ele>
        <time>2010-01-01T05:02:29Z</time>
      </trkpt>
      <trkpt lat="45.48283" lon="4.63716">
        <ele>411</ele>
        <time>2010-01-01T05:02:40Z</time>
      </trkpt>
      <trkpt lat="45.48277" lon="4.63674">
        <ele>411</ele>
        <time>2010-01-01T05:02:52Z</time>
      </trkpt>
      <trkpt lat="45.48269" lon="4.63636">
        <ele>412</ele>
        <time>2010-01-01T05:03:03Z</time>
      </trkpt>
      <trkpt lat="45.48243" lon="4.63605">
        <ele>410</ele>
        <time>2010-01-01T05:03:17Z</time>
      </trkpt>
      <trkpt lat="45.48215" lon="4.63575">
        <ele>409</ele>
        <time>2010-01-01T05:03:31Z</time>
      </trkpt>
      <trkpt lat="45.48186" lon="4.63533">
        <ele>407</ele>
        <time>2010-01-01T05:03:48Z</time>
      </trkpt>
      <trkpt lat="45.48179" lon="4.63498">
        <ele>406</ele>
        <time>2010-01-01T05:03:58Z</time>
      </trkpt>
      <trkpt lat="45.48184" lon="4.63475">
        <ele>406</ele>
        <time>2010-01-01T05:04:05Z</time>
      </trkpt>
      <trkpt lat="45.48196" lon="4.63464">
        <ele>407</ele>
        <time>2010-01-01T05:04:10Z</time>
      </trkpt>
      <trkpt lat="45.48213" lon="4.63459">
        <ele>406</ele>
        <time>2010-01-01T05:04:17Z</time>
      </trkpt>
      <trkpt lat="45.48227" lon="4.6346">
        <ele>407</ele>
        <time>2010-01-01T05:04:23Z</time>
      </trkpt>
      <trkpt lat="45.48242" lon="4.63464">
        <ele>407</ele>
        <time>2010-01-01T05:04:29Z</time>
      </trkpt>
      <trkpt lat="45.48298" lon="4.63496">
        <ele>407</ele>
        <time>2010-01-01T05:04:53Z</time>
      </trkpt>
      <trkpt lat="45.48364" lon="4.63499">
        <ele>405</ele>
        <time>2010-01-01T05:05:20Z</time>
      </trkpt>
      <trkpt lat="45.4839" lon="4.63488">
        <ele>404</ele>
        <time>2010-01-01T05:05:30Z</time>
      </trkpt>
      <trkpt lat="45.4845" lon="4.63449">
        <ele>403</ele>
        <time>2010-01-01T05:05:57Z</time>
      </trkpt>
      <trkpt lat="45.4847" lon="4.63442">
        <ele>402</ele>
        <time>2010-01-01T05:06:05Z</time>
      </trkpt>
      <trkpt lat="45.4849" lon="4.63444">
        <ele>400</ele>
        <time>2010-01-01T05:06:13Z</time>
      </trkpt>
      <trkpt lat="45.48509" lon="4.63454">
        <ele>400</ele>
        <time>2010-01-01T05:06:21Z</time>
      </trkpt>
      <trkpt lat="45.48561" lon="4.6349">
        <ele>402</ele>
        <time>2010-01-01T05:06:44Z</time>
      </trkpt>
      <trkpt lat="45.48586" lon="4.63499">
        <ele>401</ele>
        <time>2010-01-01T05:06:55Z</time>
      </trkpt>
      <trkpt lat="45.48611" lon="4.63506">
        <ele>399</ele>
        <time>2010-01-01T05:07:05Z</time>
      </trkpt>
      <trkpt lat="45.48633" lon="4.63508">
        <ele>398</ele>
        <time>2010-01-01T05:07:14Z</time>
      </trkpt>
      <trkpt lat="45.48696" lon="4.63494">
        <ele>397</ele>
        <time>2010-01-01T05:07:39Z</time>
      </trkpt>
      <trkpt lat="45.48764" lon="4.63449">
        <ele>392</ele>
        <time>2010-01-01T05:08:09Z</time>
      </trkpt>
      <trkpt lat="45.48793" lon="4.6344">
        <ele>394</ele>
        <time>2010-01-01T05:08:21Z</time>
      </trkpt>
      <trkpt lat="45.48814" lon="4.6342">
        <ele>392</ele>
        <time>2010-01-01T05:08:31Z</time>
      </trkpt>
      <trkpt lat="45.4883" lon="4.6341">
        <ele>392</ele>
        <time>2010-01-01T05:08:38Z</time>
      </trkpt>
      <trkpt lat="45.48855" lon="4.63416">
        <ele>393</ele>
        <time>2010-01-01T05:08:48Z</time>
      </trkpt>
      <trkpt lat="45.48892" lon="4.63434">
        <ele>395</ele>
        <time>2010-01-01T05:09:04Z</time>
      </trkpt>
      <trkpt lat="45.48909" lon="4.63433">
        <ele>395</ele>
        <time>2010-01-01T05:09:11Z</time>
      </trkpt>
      <trkpt lat="45.48921" lon="4.63423">
        <ele>395</ele>
        <time>2010-01-01T05:09:16Z</time>
      </trkpt>
      <trkpt lat="45.48927" lon="4.63413">
        <ele>394</ele>
        <time>2010-01-01T05:09:20Z</time>
      </trkpt>
      <trkpt lat="45.4893" lon="4.63397">
        <ele>395</ele>
        <time>2010-01-01T05:09:25Z</time>
      </trkpt>
      <trkpt lat="45.48928" lon="4.63381">
        <ele>394</ele>
        <time>2010-01-01T05:09:29Z</time>
      </trkpt>
      <trkpt lat="45.48923" lon="4.63367">
        <ele>393</ele>
        <time>2010-01-01T05:09:34Z</time>
      </trkpt>
      <trkpt lat="45.48871" lon="4.63266">
        <ele>388</ele>
        <time>2010-01-01T05:10:09Z</time>
      </trkpt>
      <trkpt lat="45.48859" lon="4.6324">
        <ele>387</ele>
        <time>2010-01-01T05:10:18Z</time>
      </trkpt>
      <trkpt lat="45.48855" lon="4.63217">
        <ele>387</ele>
        <time>2010-01-01T05:10:24Z</time>
      </trkpt>
      <trkpt lat="45.48855" lon="4.63198">
        <ele>387</ele>
        <time>2010-01-01T05:10:30Z</time>
      </trkpt>
      <trkpt lat="45.48863" lon="4.63145">
        <ele>388</ele>
        <time>2010-01-01T05:10:45Z</time>
      </trkpt>
      <trkpt lat="45.48865" lon="4.63088">
        <ele>386</ele>
        <time>2010-01-01T05:11:01Z</time>
      </trkpt>
      <trkpt lat="45.48873" lon="4.63022">
        <ele>388</ele>
        <time>2010-01-01T05:11:20Z</time>
      </trkpt>
      <trkpt lat="45.48901" lon="4.6281">
        <ele>381</ele>
        <time>2010-01-01T05:12:20Z</time>
      </trkpt>
      <trkpt lat="45.48908" lon="4.62765">
        <ele>378</ele>
        <time>2010-01-01T05:12:33Z</time>
      </trkpt>
      <trkpt lat="45.48917" lon="4.62751">
        <ele>378</ele>
        <time>2010-01-01T05:12:38Z</time>
      </trkpt>
      <trkpt lat="45.48928" lon="4.62742">
        <ele>379</ele>
        <time>2010-01-01T05:12:43Z</time>
      </trkpt>
      <trkpt lat="45.48948" lon="4.62739">
        <ele>382</ele>
        <time>2010-01-01T05:12:51Z</time>
      </trkpt>
      <trkpt lat="45.49025" lon="4.62759">
        <ele>383</ele>
        <time>2010-01-01T05:13:23Z</time>
      </trkpt>
      <trkpt lat="45.49072" lon="4.62777">
        <ele>380</ele>
        <time>2010-01-01T05:13:42Z</time>
      </trkpt>
      <trkpt lat="45.49094" lon="4.62779">
        <ele>378</ele>
        <time>2010-01-01T05:13:51Z</time>
      </trkpt>
      <trkpt lat="45.49125" lon="4.62791">
        <ele>384</ele>
        <time>2010-01-01T05:14:04Z</time>
      </trkpt>
      <trkpt lat="45.49136" lon="4.62784">
        <ele>384</ele>
        <time>2010-01-01T05:14:09Z</time>
      </trkpt>
      <trkpt lat="45.49145" lon="4.62764">
        <ele>383</ele>
        <time>2010-01-01T05:14:15Z</time>
      </trkpt>
      <trkpt lat="45.49148" lon="4.62748">
        <ele>381</ele>
        <time>2010-01-01T05:14:20Z</time>
      </trkpt>
      <trkpt lat="45.49172" lon="4.62679">
        <ele>378</ele>
        <time>2010-01-01T05:14:42Z</time>
      </trkpt>
      <trkpt lat="45.49179" lon="4.62621">
        <ele>374</ele>
        <time>2010-01-01T05:14:58Z</time>
      </trkpt>
      <trkpt lat="45.49182" lon="4.62584">
        <ele>373</ele>
        <time>2010-01-01T05:15:09Z</time>
      </trkpt>
      <trkpt lat="45.49191" lon="4.62524">
        <ele>372</ele>
        <time>2010-01-01T05:15:26Z</time>
      </trkpt>
      <trkpt lat="45.49198" lon="4.62512">
        <ele>372</ele>
        <time>2010-01-01T05:15:30Z</time>
      </trkpt>
      <trkpt lat="45.49205" lon="4.62506">
        <ele>372</ele>
        <time>2010-01-01T05:15:34Z</time>
      </trkpt>
      <trkpt lat="45.49227" lon="4.62505">
        <ele>375</ele>
        <time>2010-01-01T05:15:42Z</time>
      </trkpt>
      <trkpt lat="45.49259" lon="4.62527">
        <ele>378</ele>
        <time>2010-01-01T05:15:57Z</time>
      </trkpt>
      <trkpt lat="45.49307" lon="4.62544">
        <ele>372</ele>
        <time>2010-01-01T05:16:16Z</time>
      </trkpt>
      <trkpt lat="45.49317" lon="4.62557">
        <ele>373</ele>
        <time>2010-01-01T05:16:22Z</time>
      </trkpt>
      <trkpt lat="45.49327" lon="4.62581">
        <ele>375</ele>
        <time>2010-01-01T05:16:30Z</time>
      </trkpt>
      <trkpt lat="45.49335" lon="4.62646">
        <ele>385</ele>
        <time>2010-01-01T05:16:48Z</time>
      </trkpt>
      <trkpt lat="45.49341" lon="4.62669">
        <ele>385</ele>
        <time>2010-01-01T05:16:55Z</time>
      </trkpt>
      <trkpt lat="45.49352" lon="4.62686">
        <ele>384</ele>
        <time>2010-01-01T05:17:02Z</time>
      </trkpt>
      <trkpt lat="45.49383" lon="4.62696">
        <ele>378</ele>
        <time>2010-01-01T05:17:14Z</time>
      </trkpt>
      <trkpt lat="45.4945" lon="4.6269">
        <ele>376</ele>
        <time>2010-01-01T05:17:41Z</time>
      </trkpt>
      <trkpt lat="45.49467" lon="4.62687">
        <ele>376</ele>
        <time>2010-01-01T05:17:48Z</time>
      </trkpt>
      <trkpt lat="45.49512" lon="4.62666">
        <ele>370</ele>
        <time>2010-01-01T05:18:07Z</time>
      </trkpt>
      <trkpt lat="45.49538" lon="4.62659">
        <ele>371</ele>
        <time>2010-01-01T05:18:18Z</time>
      </trkpt>
      <trkpt lat="45.4957" lon="4.62658">
        <ele>370</ele>
        <time>2010-01-01T05:18:30Z</time>
      </trkpt>
      <trkpt lat="45.49623" lon="4.62667">
        <ele>367</ele>
        <time>2010-01-01T05:18:52Z</time>
      </trkpt>
      <trkpt lat="45.49651" lon="4.62677">
        <ele>367</ele>
        <time>2010-01-01T05:19:03Z</time>
      </trkpt>
      <trkpt lat="45.49679" lon="4.62705">
        <ele>365</ele>
        <time>2010-01-01T05:19:17Z</time>
      </trkpt>
      <trkpt lat="45.49684" lon="4.62721">
        <ele>363</ele>
        <time>2010-01-01T05:19:22Z</time>
      </trkpt>
      <trkpt lat="45.49685" lon="4.62745">
        <ele>364</ele>
        <time>2010-01-01T05:19:29Z</time>
      </trkpt>
      <trkpt lat="45.49685" lon="4.62763">
        <ele>365</ele>
        <time>2010-01-01T05:19:34Z</time>
      </trkpt>
      <trkpt lat="45.49689" lon="4.62809">
        <ele>367</ele>
        <time>2010-01-01T05:19:47Z</time>
      </trkpt>
      <trkpt lat="45.49741" lon="4.62926">
        <ele>366</ele>
        <time>2010-01-01T05:20:26Z</time>
      </trkpt>
      <trkpt lat="45.49745" lon="4.62974">
        <ele>372</ele>
        <time>2010-01-01T05:20:39Z</time>
      </trkpt>
      <trkpt lat="45.49754" lon="4.62994">
        <ele>371</ele>
        <time>2010-01-01T05:20:46Z</time>
      </trkpt>
      <trkpt lat="45.49771" lon="4.62989">
        <ele>365</ele>
        <time>2010-01-01T05:20:53Z</time>
      </trkpt>
      <trkpt lat="45.49792" lon="4.62974">
        <ele>358</ele>
        <time>2010-01-01T05:21:02Z</time>
      </trkpt>
      <trkpt lat="45.49806" lon="4.62968">
        <ele>356</ele>
        <time>2010-01-01T05:21:08Z</time>
      </trkpt>
      <trkpt lat="45.49816" lon="4.62966">
        <ele>356</ele>
        <time>2010-01-01T05:21:12Z</time>
      </trkpt>
      <trkpt lat="45.49846" lon="4.62964">
        <ele>354</ele>
        <time>2010-01-01T05:21:24Z</time>
      </trkpt>
      <trkpt lat="45.49857" lon="4.62966">
        <ele>354</ele>
        <time>2010-01-01T05:21:28Z</time>
      </trkpt>
      <trkpt lat="45.4988" lon="4.62978">
        <ele>353</ele>
        <time>2010-01-01T05:21:38Z</time>
      </trkpt>
      <trkpt lat="45.49904" lon="4.62996">
        <ele>354</ele>
        <time>2010-01-01T05:21:49Z</time>
      </trkpt>
      <trkpt lat="45.49937" lon="4.63032">
        <ele>357</ele>
        <time>2010-01-01T05:22:06Z</time>
      </trkpt>
      <trkpt lat="45.49944" lon="4.63038">
        <ele>357</ele>
        <time>2010-01-01T05:22:09Z</time>
      </trkpt>
      <trkpt lat="45.49952" lon="4.63041">
        <ele>356</ele>
        <time>2010-01-01T05:22:12Z</time>
      </trkpt>
      <trkpt lat="45.49975" lon="4.63043">
        <ele>351</ele>
        <time>2010-01-01T05:22:22Z</time>
      </trkpt>
      <trkpt lat="45.49984" lon="4.63047">
        <ele>350</ele>
        <time>2010-01-01T05:22:25Z</time>
      </trkpt>
      <trkpt lat="45.49991" lon="4.63052">
        <ele>350</ele>
        <time>2010-01-01T05:22:28Z</time>
      </trkpt>
      <trkpt lat="45.49997" lon="4.63062">
        <ele>350</ele>
        <time>2010-01-01T05:22:32Z</time>
      </trkpt>
      <trkpt lat="45.50004" lon="4.63122">
        <ele>355</ele>
        <time>2010-01-01T05:22:49Z</time>
      </trkpt>
      <trkpt lat="45.50008" lon="4.63132">
        <ele>354</ele>
        <time>2010-01-01T05:22:52Z</time>
      </trkpt>
      <trkpt lat="45.50014" lon="4.63139">
        <ele>351</ele>
        <time>2010-01-01T05:22:56Z</time>
      </trkpt>
      <trkpt lat="45.50039" lon="4.63157">
        <ele>345</ele>
        <time>2010-01-01T05:23:07Z</time>
      </trkpt>
      <trkpt lat="45.50059" lon="4.63194">
        <ele>349</ele>
        <time>2010-01-01T05:23:20Z</time>
      </trkpt>
      <trkpt lat="45.50068" lon="4.63205">
        <ele>350</ele>
        <time>2010-01-01T05:23:25Z</time>
      </trkpt>
      <trkpt lat="45.50075" lon="4.6321">
        <ele>350</ele>
        <time>2010-01-01T05:23:28Z</time>
      </trkpt>
      <trkpt lat="45.50092" lon="4.63214">
        <ele>348</ele>
        <time>2010-01-01T05:23:35Z</time>
      </trkpt>
      <trkpt lat="45.50112" lon="4.63213">
        <ele>346</ele>
        <time>2010-01-01T05:23:43Z</time>
      </trkpt>
      <trkpt lat="45.50124" lon="4.6321">
        <ele>345</ele>
        <time>2010-01-01T05:23:48Z</time>
      </trkpt>
      <trkpt lat="45.5019" lon="4.63177">
        <ele>340</ele>
        <time>2010-01-01T05:24:16Z</time>
      </trkpt>
      <trkpt lat="45.50207" lon="4.63177">
        <ele>337</ele>
        <time>2010-01-01T05:24:22Z</time>
      </trkpt>
      <trkpt lat="45.50215" lon="4.63181">
        <ele>336</ele>
        <time>2010-01-01T05:24:26Z</time>
      </trkpt>
      <trkpt lat="45.50222" lon="4.63187">
        <ele>337</ele>
        <time>2010-01-01T05:24:29Z</time>
      </trkpt>
      <trkpt lat="45.50229" lon="4.63199">
        <ele>338</ele>
        <time>2010-01-01T05:24:33Z</time>
      </trkpt>
      <trkpt lat="45.50246" lon="4.6324">
        <ele>343</ele>
        <time>2010-01-01T05:24:47Z</time>
      </trkpt>
      <trkpt lat="45.50253" lon="4.63251">
        <ele>344</ele>
        <time>2010-01-01T05:24:51Z</time>
      </trkpt>
      <trkpt lat="45.50261" lon="4.63259">
        <ele>345</ele>
        <time>2010-01-01T05:24:55Z</time>
      </trkpt>
      <trkpt lat="45.50273" lon="4.63265">
        <ele>344</ele>
        <time>2010-01-01T05:25:00Z</time>
      </trkpt>
      <trkpt lat="45.50282" lon="4.63269">
        <ele>344</ele>
        <time>2010-01-01T05:25:04Z</time>
      </trkpt>
      <trkpt lat="45.50304" lon="4.63272">
        <ele>341</ele>
        <time>2010-01-01T05:25:13Z</time>
      </trkpt>
      <trkpt lat="45.50314" lon="4.63272">
        <ele>341</ele>
        <time>2010-01-01T05:25:17Z</time>
      </trkpt>
      <trkpt lat="45.50334" lon="4.63264">
        <ele>338</ele>
        <time>2010-01-01T05:25:25Z</time>
      </trkpt>
      <trkpt lat="45.50389" lon="4.63226">
        <ele>327</ele>
        <time>2010-01-01T05:25:49Z</time>
      </trkpt>
      <trkpt lat="45.50404" lon="4.63221">
        <ele>325</ele>
        <time>2010-01-01T05:25:55Z</time>
      </trkpt>
      <trkpt lat="45.50414" lon="4.63226">
        <ele>326</ele>
        <time>2010-01-01T05:26:00Z</time>
      </trkpt>
      <trkpt lat="45.50418" lon="4.63231">
        <ele>327</ele>
        <time>2010-01-01T05:26:02Z</time>
      </trkpt>
      <trkpt lat="45.50437" lon="4.63289">
        <ele>335</ele>
        <time>2010-01-01T05:26:20Z</time>
      </trkpt>
      <trkpt lat="45.50442" lon="4.633">
        <ele>335</ele>
        <time>2010-01-01T05:26:23Z</time>
      </trkpt>
      <trkpt lat="45.50447" lon="4.63306">
        <ele>335</ele>
        <time>2010-01-01T05:26:26Z</time>
      </trkpt>
      <trkpt lat="45.50453" lon="4.63308">
        <ele>335</ele>
        <time>2010-01-01T05:26:29Z</time>
      </trkpt>
      <trkpt lat="45.50463" lon="4.63308">
        <ele>336</ele>
        <time>2010-01-01T05:26:33Z</time>
      </trkpt>
      <trkpt lat="45.50468" lon="4.63305">
        <ele>335</ele>
        <time>2010-01-01T05:26:35Z</time>
      </trkpt>
      <trkpt lat="45.50473" lon="4.63299">
        <ele>335</ele>
        <time>2010-01-01T05:26:37Z</time>
      </trkpt>
      <trkpt lat="45.50475" lon="4.63291">
        <ele>334</ele>
        <time>2010-01-01T05:26:40Z</time>
      </trkpt>
      <trkpt lat="45.50474" lon="4.63263">
        <ele>331</ele>
        <time>2010-01-01T05:26:48Z</time>
      </trkpt>
      <trkpt lat="45.50468" lon="4.63214">
        <ele>325</ele>
        <time>2010-01-01T05:27:02Z</time>
      </trkpt>
      <trkpt lat="45.50468" lon="4.63181">
        <ele>323</ele>
        <time>2010-01-01T05:27:11Z</time>
      </trkpt>
      <trkpt lat="45.50482" lon="4.63152">
        <ele>324</ele>
        <time>2010-01-01T05:27:21Z</time>
      </trkpt>
      <trkpt lat="45.50521" lon="4.63107">
        <ele>324</ele>
        <time>2010-01-01T05:27:41Z</time>
      </trkpt>
      <trkpt lat="45.50578" lon="4.63069">
        <ele>322</ele>
        <time>2010-01-01T05:28:06Z</time>
      </trkpt>
      <trkpt lat="45.50606" lon="4.63042">
        <ele>322</ele>
        <time>2010-01-01T05:28:19Z</time>
      </trkpt>
      <trkpt lat="45.50658" lon="4.62961">
        <ele>315</ele>
        <time>2010-01-01T05:28:50Z</time>
      </trkpt>
      <trkpt lat="45.5067" lon="4.62955">
        <ele>314</ele>
        <time>2010-01-01T05:28:55Z</time>
      </trkpt>
      <trkpt lat="45.50683" lon="4.62957">
        <ele>314</ele>
        <time>2010-01-01T05:29:01Z</time>
      </trkpt>
      <trkpt lat="45.50701" lon="4.62968">
        <ele>316</ele>
        <time>2010-01-01T05:29:08Z</time>
      </trkpt>
      <trkpt lat="45.50723" lon="4.62973">
        <ele>320</ele>
        <time>2010-01-01T05:29:17Z</time>
      </trkpt>
      <trkpt lat="45.50749" lon="4.62955">
        <ele>321</ele>
        <time>2010-01-01T05:29:29Z</time>
      </trkpt>
      <trkpt lat="45.5076" lon="4.62931">
        <ele>319</ele>
        <time>2010-01-01T05:29:37Z</time>
      </trkpt>
      <trkpt lat="45.50772" lon="4.62824">
        <ele>309</ele>
        <time>2010-01-01T05:30:07Z</time>
      </trkpt>
      <trkpt lat="45.50784" lon="4.62766">
        <ele>305</ele>
        <time>2010-01-01T05:30:24Z</time>
      </trkpt>
      <trkpt lat="45.50794" lon="4.62746">
        <ele>305</ele>
        <time>2010-01-01T05:30:31Z</time>
      </trkpt>
      <trkpt lat="45.50808" lon="4.62732">
        <ele>304</ele>
        <time>2010-01-01T05:30:38Z</time>
      </trkpt>
      <trkpt lat="45.50821" lon="4.62731">
        <ele>303</ele>
        <time>2010-01-01T05:30:43Z</time>
      </trkpt>
      <trkpt lat="45.50832" lon="4.62741">
        <ele>302</ele>
        <time>2010-01-01T05:30:49Z</time>
      </trkpt>
      <trkpt lat="45.50841" lon="4.62785">
        <ele>306</ele>
        <time>2010-01-01T05:31:01Z</time>
      </trkpt>
      <trkpt lat="45.50849" lon="4.62806">
        <ele>309</ele>
        <time>2010-01-01T05:31:08Z</time>
      </trkpt>
      <trkpt lat="45.5086" lon="4.6282">
        <ele>311</ele>
        <time>2010-01-01T05:31:14Z</time>
      </trkpt>
      <trkpt lat="45.50873" lon="4.62829">
        <ele>311</ele>
        <time>2010-01-01T05:31:20Z</time>
      </trkpt>
      <trkpt lat="45.50893" lon="4.62836">
        <ele>309</ele>
        <time>2010-01-01T05:31:28Z</time>
      </trkpt>
      <trkpt lat="45.50917" lon="4.6283">
        <ele>304</ele>
        <time>2010-01-01T05:31:38Z</time>
      </trkpt>
      <trkpt lat="45.50931" lon="4.62832">
        <ele>302</ele>
        <time>2010-01-01T05:31:43Z</time>
      </trkpt>
      <trkpt lat="45.50949" lon="4.62844">
        <ele>302</ele>
        <time>2010-01-01T05:31:51Z</time>
      </trkpt>
      <trkpt lat="45.50965" lon="4.62861">
        <ele>303</ele>
        <time>2010-01-01T05:31:59Z</time>
      </trkpt>
      <trkpt lat="45.50985" lon="4.62901">
        <ele>307</ele>
        <time>2010-01-01T05:32:13Z</time>
      </trkpt>
      <trkpt lat="45.50997" lon="4.62918">
        <ele>305</ele>
        <time>2010-01-01T05:32:20Z</time>
      </trkpt>
      <trkpt lat="45.51015" lon="4.62935">
        <ele>306</ele>
        <time>2010-01-01T05:32:29Z</time>
      </trkpt>
      <trkpt lat="45.51029" lon="4.6294">
        <ele>304</ele>
        <time>2010-01-01T05:32:34Z</time>
      </trkpt>
      <trkpt lat="45.51046" lon="4.62937">
        <ele>303</ele>
        <time>2010-01-01T05:32:41Z</time>
      </trkpt>
      <trkpt lat="45.51089" lon="4.62941">
        <ele>301</ele>
        <time>2010-01-01T05:32:58Z</time>
      </trkpt>
      <trkpt lat="45.51113" lon="4.62939">
        <ele>300</ele>
        <time>2010-01-01T05:33:08Z</time>
      </trkpt>
      <trkpt lat="45.51156" lon="4.62926">
        <ele>295</ele>
        <time>2010-01-01T05:33:26Z</time>
      </trkpt>
      <trkpt lat="45.51179" lon="4.62929">
        <ele>294</ele>
        <time>2010-01-01T05:33:35Z</time>
      </trkpt>
      <trkpt lat="45.51196" lon="4.62934">
        <ele>294</ele>
        <time>2010-01-01T05:33:42Z</time>
      </trkpt>
      <trkpt lat="45.51212" lon="4.6293">
        <ele>293</ele>
        <time>2010-01-01T05:33:48Z</time>
      </trkpt>
      <trkpt lat="45.51243" lon="4.6291">
        <ele>290</ele>
        <time>2010-01-01T05:34:02Z</time>
      </trkpt>
      <trkpt lat="45.51259" lon="4.62903">
        <ele>289</ele>
        <time>2010-01-01T05:34:09Z</time>
      </trkpt>
      <trkpt lat="45.51281" lon="4.62904">
        <ele>289</ele>
        <time>2010-01-01T05:34:17Z</time>
      </trkpt>
      <trkpt lat="45.51297" lon="4.62913">
        <ele>286</ele>
        <time>2010-01-01T05:34:24Z</time>
      </trkpt>
      <trkpt lat="45.51317" lon="4.62932">
        <ele>285</ele>
        <time>2010-01-01T05:34:34Z</time>
      </trkpt>
      <trkpt lat="45.51364" lon="4.63006">
        <ele>286</ele>
        <time>2010-01-01T05:35:02Z</time>
      </trkpt>
      <trkpt lat="45.51381" lon="4.63017">
        <ele>289</ele>
        <time>2010-01-01T05:35:09Z</time>
      </trkpt>
      <trkpt lat="45.51398" lon="4.63012">
        <ele>290</ele>
        <time>2010-01-01T05:35:16Z</time>
      </trkpt>
      <trkpt lat="45.51408" lon="4.62995">
        <ele>289</ele>
        <time>2010-01-01T05:35:23Z</time>
      </trkpt>
      <trkpt lat="45.5142" lon="4.62964">
        <ele>285</ele>
        <time>2010-01-01T05:35:33Z</time>
      </trkpt>
      <trkpt lat="45.51431" lon="4.6294">
        <ele>285</ele>
        <time>2010-01-01T05:35:41Z</time>
      </trkpt>
      <trkpt lat="45.51437" lon="4.62918">
        <ele>284</ele>
        <time>2010-01-01T05:35:47Z</time>
      </trkpt>
      <trkpt lat="45.5144" lon="4.62894">
        <ele>281</ele>
        <time>2010-01-01T05:35:54Z</time>
      </trkpt>
      <trkpt lat="45.51447" lon="4.62874">
        <ele>279</ele>
        <time>2010-01-01T05:36:00Z</time>
      </trkpt>
      <trkpt lat="45.51458" lon="4.62862">
        <ele>279</ele>
        <time>2010-01-01T05:36:06Z</time>
      </trkpt>
      <trkpt lat="45.51475" lon="4.62863">
        <ele>281</ele>
        <time>2010-01-01T05:36:13Z</time>
      </trkpt>
      <trkpt lat="45.51537" lon="4.62891">
        <ele>278</ele>
        <time>2010-01-01T05:36:39Z</time>
      </trkpt>
      <trkpt lat="45.51567" lon="4.62893">
        <ele>278</ele>
        <time>2010-01-01T05:36:51Z</time>
      </trkpt>
      <trkpt lat="45.51606" lon="4.62883">
        <ele>279</ele>
        <time>2010-01-01T05:37:07Z</time>
      </trkpt>
      <trkpt lat="45.51633" lon="4.62873">
        <ele>280</ele>
        <time>2010-01-01T05:37:18Z</time>
      </trkpt>
      <trkpt lat="45.51652" lon="4.62859">
        <ele>280</ele>
        <time>2010-01-01T05:37:26Z</time>
      </trkpt>
      <trkpt lat="45.51674" lon="4.62819">
        <ele>278</ele>
        <time>2010-01-01T05:37:41Z</time>
      </trkpt>
      <trkpt lat="45.51685" lon="4.62805">
        <ele>276</ele>
        <time>2010-01-01T05:37:47Z</time>
      </trkpt>
      <trkpt lat="45.51695" lon="4.62793">
        <ele>275</ele>
        <time>2010-01-01T05:37:52Z</time>
      </trkpt>
      <trkpt lat="45.51706" lon="4.62785">
        <ele>273</ele>
        <time>2010-01-01T05:37:57Z</time>
      </trkpt>
      <trkpt lat="45.51743" lon="4.62782">
        <ele>271</ele>
        <time>2010-01-01T05:38:12Z</time>
      </trkpt>
      <trkpt lat="45.5184" lon="4.62748">
        <ele>271</ele>
        <time>2010-01-01T05:38:51Z</time>
      </trkpt>
      <trkpt lat="45.51856" lon="4.6274">
        <ele>271</ele>
        <time>2010-01-01T05:38:58Z</time>
      </trkpt>
      <trkpt lat="45.51865" lon="4.62729">
        <ele>269</ele>
        <time>2010-01-01T05:39:03Z</time>
      </trkpt>
      <trkpt lat="45.51874" lon="4.62709">
        <ele>267</ele>
        <time>2010-01-01T05:39:10Z</time>
      </trkpt>
      <trkpt lat="45.51884" lon="4.62697">
        <ele>267</ele>
        <time>2010-01-01T05:39:15Z</time>
      </trkpt>
      <trkpt lat="45.51919" lon="4.62675">
        <ele>271</ele>
        <time>2010-01-01T05:39:30Z</time>
      </trkpt>
      <trkpt lat="45.5193" lon="4.62659">
        <ele>269</ele>
        <time>2010-01-01T05:39:37Z</time>
      </trkpt>
      <trkpt lat="45.5194" lon="4.62631">
        <ele>264</ele>
        <time>2010-01-01T05:39:45Z</time>
      </trkpt>
      <trkpt lat="45.51955" lon="4.62621">
        <ele>263</ele>
        <time>2010-01-01T05:39:52Z</time>
      </trkpt>
      <trkpt lat="45.52064" lon="4.62631">
        <ele>265</ele>
        <time>2010-01-01T05:40:36Z</time>
      </trkpt>
      <trkpt lat="45.52132" lon="4.62612">
        <ele>268</ele>
        <time>2010-01-01T05:41:03Z</time>
      </trkpt>
      <trkpt lat="45.52152" lon="4.62595">
        <ele>267</ele>
        <time>2010-01-01T05:41:13Z</time>
      </trkpt>
      <trkpt lat="45.52158" lon="4.62569">
        <ele>262</ele>
        <time>2010-01-01T05:41:20Z</time>
      </trkpt>
      <trkpt lat="45.52166" lon="4.62545">
        <ele>259</ele>
        <time>2010-01-01T05:41:28Z</time>
      </trkpt>
      <trkpt lat="45.52213" lon="4.62505">
        <ele>258</ele>
        <time>2010-01-01T05:41:50Z</time>
      </trkpt>
      <trkpt lat="45.5223" lon="4.62484">
        <ele>257</ele>
        <time>2010-01-01T05:41:59Z</time>
      </trkpt>
      <trkpt lat="45.5225" lon="4.62467">
        <ele>256</ele>
        <time>2010-01-01T05:42:08Z</time>
      </trkpt>
      <trkpt lat="45.52275" lon="4.62451">
        <ele>254</ele>
        <time>2010-01-01T05:42:19Z</time>
      </trkpt>
      <trkpt lat="45.52274" lon="4.62441">
        <ele>253</ele>
        <time>2010-01-01T05:42:22Z</time>
      </trkpt>
    </trkseg>
  </trk>
</gpx>